PWSweather.com
Personal Weather Stations
Station Observations
1A3COP
Copperhill Airport Community, Copperhill, TN 37317

Copperhill Airport CommunityCopperhill, TN 37317

Lat: 35.015465, Lon: -84.340598

Elevation: 1830

Station Type: Acurite Pro 5 in 1

High Low Average
Temperature 54.7°F12.6°C 42.7°F5.9°C 50.0°F10.0°C
Dew Point 54.4°F12.4°C 42.5°F5.8°C 49.6°F9.8°C
Winds 10.4 mph 16.7 kmh Calm Calm 4.0 mph S6.4 kmh S
Wind Gusts 16.1 mph25.9 kmh -- 6.0 mph9.7 kmh
Humidity 99% 94% 99%
Pressure 30.11 in1019.6 mb 29.61 in1002.7 mb -
Precipitation 2.13 in54.1 mm - -
Hour Temp Dew Point Humidity Winds Wind Gusts Pressure Precip Precip Rate Daily Precip Total
12:00 AM 42.7°F5.9°C 42.5°F5.8°C 99% 1.2 mph SSW1.9 kmh SSW 2.3 mph3.7 kmh 30.11 in1019.6 mb - 0.00 in0.0 mm 0.00 in0.0 mm
12:01 AM 43.0°F6.1°C 42.7°F5.9°C 99% 1.2 mph S1.9 kmh S 1.2 mph1.9 kmh 30.11 in1019.6 mb - 0.00 in0.0 mm 0.00 in0.0 mm
12:02 AM 43.0°F6.1°C 42.7°F5.9°C 99% 1.2 mph S1.9 kmh S 1.2 mph1.9 kmh 30.11 in1019.6 mb - 0.00 in0.0 mm 0.00 in0.0 mm
12:03 AM 43.0°F6.1°C 42.7°F5.9°C 99% Calm Calm 1.2 mph1.9 kmh 30.11 in1019.6 mb - 0.00 in0.0 mm 0.00 in0.0 mm
12:04 AM 43.1°F6.2°C 42.8°F6.0°C 99% Calm Calm -- 30.11 in1019.6 mb - 0.00 in0.0 mm 0.00 in0.0 mm
12:05 AM 43.2°F6.2°C 42.9°F6.1°C 99% Calm Calm 2.3 mph3.7 kmh 30.11 in1019.6 mb - 0.00 in0.0 mm 0.00 in0.0 mm
12:06 AM 43.2°F6.2°C 42.9°F6.1°C 99% 1.2 mph S1.9 kmh S 2.3 mph3.7 kmh 30.11 in1019.6 mb - 0.00 in0.0 mm 0.00 in0.0 mm
12:07 AM 43.3°F6.3°C 43.0°F6.1°C 99% 1.2 mph S1.9 kmh S 2.3 mph3.7 kmh 30.11 in1019.6 mb - 0.00 in0.0 mm 0.00 in0.0 mm
12:08 AM 43.4°F6.3°C 43.2°F6.2°C 99% 1.2 mph SSW1.9 kmh SSW 1.2 mph1.9 kmh 30.11 in1019.6 mb - 0.00 in0.0 mm 0.00 in0.0 mm
12:09 AM 43.5°F6.4°C 43.2°F6.2°C 99% Calm Calm -- 30.11 in1019.6 mb - 0.00 in0.0 mm 0.00 in0.0 mm
12:10 AM 43.5°F6.4°C 43.2°F6.2°C 99% Calm Calm 2.3 mph3.7 kmh 30.11 in1019.6 mb - 0.00 in0.0 mm 0.00 in0.0 mm
12:11 AM 43.5°F6.4°C 43.2°F6.2°C 99% 1.2 mph SSE1.9 kmh SSE 2.3 mph3.7 kmh 30.11 in1019.6 mb - 0.00 in0.0 mm 0.00 in0.0 mm
12:12 AM 43.5°F6.4°C 43.2°F6.2°C 99% 1.2 mph S1.9 kmh S 1.2 mph1.9 kmh 30.11 in1019.6 mb - 0.00 in0.0 mm 0.00 in0.0 mm
12:13 AM 43.5°F6.4°C 43.2°F6.2°C 99% 1.2 mph SW1.9 kmh SW 2.3 mph3.7 kmh 30.11 in1019.6 mb - 0.00 in0.0 mm 0.00 in0.0 mm
12:14 AM 43.6°F6.4°C 43.3°F6.3°C 99% 2.3 mph SSW3.7 kmh SSW 2.3 mph3.7 kmh 30.11 in1019.6 mb - 0.00 in0.0 mm 0.00 in0.0 mm
12:15 AM 43.7°F6.5°C 43.4°F6.3°C 99% 1.2 mph E1.9 kmh E 1.2 mph1.9 kmh 30.11 in1019.6 mb - 0.00 in0.0 mm 0.00 in0.0 mm
12:16 AM 43.7°F6.5°C 43.4°F6.3°C 99% 1.2 mph WSW1.9 kmh WSW 1.2 mph1.9 kmh 30.11 in1019.6 mb - 0.00 in0.0 mm 0.00 in0.0 mm
12:17 AM 43.5°F6.4°C 43.2°F6.2°C 99% 1.2 mph SSW1.9 kmh SSW 1.2 mph1.9 kmh 30.11 in1019.6 mb - 0.00 in0.0 mm 0.00 in0.0 mm
12:18 AM 43.5°F6.4°C 43.2°F6.2°C 99% 1.2 mph SW1.9 kmh SW 1.2 mph1.9 kmh 30.11 in1019.6 mb - 0.00 in0.0 mm 0.00 in0.0 mm
12:19 AM 43.5°F6.4°C 43.2°F6.2°C 99% 1.2 mph SSE1.9 kmh SSE 2.3 mph3.7 kmh 30.11 in1019.6 mb - 0.00 in0.0 mm 0.00 in0.0 mm
12:20 AM 43.5°F6.4°C 43.2°F6.2°C 99% 2.3 mph SSW3.7 kmh SSW 3.5 mph5.6 kmh 30.11 in1019.6 mb - 0.00 in0.0 mm 0.00 in0.0 mm
12:21 AM 43.5°F6.4°C 43.2°F6.2°C 99% 1.2 mph SSW1.9 kmh SSW 1.2 mph1.9 kmh 30.11 in1019.6 mb - 0.00 in0.0 mm 0.00 in0.0 mm
12:22 AM 43.5°F6.4°C 43.2°F6.2°C 99% 1.2 mph S1.9 kmh S 2.3 mph3.7 kmh 30.11 in1019.6 mb - 0.00 in0.0 mm 0.00 in0.0 mm
12:23 AM 43.5°F6.4°C 43.2°F6.2°C 99% 1.2 mph SW1.9 kmh SW 2.3 mph3.7 kmh 30.11 in1019.6 mb - 0.00 in0.0 mm 0.00 in0.0 mm
12:24 AM 43.5°F6.4°C 43.2°F6.2°C 99% 2.3 mph SSE3.7 kmh SSE 3.5 mph5.6 kmh 30.11 in1019.6 mb - 0.00 in0.0 mm 0.00 in0.0 mm
12:25 AM 43.5°F6.4°C 43.2°F6.2°C 99% 2.3 mph S3.7 kmh S 2.3 mph3.7 kmh 30.11 in1019.6 mb - 0.00 in0.0 mm 0.00 in0.0 mm
12:26 AM 43.7°F6.5°C 43.4°F6.3°C 99% 2.3 mph SW3.7 kmh SW 2.3 mph3.7 kmh 30.11 in1019.6 mb - 0.00 in0.0 mm 0.00 in0.0 mm
12:27 AM 43.7°F6.5°C 43.4°F6.3°C 99% 1.2 mph SSE1.9 kmh SSE 1.2 mph1.9 kmh 30.11 in1019.6 mb - 0.00 in0.0 mm 0.00 in0.0 mm
12:28 AM 43.7°F6.5°C 43.4°F6.3°C 99% 1.2 mph WSW1.9 kmh WSW 1.2 mph1.9 kmh 30.11 in1019.6 mb - 0.00 in0.0 mm 0.00 in0.0 mm
12:29 AM 43.7°F6.5°C 43.4°F6.3°C 99% 1.2 mph SW1.9 kmh SW 2.3 mph3.7 kmh 30.11 in1019.6 mb - 0.00 in0.0 mm 0.00 in0.0 mm
12:30 AM 43.7°F6.5°C 43.4°F6.3°C 99% 2.3 mph SSW3.7 kmh SSW 5.8 mph9.3 kmh 30.11 in1019.6 mb - 0.00 in0.0 mm 0.00 in0.0 mm
12:31 AM 43.7°F6.5°C 43.4°F6.3°C 99% 3.5 mph SE5.6 kmh SE 2.3 mph3.7 kmh 30.11 in1019.6 mb - 0.00 in0.0 mm 0.00 in0.0 mm
12:32 AM 43.8°F6.6°C 43.6°F6.4°C 99% 2.3 mph SW3.7 kmh SW 2.3 mph3.7 kmh 30.11 in1019.6 mb - 0.00 in0.0 mm 0.00 in0.0 mm
12:33 AM 43.9°F6.6°C 43.6°F6.4°C 99% 1.2 mph SSW1.9 kmh SSW -- 30.11 in1019.6 mb - 0.00 in0.0 mm 0.00 in0.0 mm
12:34 AM 44.0°F6.7°C 43.8°F6.6°C 99% Calm Calm 5.8 mph9.3 kmh 30.11 in1019.6 mb - 0.00 in0.0 mm 0.00 in0.0 mm
12:35 AM 44.1°F6.7°C 43.8°F6.6°C 99% 2.3 mph WSW3.7 kmh WSW 2.3 mph3.7 kmh 30.11 in1019.6 mb - 0.00 in0.0 mm 0.00 in0.0 mm
12:36 AM 44.1°F6.7°C 43.8°F6.6°C 99% 1.2 mph S1.9 kmh S 2.3 mph3.7 kmh 30.11 in1019.6 mb - 0.00 in0.0 mm 0.00 in0.0 mm
12:37 AM 44.2°F6.8°C 43.9°F6.6°C 99% 2.3 mph S3.7 kmh S 6.9 mph11.1 kmh 30.11 in1019.6 mb - 0.00 in0.0 mm 0.00 in0.0 mm
12:38 AM 44.3°F6.8°C 44.0°F6.7°C 99% 3.5 mph ENE5.6 kmh ENE 3.5 mph5.6 kmh 30.10 in1019.3 mb - 0.00 in0.0 mm 0.00 in0.0 mm
12:39 AM 44.4°F6.9°C 44.2°F6.8°C 99% 2.3 mph SSW3.7 kmh SSW 2.3 mph3.7 kmh 30.09 in1019.0 mb - 0.00 in0.0 mm 0.00 in0.0 mm
12:40 AM 44.6°F7.0°C 44.3°F6.8°C 99% 1.2 mph ENE1.9 kmh ENE 4.6 mph7.4 kmh 30.09 in1019.0 mb - 0.00 in0.0 mm 0.00 in0.0 mm
12:41 AM 44.6°F7.0°C 44.3°F6.8°C 99% 2.3 mph SW3.7 kmh SW 4.6 mph7.4 kmh 30.09 in1019.0 mb - 0.00 in0.0 mm 0.00 in0.0 mm
12:42 AM 44.6°F7.0°C 44.3°F6.8°C 99% 2.3 mph SW3.7 kmh SW 2.3 mph3.7 kmh 30.09 in1019.0 mb - 0.00 in0.0 mm 0.00 in0.0 mm
12:43 AM 44.4°F6.9°C 44.1°F6.7°C 99% 1.2 mph SW1.9 kmh SW 2.3 mph3.7 kmh 30.09 in1019.0 mb - 0.00 in0.0 mm 0.00 in0.0 mm
12:44 AM 44.4°F6.9°C 44.1°F6.7°C 99% 1.2 mph SW1.9 kmh SW 2.3 mph3.7 kmh 30.09 in1019.0 mb - 0.00 in0.0 mm 0.00 in0.0 mm
12:45 AM 44.4°F6.9°C 44.1°F6.7°C 99% 2.3 mph S3.7 kmh S 3.5 mph5.6 kmh 30.09 in1019.0 mb - 0.00 in0.0 mm 0.00 in0.0 mm
12:46 AM 44.4°F6.9°C 44.1°F6.7°C 99% 2.3 mph SSW3.7 kmh SSW 1.2 mph1.9 kmh 30.09 in1019.0 mb - 0.00 in0.0 mm 0.00 in0.0 mm
12:47 AM 44.4°F6.9°C 44.1°F6.7°C 99% 1.2 mph S1.9 kmh S 1.2 mph1.9 kmh 30.09 in1019.0 mb - 0.00 in0.0 mm 0.00 in0.0 mm
12:48 AM 44.4°F6.9°C 44.1°F6.7°C 99% 1.2 mph SSW1.9 kmh SSW 1.2 mph1.9 kmh 30.09 in1019.0 mb - 0.00 in0.0 mm 0.00 in0.0 mm
12:49 AM 44.2°F6.8°C 43.9°F6.6°C 99% 1.2 mph SSW1.9 kmh SSW 1.2 mph1.9 kmh 30.09 in1019.0 mb - 0.00 in0.0 mm 0.00 in0.0 mm
12:50 AM 44.2°F6.8°C 43.9°F6.6°C 99% 2.3 mph SW3.7 kmh SW 4.6 mph7.4 kmh 30.10 in1019.3 mb - 0.00 in0.0 mm 0.00 in0.0 mm
12:51 AM 44.2°F6.8°C 43.9°F6.6°C 99% 1.2 mph SW1.9 kmh SW 1.2 mph1.9 kmh 30.10 in1019.3 mb - 0.00 in0.0 mm 0.00 in0.0 mm
12:52 AM 44.2°F6.8°C 43.9°F6.6°C 99% 1.2 mph SSE1.9 kmh SSE 3.5 mph5.6 kmh 30.10 in1019.3 mb - 0.00 in0.0 mm 0.00 in0.0 mm
12:53 AM 44.2°F6.8°C 43.9°F6.6°C 99% 2.3 mph SSW3.7 kmh SSW 3.5 mph5.6 kmh 30.10 in1019.3 mb - 0.00 in0.0 mm 0.00 in0.0 mm
12:54 AM 44.1°F6.7°C 43.8°F6.6°C 99% 2.3 mph SW3.7 kmh SW 2.3 mph3.7 kmh 30.10 in1019.3 mb - 0.00 in0.0 mm 0.00 in0.0 mm
12:55 AM 44.1°F6.7°C 43.8°F6.6°C 99% 1.2 mph SW1.9 kmh SW 2.3 mph3.7 kmh 30.10 in1019.3 mb - 0.00 in0.0 mm 0.00 in0.0 mm
12:56 AM 44.0°F6.7°C 43.8°F6.6°C 99% 1.2 mph S1.9 kmh S 2.3 mph3.7 kmh 30.10 in1019.3 mb - 0.00 in0.0 mm 0.00 in0.0 mm
12:57 AM 43.9°F6.6°C 43.6°F6.4°C 99% 1.2 mph SW1.9 kmh SW 1.2 mph1.9 kmh 30.10 in1019.3 mb - 0.00 in0.0 mm 0.00 in0.0 mm
12:58 AM 43.9°F6.6°C 43.6°F6.4°C 99% Calm Calm -- 30.10 in1019.3 mb - 0.00 in0.0 mm 0.00 in0.0 mm
12:59 AM 43.9°F6.6°C 43.6°F6.4°C 99% Calm Calm 1.2 mph1.9 kmh 30.10 in1019.3 mb - 0.00 in0.0 mm 0.00 in0.0 mm
01:00 AM 43.9°F6.6°C 43.6°F6.4°C 99% 1.2 mph S1.9 kmh S 2.3 mph3.7 kmh 30.10 in1019.3 mb - 0.00 in0.0 mm 0.00 in0.0 mm
01:01 AM 43.9°F6.6°C 43.6°F6.4°C 99% 1.2 mph S1.9 kmh S 2.3 mph3.7 kmh 30.10 in1019.3 mb - 0.00 in0.0 mm 0.00 in0.0 mm
01:02 AM 43.7°F6.5°C 43.4°F6.3°C 99% 1.2 mph SW1.9 kmh SW 2.3 mph3.7 kmh 30.10 in1019.3 mb - 0.00 in0.0 mm 0.00 in0.0 mm
01:03 AM 43.7°F6.5°C 43.4°F6.3°C 99% 1.2 mph SSW1.9 kmh SSW 2.3 mph3.7 kmh 30.10 in1019.3 mb - 0.00 in0.0 mm 0.00 in0.0 mm
01:04 AM 43.7°F6.5°C 43.4°F6.3°C 99% 2.3 mph WSW3.7 kmh WSW 2.3 mph3.7 kmh 30.10 in1019.3 mb - 0.00 in0.0 mm 0.00 in0.0 mm
01:05 AM 43.7°F6.5°C 43.4°F6.3°C 99% Calm Calm -- 30.10 in1019.3 mb - 0.00 in0.0 mm 0.00 in0.0 mm
01:06 AM 43.7°F6.5°C 43.4°F6.3°C 99% Calm Calm -- 30.10 in1019.3 mb - 0.00 in0.0 mm 0.00 in0.0 mm
01:07 AM 43.5°F6.4°C 43.2°F6.2°C 99% Calm Calm -- 30.10 in1019.3 mb - 0.00 in0.0 mm 0.00 in0.0 mm
01:08 AM 43.5°F6.4°C 43.2°F6.2°C 99% Calm Calm -- 30.10 in1019.3 mb - 0.00 in0.0 mm 0.00 in0.0 mm
01:09 AM 43.5°F6.4°C 43.2°F6.2°C 99% Calm Calm 3.5 mph5.6 kmh 30.10 in1019.3 mb - 0.00 in0.0 mm 0.00 in0.0 mm
01:10 AM 43.3°F6.3°C 43.0°F6.1°C 99% 2.3 mph S3.7 kmh S 2.3 mph3.7 kmh 30.10 in1019.3 mb - 0.00 in0.0 mm 0.00 in0.0 mm
01:11 AM 43.3°F6.3°C 43.0°F6.1°C 99% Calm Calm 1.2 mph1.9 kmh 30.10 in1019.3 mb - 0.00 in0.0 mm 0.00 in0.0 mm
01:12 AM 43.3°F6.3°C 43.0°F6.1°C 99% Calm Calm -- 30.10 in1019.3 mb - 0.00 in0.0 mm 0.00 in0.0 mm
01:13 AM 43.3°F6.3°C 43.0°F6.1°C 99% Calm Calm 2.3 mph3.7 kmh 30.10 in1019.3 mb - 0.00 in0.0 mm 0.00 in0.0 mm
01:14 AM 43.2°F6.2°C 42.9°F6.1°C 99% 1.2 mph SSE1.9 kmh SSE 2.3 mph3.7 kmh 30.10 in1019.3 mb - 0.00 in0.0 mm 0.00 in0.0 mm
01:15 AM 43.2°F6.2°C 42.9°F6.1°C 99% 2.3 mph SSE3.7 kmh SSE 2.3 mph3.7 kmh 30.11 in1019.6 mb - 0.00 in0.0 mm 0.00 in0.0 mm
01:16 AM 43.2°F6.2°C 42.9°F6.1°C 99% 1.2 mph S1.9 kmh S 1.2 mph1.9 kmh 30.11 in1019.6 mb - 0.00 in0.0 mm 0.00 in0.0 mm
01:17 AM 43.2°F6.2°C 42.9°F6.1°C 99% 1.2 mph SSW1.9 kmh SSW 2.3 mph3.7 kmh 30.11 in1019.6 mb - 0.00 in0.0 mm 0.00 in0.0 mm
01:18 AM 43.2°F6.2°C 42.9°F6.1°C 99% 2.3 mph S3.7 kmh S 2.3 mph3.7 kmh 30.11 in1019.6 mb - 0.00 in0.0 mm 0.00 in0.0 mm
01:19 AM 43.2°F6.2°C 42.9°F6.1°C 99% 2.3 mph S3.7 kmh S 2.3 mph3.7 kmh 30.11 in1019.6 mb - 0.00 in0.0 mm 0.00 in0.0 mm
01:20 AM 43.2°F6.2°C 42.9°F6.1°C 99% 2.3 mph WSW3.7 kmh WSW 2.3 mph3.7 kmh 30.11 in1019.6 mb - 0.00 in0.0 mm 0.00 in0.0 mm
01:21 AM 43.2°F6.2°C 42.9°F6.1°C 99% 1.2 mph SSW1.9 kmh SSW 2.3 mph3.7 kmh 30.11 in1019.6 mb - 0.00 in0.0 mm 0.00 in0.0 mm
01:22 AM 43.2°F6.2°C 42.9°F6.1°C 99% 1.2 mph SW1.9 kmh SW 1.2 mph1.9 kmh 30.11 in1019.6 mb - 0.00 in0.0 mm 0.00 in0.0 mm
01:23 AM 43.2°F6.2°C 42.9°F6.1°C 99% 1.2 mph S1.9 kmh S 2.3 mph3.7 kmh 30.11 in1019.6 mb - 0.00 in0.0 mm 0.00 in0.0 mm
01:24 AM 43.2°F6.2°C 42.9°F6.1°C 99% Calm Calm 1.2 mph1.9 kmh 30.11 in1019.6 mb - 0.00 in0.0 mm 0.00 in0.0 mm
01:25 AM 43.2°F6.2°C 42.9°F6.1°C 99% 1.2 mph SE1.9 kmh SE 2.3 mph3.7 kmh 30.11 in1019.6 mb - 0.00 in0.0 mm 0.00 in0.0 mm
01:26 AM 43.2°F6.2°C 42.9°F6.1°C 99% 1.2 mph SE1.9 kmh SE 2.3 mph3.7 kmh 30.10 in1019.3 mb - 0.00 in0.0 mm 0.00 in0.0 mm
01:27 AM 43.2°F6.2°C 42.9°F6.1°C 99% Calm Calm -- 30.10 in1019.3 mb - 0.00 in0.0 mm 0.00 in0.0 mm
01:28 AM 43.2°F6.2°C 42.9°F6.1°C 99% Calm Calm 2.3 mph3.7 kmh 30.10 in1019.3 mb - 0.00 in0.0 mm 0.00 in0.0 mm
01:29 AM 43.2°F6.2°C 42.9°F6.1°C 99% 1.2 mph SSE1.9 kmh SSE 1.2 mph1.9 kmh 30.10 in1019.3 mb - 0.00 in0.0 mm 0.00 in0.0 mm
01:30 AM 43.3°F6.3°C 43.0°F6.1°C 99% Calm Calm 1.2 mph1.9 kmh 30.10 in1019.3 mb - 0.00 in0.0 mm 0.00 in0.0 mm
01:31 AM 43.5°F6.4°C 43.2°F6.2°C 99% 1.2 mph SSW1.9 kmh SSW 1.2 mph1.9 kmh 30.10 in1019.3 mb - 0.00 in0.0 mm 0.00 in0.0 mm
01:32 AM 43.5°F6.4°C 43.2°F6.2°C 99% 1.2 mph SE1.9 kmh SE 1.2 mph1.9 kmh 30.10 in1019.3 mb - 0.00 in0.0 mm 0.00 in0.0 mm
01:33 AM 43.5°F6.4°C 43.2°F6.2°C 99% Calm Calm 3.5 mph5.6 kmh 30.10 in1019.3 mb - 0.00 in0.0 mm 0.00 in0.0 mm
01:34 AM 43.7°F6.5°C 43.4°F6.3°C 99% 2.3 mph SE3.7 kmh SE 3.5 mph5.6 kmh 30.10 in1019.3 mb - 0.00 in0.0 mm 0.00 in0.0 mm
01:35 AM 43.7°F6.5°C 43.4°F6.3°C 99% 1.2 mph SE1.9 kmh SE 1.2 mph1.9 kmh 30.10 in1019.3 mb - 0.00 in0.0 mm 0.00 in0.0 mm
01:36 AM 43.8°F6.6°C 43.5°F6.4°C 99% 1.2 mph SE1.9 kmh SE 3.5 mph5.6 kmh 30.10 in1019.3 mb - 0.00 in0.0 mm 0.00 in0.0 mm
01:37 AM 44.1°F6.7°C 43.8°F6.6°C 99% 2.3 mph SSE3.7 kmh SSE 3.5 mph5.6 kmh 30.10 in1019.3 mb - 0.00 in0.0 mm 0.00 in0.0 mm
01:38 AM 44.1°F6.7°C 43.8°F6.6°C 99% 2.3 mph SSW3.7 kmh SSW 3.5 mph5.6 kmh 30.09 in1019.0 mb - 0.00 in0.0 mm 0.00 in0.0 mm
01:39 AM 44.2°F6.8°C 43.9°F6.6°C 99% 1.2 mph S1.9 kmh S 2.3 mph3.7 kmh 30.09 in1019.0 mb - 0.00 in0.0 mm 0.00 in0.0 mm
01:40 AM 44.2°F6.8°C 43.9°F6.6°C 99% 2.3 mph E3.7 kmh E 3.5 mph5.6 kmh 30.09 in1019.0 mb - 0.00 in0.0 mm 0.00 in0.0 mm
01:41 AM 44.2°F6.8°C 43.9°F6.6°C 99% 2.3 mph SE3.7 kmh SE 2.3 mph3.7 kmh 30.09 in1019.0 mb - 0.00 in0.0 mm 0.00 in0.0 mm
01:42 AM 44.2°F6.8°C 44.0°F6.7°C 99% 3.5 mph SSW5.6 kmh SSW 9.2 mph14.8 kmh 30.09 in1019.0 mb - 0.00 in0.0 mm 0.00 in0.0 mm
01:43 AM 44.4°F6.9°C 44.1°F6.7°C 99% 4.6 mph S7.4 kmh S 5.8 mph9.3 kmh 30.09 in1019.0 mb - 0.00 in0.0 mm 0.00 in0.0 mm
01:44 AM 44.6°F7.0°C 44.3°F6.8°C 99% 1.2 mph ESE1.9 kmh ESE 2.3 mph3.7 kmh 30.09 in1019.0 mb - 0.00 in0.0 mm 0.00 in0.0 mm
01:45 AM 44.6°F7.0°C 44.3°F6.8°C 99% 2.3 mph S3.7 kmh S 2.3 mph3.7 kmh 30.09 in1019.0 mb - 0.00 in0.0 mm 0.00 in0.0 mm
01:46 AM 44.7°F7.1°C 44.5°F6.9°C 99% 2.3 mph ESE3.7 kmh ESE 9.2 mph14.8 kmh 30.09 in1019.0 mb - 0.00 in0.0 mm 0.00 in0.0 mm
01:47 AM 45.0°F7.2°C 44.7°F7.1°C 99% 4.6 mph S7.4 kmh S 9.2 mph14.8 kmh 30.09 in1019.0 mb - 0.00 in0.0 mm 0.00 in0.0 mm
01:48 AM 45.0°F7.2°C 44.7°F7.1°C 99% 3.5 mph SE5.6 kmh SE 4.6 mph7.4 kmh 30.09 in1019.0 mb - 0.00 in0.0 mm 0.00 in0.0 mm
01:49 AM 45.0°F7.2°C 44.7°F7.1°C 99% 2.3 mph S3.7 kmh S 4.6 mph7.4 kmh 30.09 in1019.0 mb - 0.00 in0.0 mm 0.00 in0.0 mm
01:50 AM 45.1°F7.3°C 44.8°F7.1°C 99% 3.5 mph SSW5.6 kmh SSW 4.6 mph7.4 kmh 30.08 in1018.6 mb - 0.00 in0.0 mm 0.00 in0.0 mm
01:51 AM 45.1°F7.3°C 44.8°F7.1°C 99% 2.3 mph SE3.7 kmh SE 5.8 mph9.3 kmh 30.08 in1018.6 mb - 0.00 in0.0 mm 0.00 in0.0 mm
01:52 AM 45.1°F7.3°C 44.8°F7.1°C 99% 3.5 mph ESE5.6 kmh ESE 5.8 mph9.3 kmh 30.08 in1018.6 mb - 0.00 in0.0 mm 0.00 in0.0 mm
01:53 AM 45.3°F7.4°C 45.0°F7.2°C 99% 3.5 mph SE5.6 kmh SE 4.6 mph7.4 kmh 30.08 in1018.6 mb - 0.00 in0.0 mm 0.00 in0.0 mm
01:54 AM 45.3°F7.4°C 45.0°F7.2°C 99% 4.6 mph SE7.4 kmh SE 9.2 mph14.8 kmh 30.08 in1018.6 mb - 0.00 in0.0 mm 0.00 in0.0 mm
01:55 AM 45.3°F7.4°C 45.1°F7.3°C 99% 4.6 mph SE7.4 kmh SE 5.8 mph9.3 kmh 30.08 in1018.6 mb - 0.00 in0.0 mm 0.00 in0.0 mm
01:56 AM 45.5°F7.5°C 45.2°F7.3°C 99% 4.6 mph SE7.4 kmh SE 4.6 mph7.4 kmh 30.08 in1018.6 mb - 0.00 in0.0 mm 0.00 in0.0 mm
01:57 AM 45.5°F7.5°C 45.2°F7.3°C 99% 3.5 mph SSE5.6 kmh SSE 5.8 mph9.3 kmh 30.08 in1018.6 mb - 0.00 in0.0 mm 0.00 in0.0 mm
01:58 AM 45.5°F7.5°C 45.2°F7.3°C 99% 3.5 mph SSE5.6 kmh SSE 5.8 mph9.3 kmh 30.08 in1018.6 mb - 0.00 in0.0 mm 0.00 in0.0 mm
01:59 AM 45.5°F7.5°C 45.2°F7.3°C 99% 2.3 mph SE3.7 kmh SE 4.6 mph7.4 kmh 30.08 in1018.6 mb - 0.00 in0.0 mm 0.00 in0.0 mm
02:00 AM 45.5°F7.5°C 45.2°F7.3°C 99% 3.5 mph S5.6 kmh S 4.6 mph7.4 kmh 30.08 in1018.6 mb - 0.00 in0.0 mm 0.00 in0.0 mm
02:01 AM 45.5°F7.5°C 45.2°F7.3°C 99% 4.6 mph ESE7.4 kmh ESE 6.9 mph11.1 kmh 30.08 in1018.6 mb - 0.00 in0.0 mm 0.00 in0.0 mm
02:02 AM 45.5°F7.5°C 45.2°F7.3°C 99% 3.5 mph SE5.6 kmh SE 3.5 mph5.6 kmh 30.08 in1018.6 mb - 0.00 in0.0 mm 0.00 in0.0 mm
02:03 AM 45.5°F7.5°C 45.2°F7.3°C 99% 2.3 mph SE3.7 kmh SE 4.6 mph7.4 kmh 30.08 in1018.6 mb - 0.00 in0.0 mm 0.00 in0.0 mm
02:04 AM 45.5°F7.5°C 45.2°F7.3°C 99% 2.3 mph SSE3.7 kmh SSE 5.8 mph9.3 kmh 30.08 in1018.6 mb - 0.00 in0.0 mm 0.00 in0.0 mm
02:05 AM 45.5°F7.5°C 45.2°F7.3°C 99% 3.5 mph S5.6 kmh S 5.8 mph9.3 kmh 30.08 in1018.6 mb - 0.00 in0.0 mm 0.00 in0.0 mm
02:06 AM 45.5°F7.5°C 45.2°F7.3°C 99% 1.2 mph SE1.9 kmh SE 2.3 mph3.7 kmh 30.08 in1018.6 mb - 0.00 in0.0 mm 0.00 in0.0 mm
02:07 AM 45.5°F7.5°C 45.2°F7.3°C 99% 3.5 mph ESE5.6 kmh ESE 5.8 mph9.3 kmh 30.08 in1018.6 mb - 0.00 in0.0 mm 0.00 in0.0 mm
02:08 AM 45.5°F7.5°C 45.2°F7.3°C 99% 3.5 mph SSE5.6 kmh SSE 2.3 mph3.7 kmh 30.08 in1018.6 mb - 0.00 in0.0 mm 0.00 in0.0 mm
02:09 AM 45.5°F7.5°C 45.2°F7.3°C 99% 2.3 mph S3.7 kmh S 4.6 mph7.4 kmh 30.08 in1018.6 mb - 0.00 in0.0 mm 0.00 in0.0 mm
02:10 AM 45.5°F7.5°C 45.2°F7.3°C 99% 2.3 mph SSE3.7 kmh SSE 2.3 mph3.7 kmh 30.08 in1018.6 mb - 0.00 in0.0 mm 0.00 in0.0 mm
02:11 AM 45.5°F7.5°C 45.2°F7.3°C 99% 2.3 mph SE3.7 kmh SE 3.5 mph5.6 kmh 30.08 in1018.6 mb - 0.00 in0.0 mm 0.00 in0.0 mm
02:12 AM 45.5°F7.5°C 45.2°F7.3°C 99% 2.3 mph NE3.7 kmh NE 2.3 mph3.7 kmh 30.08 in1018.6 mb - 0.00 in0.0 mm 0.00 in0.0 mm
02:13 AM 45.5°F7.5°C 45.2°F7.3°C 99% 3.5 mph SSE5.6 kmh SSE 8.1 mph13.0 kmh 30.08 in1018.6 mb - 0.00 in0.0 mm 0.00 in0.0 mm
02:14 AM 45.5°F7.5°C 45.2°F7.3°C 99% 3.5 mph SSE5.6 kmh SSE 4.6 mph7.4 kmh 30.09 in1019.0 mb - 0.00 in0.0 mm 0.00 in0.0 mm
02:15 AM 45.5°F7.5°C 45.2°F7.3°C 99% 3.5 mph SE5.6 kmh SE 4.6 mph7.4 kmh 30.09 in1019.0 mb - 0.00 in0.0 mm 0.00 in0.0 mm
02:16 AM 45.5°F7.5°C 45.2°F7.3°C 99% 2.3 mph WSW3.7 kmh WSW 5.8 mph9.3 kmh 30.09 in1019.0 mb - 0.00 in0.0 mm 0.00 in0.0 mm
02:17 AM 45.5°F7.5°C 45.2°F7.3°C 99% 3.5 mph S5.6 kmh S 3.5 mph5.6 kmh 30.09 in1019.0 mb - 0.00 in0.0 mm 0.00 in0.0 mm
02:18 AM 45.5°F7.5°C 45.2°F7.3°C 99% 2.3 mph S3.7 kmh S 3.5 mph5.6 kmh 30.09 in1019.0 mb - 0.00 in0.0 mm 0.00 in0.0 mm
02:19 AM 45.6°F7.6°C 45.3°F7.4°C 99% 2.3 mph SSE3.7 kmh SSE 5.8 mph9.3 kmh 30.09 in1019.0 mb - 0.00 in0.0 mm 0.00 in0.0 mm
02:20 AM 45.7°F7.6°C 45.4°F7.4°C 99% 3.5 mph S5.6 kmh S 5.8 mph9.3 kmh 30.09 in1019.0 mb - 0.00 in0.0 mm 0.00 in0.0 mm
02:21 AM 45.7°F7.6°C 45.4°F7.4°C 99% 3.5 mph S5.6 kmh S 5.8 mph9.3 kmh 30.09 in1019.0 mb - 0.00 in0.0 mm 0.00 in0.0 mm
02:22 AM 45.7°F7.6°C 45.5°F7.5°C 99% 5.8 mph S9.3 kmh S 5.8 mph9.3 kmh 30.09 in1019.0 mb - 0.00 in0.0 mm 0.00 in0.0 mm
02:23 AM 45.9°F7.7°C 45.6°F7.6°C 99% 3.5 mph SSE5.6 kmh SSE 5.8 mph9.3 kmh 30.09 in1019.0 mb - 0.00 in0.0 mm 0.00 in0.0 mm
02:24 AM 45.9°F7.7°C 45.6°F7.6°C 99% 4.6 mph SSW7.4 kmh SSW 4.6 mph7.4 kmh 30.09 in1019.0 mb - 0.00 in0.0 mm 0.00 in0.0 mm
02:25 AM 45.9°F7.7°C 45.6°F7.6°C 99% 2.3 mph S3.7 kmh S 2.3 mph3.7 kmh 30.09 in1019.0 mb - 0.00 in0.0 mm 0.00 in0.0 mm
02:26 AM 45.9°F7.7°C 45.6°F7.6°C 99% 2.3 mph SW3.7 kmh SW 3.5 mph5.6 kmh 30.09 in1019.0 mb - 0.00 in0.0 mm 0.00 in0.0 mm
02:27 AM 45.9°F7.7°C 45.6°F7.6°C 99% 1.2 mph S1.9 kmh S 3.5 mph5.6 kmh 30.09 in1019.0 mb - 0.00 in0.0 mm 0.00 in0.0 mm
02:28 AM 45.9°F7.7°C 45.6°F7.6°C 99% 2.3 mph SE3.7 kmh SE 3.5 mph5.6 kmh 30.09 in1019.0 mb - 0.00 in0.0 mm 0.00 in0.0 mm
02:29 AM 45.7°F7.6°C 45.4°F7.4°C 99% 1.2 mph SSE1.9 kmh SSE 1.2 mph1.9 kmh 30.09 in1019.0 mb - 0.00 in0.0 mm 0.00 in0.0 mm
02:30 AM 45.7°F7.6°C 45.4°F7.4°C 99% 1.2 mph SSE1.9 kmh SSE 2.3 mph3.7 kmh 30.09 in1019.0 mb - 0.00 in0.0 mm 0.00 in0.0 mm
02:31 AM 45.7°F7.6°C 45.4°F7.4°C 99% 1.2 mph S1.9 kmh S 2.3 mph3.7 kmh 30.09 in1019.0 mb - 0.00 in0.0 mm 0.00 in0.0 mm
02:32 AM 45.6°F7.6°C 45.4°F7.4°C 99% 1.2 mph SSW1.9 kmh SSW 2.3 mph3.7 kmh 30.09 in1019.0 mb - 0.00 in0.0 mm 0.00 in0.0 mm
02:33 AM 45.5°F7.5°C 45.2°F7.3°C 99% 1.2 mph SE1.9 kmh SE 2.3 mph3.7 kmh 30.09 in1019.0 mb - 0.00 in0.0 mm 0.00 in0.0 mm
02:34 AM 45.5°F7.5°C 45.2°F7.3°C 99% 1.2 mph S1.9 kmh S 2.3 mph3.7 kmh 30.09 in1019.0 mb - 0.00 in0.0 mm 0.00 in0.0 mm
02:35 AM 45.5°F7.5°C 45.2°F7.3°C 99% 2.3 mph S3.7 kmh S 2.3 mph3.7 kmh 30.09 in1019.0 mb - 0.00 in0.0 mm 0.00 in0.0 mm
02:36 AM 45.5°F7.5°C 45.2°F7.3°C 99% 1.2 mph S1.9 kmh S 1.2 mph1.9 kmh 30.09 in1019.0 mb - 0.00 in0.0 mm 0.00 in0.0 mm
02:37 AM 45.3°F7.4°C 45.0°F7.2°C 99% 1.2 mph SE1.9 kmh SE 1.2 mph1.9 kmh 30.09 in1019.0 mb - 0.00 in0.0 mm 0.00 in0.0 mm
02:38 AM 45.3°F7.4°C 45.0°F7.2°C 99% 1.2 mph SSW1.9 kmh SSW 2.3 mph3.7 kmh 30.09 in1019.0 mb - 0.00 in0.0 mm 0.00 in0.0 mm
02:39 AM 45.3°F7.4°C 45.0°F7.2°C 99% 2.3 mph NNE3.7 kmh NNE 3.5 mph5.6 kmh 30.09 in1019.0 mb - 0.00 in0.0 mm 0.00 in0.0 mm
02:40 AM 45.3°F7.4°C 45.0°F7.2°C 99% 2.3 mph NE3.7 kmh NE 2.3 mph3.7 kmh 30.09 in1019.0 mb - 0.00 in0.0 mm 0.00 in0.0 mm
02:41 AM 45.3°F7.4°C 45.0°F7.2°C 99% Calm Calm 2.3 mph3.7 kmh 30.09 in1019.0 mb - 0.00 in0.0 mm 0.00 in0.0 mm
02:42 AM 45.3°F7.4°C 45.0°F7.2°C 99% 2.3 mph S3.7 kmh S 2.3 mph3.7 kmh 30.09 in1019.0 mb - 0.00 in0.0 mm 0.00 in0.0 mm
02:43 AM 45.3°F7.4°C 45.0°F7.2°C 99% 2.3 mph SSE3.7 kmh SSE 2.3 mph3.7 kmh 30.09 in1019.0 mb - 0.00 in0.0 mm 0.00 in0.0 mm
02:44 AM 45.3°F7.4°C 45.0°F7.2°C 99% 1.2 mph SE1.9 kmh SE 2.3 mph3.7 kmh 30.09 in1019.0 mb - 0.00 in0.0 mm 0.00 in0.0 mm
02:45 AM 45.3°F7.4°C 45.0°F7.2°C 99% 1.2 mph S1.9 kmh S 3.5 mph5.6 kmh 30.09 in1019.0 mb - 0.00 in0.0 mm 0.00 in0.0 mm
02:46 AM 45.3°F7.4°C 45.0°F7.2°C 99% 2.3 mph SSE3.7 kmh SSE 3.5 mph5.6 kmh 30.09 in1019.0 mb - 0.00 in0.0 mm 0.00 in0.0 mm
02:47 AM 45.3°F7.4°C 45.0°F7.2°C 99% 1.2 mph SSE1.9 kmh SSE 3.5 mph5.6 kmh 30.09 in1019.0 mb - 0.00 in0.0 mm 0.00 in0.0 mm
02:48 AM 45.3°F7.4°C 45.0°F7.2°C 99% 2.3 mph SSE3.7 kmh SSE 1.2 mph1.9 kmh 30.09 in1019.0 mb - 0.00 in0.0 mm 0.00 in0.0 mm
02:49 AM 45.3°F7.4°C 45.0°F7.2°C 99% 2.3 mph SE3.7 kmh SE 4.6 mph7.4 kmh 30.09 in1019.0 mb - 0.00 in0.0 mm 0.00 in0.0 mm
02:50 AM 45.3°F7.4°C 45.0°F7.2°C 99% 3.5 mph SE5.6 kmh SE 3.5 mph5.6 kmh 30.09 in1019.0 mb - 0.00 in0.0 mm 0.00 in0.0 mm
02:51 AM 45.3°F7.4°C 45.0°F7.2°C 99% 2.3 mph SE3.7 kmh SE 2.3 mph3.7 kmh 30.09 in1019.0 mb - 0.00 in0.0 mm 0.00 in0.0 mm
02:52 AM 45.3°F7.4°C 45.0°F7.2°C 99% 2.3 mph SSW3.7 kmh SSW 2.3 mph3.7 kmh 30.09 in1019.0 mb - 0.00 in0.0 mm 0.00 in0.0 mm
02:53 AM 45.3°F7.4°C 45.0°F7.2°C 99% 1.2 mph SW1.9 kmh SW 1.2 mph1.9 kmh 30.09 in1019.0 mb - 0.00 in0.0 mm 0.00 in0.0 mm
02:54 AM 45.3°F7.4°C 45.0°F7.2°C 99% Calm Calm -- 30.09 in1019.0 mb - 0.00 in0.0 mm 0.00 in0.0 mm
02:55 AM 45.3°F7.4°C 45.0°F7.2°C 99% 1.2 mph SE1.9 kmh SE 4.6 mph7.4 kmh 30.09 in1019.0 mb - 0.00 in0.0 mm 0.00 in0.0 mm
02:56 AM 45.1°F7.3°C 44.9°F7.2°C 99% 2.3 mph E3.7 kmh E 4.6 mph7.4 kmh 30.09 in1019.0 mb - 0.00 in0.0 mm 0.00 in0.0 mm
02:57 AM 45.1°F7.3°C 44.8°F7.1°C 99% 2.3 mph S3.7 kmh S 4.6 mph7.4 kmh 30.09 in1019.0 mb - 0.00 in0.0 mm 0.00 in0.0 mm
02:58 AM 45.1°F7.3°C 44.8°F7.1°C 99% 2.3 mph S3.7 kmh S 3.5 mph5.6 kmh 30.09 in1019.0 mb - 0.00 in0.0 mm 0.00 in0.0 mm
02:59 AM 45.1°F7.3°C 44.8°F7.1°C 99% 3.5 mph S5.6 kmh S 8.1 mph13.0 kmh 30.09 in1019.0 mb - 0.00 in0.0 mm 0.00 in0.0 mm
03:00 AM 45.3°F7.4°C 45.1°F7.3°C 99% 5.8 mph E9.3 kmh E 8.1 mph13.0 kmh 30.09 in1019.0 mb - 0.00 in0.0 mm 0.00 in0.0 mm
03:01 AM 45.5°F7.5°C 45.2°F7.3°C 99% 3.5 mph S5.6 kmh S 2.3 mph3.7 kmh 30.09 in1019.0 mb - 0.00 in0.0 mm 0.00 in0.0 mm
03:02 AM 45.5°F7.5°C 45.2°F7.3°C 99% 1.2 mph S1.9 kmh S 8.1 mph13.0 kmh 30.09 in1019.0 mb - 0.00 in0.0 mm 0.00 in0.0 mm
03:03 AM 45.5°F7.5°C 45.2°F7.3°C 99% 4.6 mph SE7.4 kmh SE 8.1 mph13.0 kmh 30.08 in1018.6 mb - 0.00 in0.0 mm 0.00 in0.0 mm
03:04 AM 45.5°F7.5°C 45.2°F7.3°C 99% 3.5 mph SSE5.6 kmh SSE 2.3 mph3.7 kmh 30.08 in1018.6 mb - 0.00 in0.0 mm 0.00 in0.0 mm
03:05 AM 45.5°F7.5°C 45.2°F7.3°C 99% 2.3 mph S3.7 kmh S 3.5 mph5.6 kmh 30.08 in1018.6 mb - 0.00 in0.0 mm 0.00 in0.0 mm
03:06 AM 45.5°F7.5°C 45.2°F7.3°C 99% 2.3 mph SSW3.7 kmh SSW 3.5 mph5.6 kmh 30.08 in1018.6 mb - 0.00 in0.0 mm 0.00 in0.0 mm
03:07 AM 45.5°F7.5°C 45.2°F7.3°C 99% 2.3 mph S3.7 kmh S 4.6 mph7.4 kmh 30.08 in1018.6 mb - 0.00 in0.0 mm 0.00 in0.0 mm
03:08 AM 45.5°F7.5°C 45.2°F7.3°C 99% 3.5 mph SSE5.6 kmh SSE 4.6 mph7.4 kmh 30.08 in1018.6 mb - 0.00 in0.0 mm 0.00 in0.0 mm
03:09 AM 45.5°F7.5°C 45.2°F7.3°C 99% 3.5 mph SE5.6 kmh SE 5.8 mph9.3 kmh 30.08 in1018.6 mb - 0.00 in0.0 mm 0.00 in0.0 mm
03:10 AM 45.5°F7.5°C 45.2°F7.3°C 99% 3.5 mph S5.6 kmh S 5.8 mph9.3 kmh 30.08 in1018.6 mb - 0.00 in0.0 mm 0.00 in0.0 mm
03:11 AM 45.5°F7.5°C 45.2°F7.3°C 99% 3.5 mph SSE5.6 kmh SSE 5.8 mph9.3 kmh 30.08 in1018.6 mb - 0.00 in0.0 mm 0.00 in0.0 mm
03:12 AM 45.5°F7.5°C 45.3°F7.4°C 99% 4.6 mph S7.4 kmh S 5.8 mph9.3 kmh 30.08 in1018.6 mb - 0.00 in0.0 mm 0.00 in0.0 mm
03:13 AM 45.7°F7.6°C 45.4°F7.4°C 99% 3.5 mph SE5.6 kmh SE 3.5 mph5.6 kmh 30.08 in1018.6 mb - 0.00 in0.0 mm 0.00 in0.0 mm
03:14 AM 45.7°F7.6°C 45.4°F7.4°C 99% 3.5 mph SE5.6 kmh SE 5.8 mph9.3 kmh 30.08 in1018.6 mb - 0.00 in0.0 mm 0.00 in0.0 mm
03:15 AM 45.7°F7.6°C 45.4°F7.4°C 99% 4.6 mph SE7.4 kmh SE 5.8 mph9.3 kmh 30.08 in1018.6 mb - 0.00 in0.0 mm 0.00 in0.0 mm
03:16 AM 45.7°F7.6°C 45.4°F7.4°C 99% 4.6 mph SSE7.4 kmh SSE 5.8 mph9.3 kmh 30.08 in1018.6 mb - 0.00 in0.0 mm 0.00 in0.0 mm
03:17 AM 45.9°F7.7°C 45.6°F7.6°C 99% 2.3 mph SE3.7 kmh SE 3.5 mph5.6 kmh 30.08 in1018.6 mb - 0.00 in0.0 mm 0.00 in0.0 mm
03:18 AM 45.9°F7.7°C 45.6°F7.6°C 99% 2.3 mph S3.7 kmh S 3.5 mph5.6 kmh 30.08 in1018.6 mb - 0.00 in0.0 mm 0.00 in0.0 mm
03:19 AM 45.9°F7.7°C 45.6°F7.6°C 99% 3.5 mph SSE5.6 kmh SSE 4.6 mph7.4 kmh 30.08 in1018.6 mb - 0.00 in0.0 mm 0.00 in0.0 mm
03:20 AM 45.9°F7.7°C 45.6°F7.6°C 99% 3.5 mph S5.6 kmh S 2.3 mph3.7 kmh 30.08 in1018.6 mb - 0.00 in0.0 mm 0.00 in0.0 mm
03:21 AM 45.9°F7.7°C 45.6°F7.6°C 99% 2.3 mph SE3.7 kmh SE 4.6 mph7.4 kmh 30.08 in1018.6 mb - 0.00 in0.0 mm 0.00 in0.0 mm
03:22 AM 45.9°F7.7°C 45.6°F7.6°C 99% 3.5 mph S5.6 kmh S 5.8 mph9.3 kmh 30.08 in1018.6 mb - 0.00 in0.0 mm 0.00 in0.0 mm
03:23 AM 45.9°F7.7°C 45.6°F7.6°C 99% 3.5 mph ESE5.6 kmh ESE 4.6 mph7.4 kmh 30.08 in1018.6 mb - 0.00 in0.0 mm 0.00 in0.0 mm
03:24 AM 45.9°F7.7°C 45.6°F7.6°C 99% 2.3 mph SSE3.7 kmh SSE 5.8 mph9.3 kmh 30.08 in1018.6 mb - 0.00 in0.0 mm 0.00 in0.0 mm
03:25 AM 45.9°F7.7°C 45.6°F7.6°C 99% 3.5 mph SE5.6 kmh SE 2.3 mph3.7 kmh 30.08 in1018.6 mb - 0.00 in0.0 mm 0.00 in0.0 mm
03:26 AM 45.9°F7.7°C 45.6°F7.6°C 99% 3.5 mph E5.6 kmh E 4.6 mph7.4 kmh 30.08 in1018.6 mb - 0.00 in0.0 mm 0.00 in0.0 mm
03:27 AM 45.9°F7.7°C 45.6°F7.6°C 99% 2.3 mph SSE3.7 kmh SSE 2.3 mph3.7 kmh 30.08 in1018.6 mb - 0.00 in0.0 mm 0.00 in0.0 mm
03:28 AM 45.9°F7.7°C 45.6°F7.6°C 99% 2.3 mph SSE3.7 kmh SSE 4.6 mph7.4 kmh 30.08 in1018.6 mb - 0.00 in0.0 mm 0.00 in0.0 mm
03:29 AM 45.9°F7.7°C 45.6°F7.6°C 99% 3.5 mph SE5.6 kmh SE 4.6 mph7.4 kmh 30.08 in1018.6 mb - 0.00 in0.0 mm 0.00 in0.0 mm
03:30 AM 45.9°F7.7°C 45.6°F7.6°C 99% 2.3 mph S3.7 kmh S 3.5 mph5.6 kmh 30.08 in1018.6 mb - 0.00 in0.0 mm 0.00 in0.0 mm
03:31 AM 45.9°F7.7°C 45.6°F7.6°C 99% 2.3 mph S3.7 kmh S 3.5 mph5.6 kmh 30.08 in1018.6 mb - 0.00 in0.0 mm 0.00 in0.0 mm
03:32 AM 45.9°F7.7°C 45.6°F7.6°C 99% 3.5 mph S5.6 kmh S 4.6 mph7.4 kmh 30.08 in1018.6 mb - 0.00 in0.0 mm 0.00 in0.0 mm
03:33 AM 45.9°F7.7°C 45.6°F7.6°C 99% 3.5 mph SSW5.6 kmh SSW 4.6 mph7.4 kmh 30.08 in1018.6 mb - 0.00 in0.0 mm 0.00 in0.0 mm
03:34 AM 45.9°F7.7°C 45.6°F7.6°C 99% 3.5 mph SE5.6 kmh SE 5.8 mph9.3 kmh 30.08 in1018.6 mb - 0.00 in0.0 mm 0.00 in0.0 mm
03:35 AM 45.9°F7.7°C 45.6°F7.6°C 99% 3.5 mph SSE5.6 kmh SSE 6.9 mph11.1 kmh 30.08 in1018.6 mb - 0.00 in0.0 mm 0.00 in0.0 mm
03:36 AM 45.9°F7.7°C 45.6°F7.6°C 99% 3.5 mph S5.6 kmh S 5.8 mph9.3 kmh 30.08 in1018.6 mb - 0.00 in0.0 mm 0.00 in0.0 mm
03:37 AM 45.9°F7.7°C 45.6°F7.6°C 99% 2.3 mph S3.7 kmh S 3.5 mph5.6 kmh 30.08 in1018.6 mb - 0.00 in0.0 mm 0.00 in0.0 mm
03:38 AM 45.9°F7.7°C 45.6°F7.6°C 99% 2.3 mph S3.7 kmh S 3.5 mph5.6 kmh 30.07 in1018.3 mb - 0.00 in0.0 mm 0.00 in0.0 mm
03:39 AM 45.9°F7.7°C 45.6°F7.6°C 99% 2.3 mph S3.7 kmh S 2.3 mph3.7 kmh 30.07 in1018.3 mb - 0.00 in0.0 mm 0.00 in0.0 mm
03:40 AM 45.9°F7.7°C 45.6°F7.6°C 99% 2.3 mph NE3.7 kmh NE 5.8 mph9.3 kmh 30.07 in1018.3 mb - 0.00 in0.0 mm 0.00 in0.0 mm
03:41 AM 45.9°F7.7°C 45.6°F7.6°C 99% 4.6 mph SE7.4 kmh SE 5.8 mph9.3 kmh 30.07 in1018.3 mb - 0.00 in0.0 mm 0.00 in0.0 mm
03:42 AM 45.9°F7.7°C 45.6°F7.6°C 99% 3.5 mph ESE5.6 kmh ESE 5.8 mph9.3 kmh 30.07 in1018.3 mb - 0.00 in0.0 mm 0.00 in0.0 mm
03:43 AM 45.9°F7.7°C 45.6°F7.6°C 99% 3.5 mph SE5.6 kmh SE 5.8 mph9.3 kmh 30.07 in1018.3 mb - 0.00 in0.0 mm 0.00 in0.0 mm
03:44 AM 45.9°F7.7°C 45.7°F7.6°C 99% 3.5 mph SSE5.6 kmh SSE 5.8 mph9.3 kmh 30.07 in1018.3 mb - 0.00 in0.0 mm 0.00 in0.0 mm
03:45 AM 46.0°F7.8°C 45.7°F7.6°C 99% 4.6 mph W7.4 kmh W 4.6 mph7.4 kmh 30.07 in1018.3 mb - 0.00 in0.0 mm 0.00 in0.0 mm
03:46 AM 46.0°F7.8°C 45.7°F7.6°C 99% 3.5 mph SE5.6 kmh SE 6.9 mph11.1 kmh 30.07 in1018.3 mb - 0.00 in0.0 mm 0.00 in0.0 mm
03:47 AM 46.0°F7.8°C 45.7°F7.6°C 99% 3.5 mph S5.6 kmh S 6.9 mph11.1 kmh 30.07 in1018.3 mb - 0.00 in0.0 mm 0.00 in0.0 mm
03:48 AM 46.2°F7.9°C 45.9°F7.7°C 99% 2.3 mph SSE3.7 kmh SSE 5.8 mph9.3 kmh 30.07 in1018.3 mb - 0.00 in0.0 mm 0.00 in0.0 mm
03:49 AM 46.2°F7.9°C 45.9°F7.7°C 99% 4.6 mph SE7.4 kmh SE 8.1 mph13.0 kmh 30.07 in1018.3 mb - 0.00 in0.0 mm 0.00 in0.0 mm
03:50 AM 46.2°F7.9°C 45.9°F7.7°C 99% 5.8 mph SSE9.3 kmh SSE 8.1 mph13.0 kmh 30.07 in1018.3 mb - 0.00 in0.0 mm 0.00 in0.0 mm
03:51 AM 46.2°F7.9°C 45.9°F7.7°C 99% 2.3 mph SE3.7 kmh SE 3.5 mph5.6 kmh 30.06 in1017.9 mb - 0.00 in0.0 mm 0.00 in0.0 mm
03:52 AM 46.2°F7.9°C 45.9°F7.7°C 99% 3.5 mph S5.6 kmh S 5.8 mph9.3 kmh 30.06 in1017.9 mb - 0.00 in0.0 mm 0.00 in0.0 mm
03:53 AM 46.2°F7.9°C 45.9°F7.7°C 99% 3.5 mph S5.6 kmh S 5.8 mph9.3 kmh 30.06 in1017.9 mb - 0.00 in0.0 mm 0.00 in0.0 mm
03:54 AM 46.4°F8.0°C 46.1°F7.8°C 99% 3.5 mph S5.6 kmh S 4.6 mph7.4 kmh 30.06 in1017.9 mb - 0.00 in0.0 mm 0.00 in0.0 mm
03:55 AM 46.4°F8.0°C 46.1°F7.8°C 99% 4.6 mph SSE7.4 kmh SSE 6.9 mph11.1 kmh 30.06 in1017.9 mb - 0.00 in0.0 mm 0.00 in0.0 mm
03:56 AM 46.4°F8.0°C 46.1°F7.8°C 99% 4.6 mph ESE7.4 kmh ESE 4.6 mph7.4 kmh 30.06 in1017.9 mb - 0.00 in0.0 mm 0.00 in0.0 mm
03:57 AM 46.4°F8.0°C 46.1°F7.8°C 99% 3.5 mph ENE5.6 kmh ENE 4.6 mph7.4 kmh 30.06 in1017.9 mb - 0.00 in0.0 mm 0.00 in0.0 mm
03:58 AM 46.5°F8.1°C 46.3°F7.9°C 99% 2.3 mph E3.7 kmh E 6.9 mph11.1 kmh 30.06 in1017.9 mb - 0.00 in0.0 mm 0.00 in0.0 mm
03:59 AM 46.7°F8.2°C 46.2°F7.9°C 98% 4.6 mph S7.4 kmh S 6.9 mph11.1 kmh 30.06 in1017.9 mb - 0.00 in0.0 mm 0.00 in0.0 mm
04:00 AM 46.8°F8.2°C 46.3°F7.9°C 98% 4.6 mph S7.4 kmh S 6.9 mph11.1 kmh 30.06 in1017.9 mb - 0.00 in0.0 mm 0.00 in0.0 mm
04:01 AM 46.8°F8.2°C 46.3°F7.9°C 98% 3.5 mph SE5.6 kmh SE 5.8 mph9.3 kmh 30.06 in1017.9 mb - 0.00 in0.0 mm 0.00 in0.0 mm
04:02 AM 46.8°F8.2°C 46.3°F7.9°C 98% 3.5 mph SE5.6 kmh SE 5.8 mph9.3 kmh 30.06 in1017.9 mb - 0.00 in0.0 mm 0.00 in0.0 mm
04:03 AM 46.8°F8.2°C 46.3°F7.9°C 98% 4.6 mph S7.4 kmh S 9.2 mph14.8 kmh 30.05 in1017.6 mb - 0.00 in0.0 mm 0.00 in0.0 mm
04:04 AM 46.8°F8.2°C 46.3°F7.9°C 98% 4.6 mph S7.4 kmh S 3.5 mph5.6 kmh 30.05 in1017.6 mb - 0.00 in0.0 mm 0.00 in0.0 mm
04:05 AM 46.8°F8.2°C 46.3°F7.9°C 98% 3.5 mph S5.6 kmh S 6.9 mph11.1 kmh 30.05 in1017.6 mb - 0.00 in0.0 mm 0.00 in0.0 mm
04:06 AM 46.8°F8.2°C 46.3°F7.9°C 98% 3.5 mph WSW5.6 kmh WSW 4.6 mph7.4 kmh 30.05 in1017.6 mb - 0.00 in0.0 mm 0.00 in0.0 mm
04:07 AM 46.8°F8.2°C 46.3°F7.9°C 98% 3.5 mph SSW5.6 kmh SSW 3.5 mph5.6 kmh 30.05 in1017.6 mb - 0.00 in0.0 mm 0.00 in0.0 mm
04:08 AM 46.8°F8.2°C 46.3°F7.9°C 98% 3.5 mph WNW5.6 kmh WNW 3.5 mph5.6 kmh 30.05 in1017.6 mb - 0.00 in0.0 mm 0.00 in0.0 mm
04:09 AM 46.8°F8.2°C 46.3°F7.9°C 98% 3.5 mph S5.6 kmh S 4.6 mph7.4 kmh 30.05 in1017.6 mb - 0.00 in0.0 mm 0.00 in0.0 mm
04:10 AM 46.9°F8.3°C 46.3°F7.9°C 98% 4.6 mph S7.4 kmh S 5.8 mph9.3 kmh 30.05 in1017.6 mb - 0.00 in0.0 mm 0.00 in0.0 mm
04:11 AM 46.9°F8.3°C 46.4°F8.0°C 98% 4.6 mph SSE7.4 kmh SSE 6.9 mph11.1 kmh 30.05 in1017.6 mb - 0.00 in0.0 mm 0.00 in0.0 mm
04:12 AM 46.9°F8.3°C 46.1°F7.8°C 97% 4.6 mph SE7.4 kmh SE 3.5 mph5.6 kmh 30.05 in1017.6 mb - 0.00 in0.0 mm 0.00 in0.0 mm
04:13 AM 47.0°F8.3°C 46.1°F7.8°C 97% 2.3 mph S3.7 kmh S 8.1 mph13.0 kmh 30.05 in1017.6 mb - 0.00 in0.0 mm 0.00 in0.0 mm
04:14 AM 47.1°F8.4°C 46.3°F7.9°C 97% 4.6 mph S7.4 kmh S 8.1 mph13.0 kmh 30.06 in1017.9 mb - 0.00 in0.0 mm 0.00 in0.0 mm
04:15 AM 47.1°F8.4°C 46.3°F7.9°C 97% 2.3 mph SW3.7 kmh SW 1.2 mph1.9 kmh 30.06 in1017.9 mb - 0.00 in0.0 mm 0.00 in0.0 mm
04:16 AM 47.1°F8.4°C 46.3°F7.9°C 97% 1.2 mph SW1.9 kmh SW 1.2 mph1.9 kmh 30.06 in1017.9 mb - 0.00 in0.0 mm 0.00 in0.0 mm
04:17 AM 47.1°F8.4°C 46.3°F7.9°C 97% 1.2 mph S1.9 kmh S 4.6 mph7.4 kmh 30.06 in1017.9 mb - 0.00 in0.0 mm 0.00 in0.0 mm
04:18 AM 47.1°F8.4°C 46.3°F7.9°C 97% 3.5 mph SE5.6 kmh SE 4.6 mph7.4 kmh 30.06 in1017.9 mb - 0.00 in0.0 mm 0.00 in0.0 mm
04:19 AM 47.1°F8.4°C 46.3°F7.9°C 97% 3.5 mph S5.6 kmh S 4.6 mph7.4 kmh 30.06 in1017.9 mb - 0.00 in0.0 mm 0.00 in0.0 mm
04:20 AM 47.1°F8.4°C 46.3°F7.9°C 97% 2.3 mph S3.7 kmh S 2.3 mph3.7 kmh 30.06 in1017.9 mb - 0.00 in0.0 mm 0.00 in0.0 mm
04:21 AM 47.1°F8.4°C 46.3°F7.9°C 97% 2.3 mph SSE3.7 kmh SSE 3.5 mph5.6 kmh 30.06 in1017.9 mb - 0.00 in0.0 mm 0.00 in0.0 mm
04:22 AM 47.1°F8.4°C 46.3°F7.9°C 97% 2.3 mph S3.7 kmh S 3.5 mph5.6 kmh 30.06 in1017.9 mb - 0.00 in0.0 mm 0.00 in0.0 mm
04:23 AM 47.1°F8.4°C 46.3°F7.9°C 97% 2.3 mph SE3.7 kmh SE 2.3 mph3.7 kmh 30.06 in1017.9 mb - 0.00 in0.0 mm 0.00 in0.0 mm
04:24 AM 47.1°F8.4°C 46.3°F7.9°C 97% 1.2 mph NW1.9 kmh NW 3.5 mph5.6 kmh 30.06 in1017.9 mb - 0.00 in0.0 mm 0.00 in0.0 mm
04:25 AM 47.1°F8.4°C 46.3°F7.9°C 97% 2.3 mph SSW3.7 kmh SSW 3.5 mph5.6 kmh 30.06 in1017.9 mb - 0.00 in0.0 mm 0.00 in0.0 mm
04:26 AM 47.1°F8.4°C 46.3°F7.9°C 97% 2.3 mph SSW3.7 kmh SSW 3.5 mph5.6 kmh 30.06 in1017.9 mb - 0.00 in0.0 mm 0.00 in0.0 mm
04:27 AM 47.1°F8.4°C 46.3°F7.9°C 97% 2.3 mph S3.7 kmh S 2.3 mph3.7 kmh 30.05 in1017.6 mb - 0.00 in0.0 mm 0.00 in0.0 mm
04:28 AM 47.1°F8.4°C 46.3°F7.9°C 97% 1.2 mph S1.9 kmh S 5.8 mph9.3 kmh 30.05 in1017.6 mb - 0.00 in0.0 mm 0.00 in0.0 mm
04:29 AM 46.9°F8.3°C 46.1°F7.8°C 97% 3.5 mph S5.6 kmh S 5.8 mph9.3 kmh 30.05 in1017.6 mb - 0.00 in0.0 mm 0.00 in0.0 mm
04:30 AM 46.9°F8.3°C 46.1°F7.8°C 97% 4.6 mph SSE7.4 kmh SSE 5.8 mph9.3 kmh 30.05 in1017.6 mb - 0.00 in0.0 mm 0.00 in0.0 mm
04:31 AM 46.9°F8.3°C 46.1°F7.8°C 97% 3.5 mph S5.6 kmh S 4.6 mph7.4 kmh 30.05 in1017.6 mb - 0.00 in0.0 mm 0.00 in0.0 mm
04:32 AM 46.9°F8.3°C 46.1°F7.8°C 97% 2.3 mph S3.7 kmh S 3.5 mph5.6 kmh 30.05 in1017.6 mb - 0.00 in0.0 mm 0.00 in0.0 mm
04:33 AM 46.9°F8.3°C 46.1°F7.8°C 97% 2.3 mph SE3.7 kmh SE 4.6 mph7.4 kmh 30.05 in1017.6 mb - 0.00 in0.0 mm 0.00 in0.0 mm
04:34 AM 46.8°F8.2°C 46.3°F7.9°C 98% 2.3 mph SSW3.7 kmh SSW 2.3 mph3.7 kmh 30.05 in1017.6 mb - 0.00 in0.0 mm 0.00 in0.0 mm
04:35 AM 46.8°F8.2°C 46.3°F7.9°C 98% 2.3 mph ESE3.7 kmh ESE 3.5 mph5.6 kmh 30.05 in1017.6 mb - 0.00 in0.0 mm 0.00 in0.0 mm
04:36 AM 46.8°F8.2°C 46.3°F7.9°C 98% 2.3 mph S3.7 kmh S 5.8 mph9.3 kmh 30.05 in1017.6 mb - 0.00 in0.0 mm 0.00 in0.0 mm
04:37 AM 46.8°F8.2°C 46.3°F7.9°C 98% 3.5 mph SSE5.6 kmh SSE 5.8 mph9.3 kmh 30.05 in1017.6 mb - 0.00 in0.0 mm 0.00 in0.0 mm
04:38 AM 46.8°F8.2°C 46.3°F7.9°C 98% 2.3 mph E3.7 kmh E 3.5 mph5.6 kmh 30.05 in1017.6 mb - 0.00 in0.0 mm 0.00 in0.0 mm
04:39 AM 46.8°F8.2°C 46.3°F7.9°C 98% 2.3 mph ESE3.7 kmh ESE 2.3 mph3.7 kmh 30.05 in1017.6 mb - 0.00 in0.0 mm 0.00 in0.0 mm
04:40 AM 46.8°F8.2°C 46.3°F7.9°C 98% 2.3 mph SW3.7 kmh SW 4.6 mph7.4 kmh 30.05 in1017.6 mb - 0.00 in0.0 mm 0.00 in0.0 mm
04:41 AM 46.8°F8.2°C 46.3°F7.9°C 98% 3.5 mph SSE5.6 kmh SSE 5.8 mph9.3 kmh 30.05 in1017.6 mb - 0.00 in0.0 mm 0.00 in0.0 mm
04:42 AM 46.8°F8.2°C 46.3°F7.9°C 98% 4.6 mph SE7.4 kmh SE 4.6 mph7.4 kmh 30.05 in1017.6 mb - 0.00 in0.0 mm 0.00 in0.0 mm
04:43 AM 46.8°F8.2°C 46.3°F7.9°C 98% 3.5 mph ESE5.6 kmh ESE 5.8 mph9.3 kmh 30.05 in1017.6 mb - 0.00 in0.0 mm 0.00 in0.0 mm
04:44 AM 46.8°F8.2°C 46.3°F7.9°C 98% 2.3 mph S3.7 kmh S 3.5 mph5.6 kmh 30.05 in1017.6 mb - 0.00 in0.0 mm 0.00 in0.0 mm
04:45 AM 46.8°F8.2°C 46.3°F7.9°C 98% 2.3 mph S3.7 kmh S 2.3 mph3.7 kmh 30.05 in1017.6 mb - 0.00 in0.0 mm 0.00 in0.0 mm
04:46 AM 46.8°F8.2°C 46.3°F7.9°C 98% 2.3 mph SE3.7 kmh SE 5.8 mph9.3 kmh 30.05 in1017.6 mb - 0.00 in0.0 mm 0.00 in0.0 mm
04:47 AM 46.8°F8.2°C 46.3°F7.9°C 98% 3.5 mph ESE5.6 kmh ESE 4.6 mph7.4 kmh 30.05 in1017.6 mb - 0.00 in0.0 mm 0.00 in0.0 mm
04:48 AM 46.8°F8.2°C 46.3°F7.9°C 98% 2.3 mph SE3.7 kmh SE 2.3 mph3.7 kmh 30.05 in1017.6 mb - 0.00 in0.0 mm 0.00 in0.0 mm
04:49 AM 46.8°F8.2°C 46.3°F7.9°C 98% 3.5 mph SE5.6 kmh SE 8.1 mph13.0 kmh 30.05 in1017.6 mb - 0.00 in0.0 mm 0.00 in0.0 mm
04:50 AM 46.8°F8.2°C 46.3°F7.9°C 98% 3.5 mph NNE5.6 kmh NNE 3.5 mph5.6 kmh 30.04 in1017.3 mb - 0.00 in0.0 mm 0.00 in0.0 mm
04:51 AM 46.8°F8.2°C 46.3°F7.9°C 98% 2.3 mph SE3.7 kmh SE 3.5 mph5.6 kmh 30.04 in1017.3 mb - 0.00 in0.0 mm 0.00 in0.0 mm
04:52 AM 46.8°F8.2°C 46.3°F7.9°C 98% 3.5 mph S5.6 kmh S 6.9 mph11.1 kmh 30.04 in1017.3 mb - 0.00 in0.0 mm 0.00 in0.0 mm
04:53 AM 46.8°F8.2°C 46.3°F7.9°C 98% 3.5 mph ESE5.6 kmh ESE 2.3 mph3.7 kmh 30.04 in1017.3 mb - 0.00 in0.0 mm 0.00 in0.0 mm
04:54 AM 46.8°F8.2°C 46.3°F7.9°C 98% 2.3 mph S3.7 kmh S 4.6 mph7.4 kmh 30.04 in1017.3 mb - 0.00 in0.0 mm 0.00 in0.0 mm
04:55 AM 46.8°F8.2°C 46.3°F7.9°C 98% 4.6 mph SE7.4 kmh SE 8.1 mph13.0 kmh 30.04 in1017.3 mb - 0.00 in0.0 mm 0.00 in0.0 mm
04:56 AM 46.9°F8.3°C 46.4°F8.0°C 98% 4.6 mph ESE7.4 kmh ESE 6.9 mph11.1 kmh 30.04 in1017.3 mb - 0.00 in0.0 mm 0.00 in0.0 mm
04:57 AM 46.9°F8.3°C 46.4°F8.0°C 98% 3.5 mph SE5.6 kmh SE 3.5 mph5.6 kmh 30.04 in1017.3 mb - 0.00 in0.0 mm 0.00 in0.0 mm
04:58 AM 46.9°F8.3°C 46.4°F8.0°C 98% 3.5 mph ESE5.6 kmh ESE 5.8 mph9.3 kmh 30.04 in1017.3 mb - 0.00 in0.0 mm 0.00 in0.0 mm
04:59 AM 46.9°F8.3°C 46.4°F8.0°C 98% 4.6 mph ESE7.4 kmh ESE 5.8 mph9.3 kmh 30.04 in1017.3 mb - 0.00 in0.0 mm 0.00 in0.0 mm
05:00 AM 46.9°F8.3°C 46.4°F8.0°C 98% 3.5 mph SE5.6 kmh SE 5.8 mph9.3 kmh 30.04 in1017.3 mb - 0.00 in0.0 mm 0.00 in0.0 mm
05:01 AM 46.9°F8.3°C 46.4°F8.0°C 98% 3.5 mph ESE5.6 kmh ESE 5.8 mph9.3 kmh 30.04 in1017.3 mb - 0.00 in0.0 mm 0.00 in0.0 mm
05:02 AM 46.9°F8.3°C 46.4°F8.0°C 98% 2.3 mph SE3.7 kmh SE 5.8 mph9.3 kmh 30.03 in1016.9 mb - 0.00 in0.0 mm 0.00 in0.0 mm
05:03 AM 47.1°F8.4°C 46.6°F8.1°C 98% 3.5 mph E5.6 kmh E 5.8 mph9.3 kmh 30.02 in1016.6 mb - 0.00 in0.0 mm 0.00 in0.0 mm
05:04 AM 47.1°F8.4°C 46.6°F8.1°C 98% 3.5 mph SE5.6 kmh SE 5.8 mph9.3 kmh 30.02 in1016.6 mb - 0.00 in0.0 mm 0.00 in0.0 mm
05:05 AM 47.2°F8.4°C 46.7°F8.2°C 98% 3.5 mph SE5.6 kmh SE 4.6 mph7.4 kmh 30.02 in1016.6 mb - 0.00 in0.0 mm 0.00 in0.0 mm
05:06 AM 47.3°F8.5°C 46.8°F8.2°C 98% 3.5 mph WSW5.6 kmh WSW 4.6 mph7.4 kmh 30.02 in1016.6 mb - 0.00 in0.0 mm 0.00 in0.0 mm
05:07 AM 47.3°F8.5°C 46.8°F8.2°C 98% 2.3 mph SE3.7 kmh SE 3.5 mph5.6 kmh 30.02 in1016.6 mb - 0.00 in0.0 mm 0.00 in0.0 mm
05:08 AM 47.3°F8.5°C 46.8°F8.2°C 98% 3.5 mph ESE5.6 kmh ESE 4.6 mph7.4 kmh 30.02 in1016.6 mb - 0.00 in0.0 mm 0.00 in0.0 mm
05:09 AM 47.5°F8.6°C 46.9°F8.3°C 98% 3.5 mph NE5.6 kmh NE 4.6 mph7.4 kmh 30.02 in1016.6 mb - 0.00 in0.0 mm 0.00 in0.0 mm
05:10 AM 47.5°F8.6°C 47.0°F8.3°C 98% 2.3 mph S3.7 kmh S 9.2 mph14.8 kmh 30.02 in1016.6 mb - 0.00 in0.0 mm 0.00 in0.0 mm
05:11 AM 47.6°F8.7°C 47.1°F8.4°C 98% 5.8 mph S9.3 kmh S 9.2 mph14.8 kmh 30.02 in1016.6 mb - 0.00 in0.0 mm 0.00 in0.0 mm
05:12 AM 47.7°F8.7°C 47.2°F8.4°C 98% 4.6 mph S7.4 kmh S 8.1 mph13.0 kmh 30.02 in1016.6 mb - 0.00 in0.0 mm 0.00 in0.0 mm
05:13 AM 47.7°F8.7°C 47.2°F8.4°C 98% 4.6 mph ENE7.4 kmh ENE 3.5 mph5.6 kmh 30.02 in1016.6 mb - 0.00 in0.0 mm 0.00 in0.0 mm
05:14 AM 47.7°F8.7°C 47.2°F8.4°C 98% 3.5 mph E5.6 kmh E 6.9 mph11.1 kmh 30.02 in1016.6 mb - 0.00 in0.0 mm 0.00 in0.0 mm
05:15 AM 47.7°F8.7°C 47.2°F8.4°C 98% 4.6 mph SE7.4 kmh SE 6.9 mph11.1 kmh 30.01 in1016.3 mb - 0.00 in0.0 mm 0.00 in0.0 mm
05:16 AM 47.7°F8.7°C 47.2°F8.4°C 98% 3.5 mph ESE5.6 kmh ESE 5.8 mph9.3 kmh 30.01 in1016.3 mb - 0.00 in0.0 mm 0.00 in0.0 mm
05:17 AM 47.7°F8.7°C 47.2°F8.4°C 98% 3.5 mph ESE5.6 kmh ESE 8.1 mph13.0 kmh 30.01 in1016.3 mb - 0.00 in0.0 mm 0.00 in0.0 mm
05:18 AM 47.8°F8.8°C 47.3°F8.5°C 98% 5.8 mph SSE9.3 kmh SSE 8.1 mph13.0 kmh 30.01 in1016.3 mb - 0.00 in0.0 mm 0.00 in0.0 mm
05:19 AM 47.8°F8.8°C 47.3°F8.5°C 98% 3.5 mph SSE5.6 kmh SSE 4.6 mph7.4 kmh 30.01 in1016.3 mb - 0.00 in0.0 mm 0.00 in0.0 mm
05:20 AM 47.8°F8.8°C 47.3°F8.5°C 98% 2.3 mph SSE3.7 kmh SSE 3.5 mph5.6 kmh 30.01 in1016.3 mb - 0.00 in0.0 mm 0.00 in0.0 mm
05:21 AM 47.8°F8.8°C 47.3°F8.5°C 98% 2.3 mph SSE3.7 kmh SSE 4.6 mph7.4 kmh 30.01 in1016.3 mb - 0.00 in0.0 mm 0.00 in0.0 mm
05:22 AM 47.8°F8.8°C 47.3°F8.5°C 98% 2.3 mph ESE3.7 kmh ESE 8.1 mph13.0 kmh 30.01 in1016.3 mb - 0.00 in0.0 mm 0.00 in0.0 mm
05:23 AM 47.8°F8.8°C 47.3°F8.5°C 98% 5.8 mph SSE9.3 kmh SSE 8.1 mph13.0 kmh 30.01 in1016.3 mb - 0.00 in0.0 mm 0.00 in0.0 mm
05:24 AM 47.8°F8.8°C 47.3°F8.5°C 98% 4.6 mph SSE7.4 kmh SSE 4.6 mph7.4 kmh 30.01 in1016.3 mb - 0.00 in0.0 mm 0.00 in0.0 mm
05:25 AM 47.8°F8.8°C 47.3°F8.5°C 98% 2.3 mph SE3.7 kmh SE 3.5 mph5.6 kmh 30.01 in1016.3 mb - 0.00 in0.0 mm 0.00 in0.0 mm
05:26 AM 47.8°F8.8°C 47.3°F8.5°C 98% 2.3 mph SSE3.7 kmh SSE 4.6 mph7.4 kmh 30.01 in1016.3 mb - 0.00 in0.0 mm 0.00 in0.0 mm
05:27 AM 47.8°F8.8°C 47.3°F8.5°C 98% 3.5 mph S5.6 kmh S 4.6 mph7.4 kmh 30.01 in1016.3 mb - 0.00 in0.0 mm 0.00 in0.0 mm
05:28 AM 47.9°F8.8°C 47.3°F8.5°C 98% 3.5 mph SE5.6 kmh SE 4.6 mph7.4 kmh 30.01 in1016.3 mb - 0.00 in0.0 mm 0.00 in0.0 mm
05:29 AM 48.0°F8.9°C 47.5°F8.6°C 98% 4.6 mph S7.4 kmh S 5.8 mph9.3 kmh 30.01 in1016.3 mb - 0.00 in0.0 mm 0.00 in0.0 mm
05:30 AM 48.0°F8.9°C 47.5°F8.6°C 98% 3.5 mph SE5.6 kmh SE 2.3 mph3.7 kmh 30.01 in1016.3 mb - 0.00 in0.0 mm 0.00 in0.0 mm
05:31 AM 48.0°F8.9°C 47.5°F8.6°C 98% 3.5 mph S5.6 kmh S 5.8 mph9.3 kmh 30.01 in1016.3 mb - 0.00 in0.0 mm 0.00 in0.0 mm
05:32 AM 48.0°F8.9°C 47.5°F8.6°C 98% 3.5 mph ESE5.6 kmh ESE 5.8 mph9.3 kmh 30.01 in1016.3 mb - 0.00 in0.0 mm 0.00 in0.0 mm
05:33 AM 48.0°F8.9°C 47.5°F8.6°C 98% 4.6 mph S7.4 kmh S 5.8 mph9.3 kmh 30.01 in1016.3 mb - 0.00 in0.0 mm 0.00 in0.0 mm
05:34 AM 48.0°F8.9°C 47.5°F8.6°C 98% 3.5 mph SSE5.6 kmh SSE 4.6 mph7.4 kmh 30.01 in1016.3 mb - 0.00 in0.0 mm 0.00 in0.0 mm
05:35 AM 48.0°F8.9°C 47.5°F8.6°C 98% 4.6 mph ESE7.4 kmh ESE 5.8 mph9.3 kmh 30.01 in1016.3 mb - 0.00 in0.0 mm 0.00 in0.0 mm
05:36 AM 48.0°F8.9°C 47.5°F8.6°C 98% 4.6 mph SSE7.4 kmh SSE 5.8 mph9.3 kmh 30.01 in1016.3 mb - 0.00 in0.0 mm 0.00 in0.0 mm
05:37 AM 48.1°F8.9°C 47.6°F8.7°C 98% 3.5 mph S5.6 kmh S 11.5 mph18.5 kmh 30.01 in1016.3 mb - 0.00 in0.0 mm 0.00 in0.0 mm
05:38 AM 48.2°F9.0°C 47.7°F8.7°C 98% 6.9 mph S11.1 kmh S 11.5 mph18.5 kmh 30.01 in1016.3 mb - 0.00 in0.0 mm 0.00 in0.0 mm
05:39 AM 48.2°F9.0°C 47.7°F8.7°C 98% 3.5 mph S5.6 kmh S 3.5 mph5.6 kmh 30.01 in1016.3 mb - 0.00 in0.0 mm 0.00 in0.0 mm
05:40 AM 48.2°F9.0°C 47.7°F8.7°C 98% 2.3 mph ENE3.7 kmh ENE 2.3 mph3.7 kmh 30.01 in1016.3 mb - 0.00 in0.0 mm 0.00 in0.0 mm
05:41 AM 48.2°F9.0°C 47.7°F8.7°C 98% 2.3 mph S3.7 kmh S 4.6 mph7.4 kmh 30.01 in1016.3 mb - 0.00 in0.0 mm 0.00 in0.0 mm
05:42 AM 48.2°F9.0°C 47.7°F8.7°C 98% 2.3 mph SE3.7 kmh SE 5.8 mph9.3 kmh 30.01 in1016.3 mb - 0.00 in0.0 mm 0.00 in0.0 mm
05:43 AM 48.2°F9.0°C 47.7°F8.7°C 98% 3.5 mph NW5.6 kmh NW 5.8 mph9.3 kmh 30.01 in1016.3 mb - 0.00 in0.0 mm 0.00 in0.0 mm
05:44 AM 48.2°F9.0°C 47.7°F8.7°C 98% 2.3 mph SE3.7 kmh SE 4.6 mph7.4 kmh 30.01 in1016.3 mb - 0.00 in0.0 mm 0.00 in0.0 mm
05:45 AM 48.2°F9.0°C 47.7°F8.7°C 98% 2.3 mph E3.7 kmh E 4.6 mph7.4 kmh 30.01 in1016.3 mb - 0.00 in0.0 mm 0.00 in0.0 mm
05:46 AM 48.2°F9.0°C 47.7°F8.7°C 98% 3.5 mph SE5.6 kmh SE 6.9 mph11.1 kmh 30.01 in1016.3 mb - 0.00 in0.0 mm 0.00 in0.0 mm
05:47 AM 48.2°F9.0°C 47.7°F8.7°C 98% 3.5 mph SE5.6 kmh SE 3.5 mph5.6 kmh 30.01 in1016.3 mb - 0.00 in0.0 mm 0.00 in0.0 mm
05:48 AM 48.2°F9.0°C 47.7°F8.7°C 98% 2.3 mph SSW3.7 kmh SSW 5.8 mph9.3 kmh 30.01 in1016.3 mb - 0.00 in0.0 mm 0.00 in0.0 mm
05:49 AM 48.2°F9.0°C 47.7°F8.7°C 98% 3.5 mph SSE5.6 kmh SSE 5.8 mph9.3 kmh 30.01 in1016.3 mb - 0.00 in0.0 mm 0.00 in0.0 mm
05:50 AM 48.2°F9.0°C 47.7°F8.7°C 98% 3.5 mph SE5.6 kmh SE 6.9 mph11.1 kmh 30.01 in1016.3 mb - 0.00 in0.0 mm 0.00 in0.0 mm
05:51 AM 48.4°F9.1°C 47.9°F8.8°C 98% 5.8 mph S9.3 kmh S 5.8 mph9.3 kmh 30.01 in1016.3 mb - 0.00 in0.0 mm 0.00 in0.0 mm
05:52 AM 48.4°F9.1°C 47.9°F8.8°C 98% 3.5 mph SE5.6 kmh SE 6.9 mph11.1 kmh 30.01 in1016.3 mb - 0.00 in0.0 mm 0.00 in0.0 mm
05:53 AM 48.4°F9.1°C 47.9°F8.8°C 98% 3.5 mph SSE5.6 kmh SSE 6.9 mph11.1 kmh 30.01 in1016.3 mb - 0.00 in0.0 mm 0.00 in0.0 mm
05:54 AM 48.4°F9.1°C 47.9°F8.8°C 98% 3.5 mph SE5.6 kmh SE 5.8 mph9.3 kmh 30.01 in1016.3 mb - 0.00 in0.0 mm 0.00 in0.0 mm
05:55 AM 48.4°F9.1°C 47.9°F8.8°C 98% 3.5 mph SE5.6 kmh SE 5.8 mph9.3 kmh 30.01 in1016.3 mb - 0.00 in0.0 mm 0.00 in0.0 mm
05:56 AM 48.4°F9.1°C 47.9°F8.8°C 98% 3.5 mph SSE5.6 kmh SSE 4.6 mph7.4 kmh 30.01 in1016.3 mb - 0.00 in0.0 mm 0.00 in0.0 mm
05:57 AM 48.4°F9.1°C 47.9°F8.8°C 98% 3.5 mph S5.6 kmh S 4.6 mph7.4 kmh 30.01 in1016.3 mb - 0.00 in0.0 mm 0.00 in0.0 mm
05:58 AM 48.4°F9.1°C 47.9°F8.8°C 98% 2.3 mph SSE3.7 kmh SSE 4.6 mph7.4 kmh 30.01 in1016.3 mb - 0.00 in0.0 mm 0.00 in0.0 mm
05:59 AM 48.4°F9.1°C 47.9°F8.8°C 98% 3.5 mph S5.6 kmh S 4.6 mph7.4 kmh 30.01 in1016.3 mb - 0.00 in0.0 mm 0.00 in0.0 mm
06:00 AM 48.4°F9.1°C 47.9°F8.8°C 98% 2.3 mph SE3.7 kmh SE 5.8 mph9.3 kmh 30.01 in1016.3 mb - 0.00 in0.0 mm 0.00 in0.0 mm
06:01 AM 48.4°F9.1°C 47.9°F8.8°C 98% 2.3 mph ESE3.7 kmh ESE 2.3 mph3.7 kmh 30.01 in1016.3 mb - 0.00 in0.0 mm 0.00 in0.0 mm
06:02 AM 48.4°F9.1°C 47.9°F8.8°C 98% 2.3 mph E3.7 kmh E 2.3 mph3.7 kmh 30.01 in1016.3 mb - 0.00 in0.0 mm 0.00 in0.0 mm
06:03 AM 48.4°F9.1°C 47.9°F8.8°C 98% 2.3 mph ESE3.7 kmh ESE 2.3 mph3.7 kmh 30.01 in1016.3 mb - 0.00 in0.0 mm 0.00 in0.0 mm
06:04 AM 48.6°F9.2°C 47.8°F8.8°C 97% 1.2 mph NNW1.9 kmh NNW 2.3 mph3.7 kmh 30.01 in1016.3 mb - 0.00 in0.0 mm 0.00 in0.0 mm
06:05 AM 48.6°F9.2°C 47.8°F8.8°C 97% 2.3 mph SSE3.7 kmh SSE 3.5 mph5.6 kmh 30.01 in1016.3 mb - 0.00 in0.0 mm 0.00 in0.0 mm
06:06 AM 48.6°F9.2°C 47.8°F8.8°C 97% 2.3 mph SE3.7 kmh SE 2.3 mph3.7 kmh 30.01 in1016.3 mb - 0.00 in0.0 mm 0.00 in0.0 mm
06:07 AM 48.6°F9.2°C 47.8°F8.8°C 97% 1.2 mph SE1.9 kmh SE 3.5 mph5.6 kmh 30.01 in1016.3 mb - 0.00 in0.0 mm 0.00 in0.0 mm
06:08 AM 48.6°F9.2°C 47.8°F8.8°C 97% 2.3 mph S3.7 kmh S 3.5 mph5.6 kmh 30.01 in1016.3 mb - 0.00 in0.0 mm 0.00 in0.0 mm
06:09 AM 48.6°F9.2°C 47.8°F8.8°C 97% 2.3 mph SSE3.7 kmh SSE 3.5 mph5.6 kmh 30.01 in1016.3 mb - 0.00 in0.0 mm 0.00 in0.0 mm
06:10 AM 48.6°F9.2°C 47.8°F8.8°C 97% 2.3 mph SE3.7 kmh SE 4.6 mph7.4 kmh 30.01 in1016.3 mb - 0.00 in0.0 mm 0.00 in0.0 mm
06:11 AM 48.6°F9.2°C 47.8°F8.8°C 97% 2.3 mph S3.7 kmh S 4.6 mph7.4 kmh 30.01 in1016.3 mb - 0.00 in0.0 mm 0.00 in0.0 mm
06:12 AM 48.6°F9.2°C 47.8°F8.8°C 97% 3.5 mph E5.6 kmh E 2.3 mph3.7 kmh 30.01 in1016.3 mb - 0.00 in0.0 mm 0.00 in0.0 mm
06:13 AM 48.6°F9.2°C 47.8°F8.8°C 97% 2.3 mph ESE3.7 kmh ESE 2.3 mph3.7 kmh 30.01 in1016.3 mb - 0.00 in0.0 mm 0.00 in0.0 mm
06:14 AM 48.6°F9.2°C 47.8°F8.8°C 97% 2.3 mph SSE3.7 kmh SSE 5.8 mph9.3 kmh 30.01 in1016.3 mb - 0.00 in0.0 mm 0.00 in0.0 mm
06:15 AM 48.6°F9.2°C 47.8°F8.8°C 97% 3.5 mph SSE5.6 kmh SSE 5.8 mph9.3 kmh 30.01 in1016.3 mb - 0.00 in0.0 mm 0.00 in0.0 mm
06:16 AM 48.6°F9.2°C 47.8°F8.8°C 97% 2.3 mph SE3.7 kmh SE 3.5 mph5.6 kmh 30.01 in1016.3 mb - 0.00 in0.0 mm 0.00 in0.0 mm
06:17 AM 48.6°F9.2°C 47.8°F8.8°C 97% 2.3 mph SE3.7 kmh SE 3.5 mph5.6 kmh 30.01 in1016.3 mb - 0.00 in0.0 mm 0.00 in0.0 mm
06:18 AM 48.6°F9.2°C 47.8°F8.8°C 97% 2.3 mph S3.7 kmh S 2.3 mph3.7 kmh 30.01 in1016.3 mb - 0.00 in0.0 mm 0.00 in0.0 mm
06:19 AM 48.6°F9.2°C 47.8°F8.8°C 97% 2.3 mph SE3.7 kmh SE 1.2 mph1.9 kmh 30.01 in1016.3 mb - 0.00 in0.0 mm 0.00 in0.0 mm
06:20 AM 48.6°F9.2°C 47.8°F8.8°C 97% 1.2 mph S1.9 kmh S 1.2 mph1.9 kmh 30.01 in1016.3 mb - 0.00 in0.0 mm 0.00 in0.0 mm
06:21 AM 48.6°F9.2°C 47.8°F8.8°C 97% 1.2 mph SE1.9 kmh SE 6.9 mph11.1 kmh 30.01 in1016.3 mb - 0.00 in0.0 mm 0.00 in0.0 mm
06:22 AM 48.6°F9.2°C 47.8°F8.8°C 97% 3.5 mph ESE5.6 kmh ESE 4.6 mph7.4 kmh 30.01 in1016.3 mb - 0.00 in0.0 mm 0.00 in0.0 mm
06:23 AM 48.6°F9.2°C 47.8°F8.8°C 97% 2.3 mph SSE3.7 kmh SSE 4.6 mph7.4 kmh 30.01 in1016.3 mb - 0.00 in0.0 mm 0.00 in0.0 mm
06:24 AM 48.6°F9.2°C 47.8°F8.8°C 97% 2.3 mph SE3.7 kmh SE 2.3 mph3.7 kmh 30.01 in1016.3 mb - 0.00 in0.0 mm 0.00 in0.0 mm
06:25 AM 48.6°F9.2°C 47.8°F8.8°C 97% 1.2 mph SSE1.9 kmh SSE 2.3 mph3.7 kmh 30.01 in1016.3 mb - 0.00 in0.0 mm 0.00 in0.0 mm
06:26 AM 48.6°F9.2°C 47.8°F8.8°C 97% 2.3 mph WSW3.7 kmh WSW 4.6 mph7.4 kmh 30.00 in1015.9 mb - 0.00 in0.0 mm 0.00 in0.0 mm
06:27 AM 48.6°F9.2°C 47.8°F8.8°C 97% 2.3 mph S3.7 kmh S 3.5 mph5.6 kmh 30.00 in1015.9 mb - 0.00 in0.0 mm 0.00 in0.0 mm
06:28 AM 48.6°F9.2°C 47.8°F8.8°C 97% 2.3 mph S3.7 kmh S 2.3 mph3.7 kmh 30.00 in1015.9 mb - 0.00 in0.0 mm 0.00 in0.0 mm
06:29 AM 48.6°F9.2°C 47.8°F8.8°C 97% 1.2 mph SE1.9 kmh SE 2.3 mph3.7 kmh 30.00 in1015.9 mb - 0.00 in0.0 mm 0.00 in0.0 mm
06:30 AM 48.6°F9.2°C 47.8°F8.8°C 97% 1.2 mph SE1.9 kmh SE 2.3 mph3.7 kmh 30.00 in1015.9 mb - 0.00 in0.0 mm 0.00 in0.0 mm
06:31 AM 48.6°F9.2°C 48.1°F8.9°C 98% 3.5 mph S5.6 kmh S 6.9 mph11.1 kmh 30.00 in1015.9 mb - 0.00 in0.0 mm 0.00 in0.0 mm
06:32 AM 48.6°F9.2°C 48.1°F8.9°C 98% 3.5 mph E5.6 kmh E 4.6 mph7.4 kmh 30.00 in1015.9 mb - 0.00 in0.0 mm 0.00 in0.0 mm
06:33 AM 48.6°F9.2°C 48.1°F8.9°C 98% 2.3 mph ESE3.7 kmh ESE 2.3 mph3.7 kmh 30.00 in1015.9 mb - 0.00 in0.0 mm 0.00 in0.0 mm
06:34 AM 48.6°F9.2°C 48.1°F8.9°C 98% 2.3 mph SSE3.7 kmh SSE 2.3 mph3.7 kmh 30.00 in1015.9 mb - 0.00 in0.0 mm 0.00 in0.0 mm
06:35 AM 48.6°F9.2°C 48.1°F8.9°C 98% 1.2 mph S1.9 kmh S 3.5 mph5.6 kmh 30.00 in1015.9 mb - 0.00 in0.0 mm 0.00 in0.0 mm
06:36 AM 48.6°F9.2°C 48.1°F8.9°C 98% 2.3 mph N3.7 kmh N 3.5 mph5.6 kmh 30.00 in1015.9 mb - 0.00 in0.0 mm 0.00 in0.0 mm
06:37 AM 48.6°F9.2°C 48.1°F8.9°C 98% 1.2 mph S1.9 kmh S 2.3 mph3.7 kmh 30.00 in1015.9 mb - 0.00 in0.0 mm 0.00 in0.0 mm
06:38 AM 48.6°F9.2°C 48.1°F8.9°C 98% 2.3 mph S3.7 kmh S 2.3 mph3.7 kmh 30.00 in1015.9 mb - 0.00 in0.0 mm 0.00 in0.0 mm
06:39 AM 48.6°F9.2°C 48.1°F8.9°C 98% 2.3 mph S3.7 kmh S 4.6 mph7.4 kmh 30.00 in1015.9 mb - 0.00 in0.0 mm 0.00 in0.0 mm
06:40 AM 48.6°F9.2°C 48.1°F8.9°C 98% 3.5 mph S5.6 kmh S 5.8 mph9.3 kmh 30.00 in1015.9 mb - 0.00 in0.0 mm 0.00 in0.0 mm
06:41 AM 48.6°F9.2°C 48.1°F8.9°C 98% 3.5 mph ESE5.6 kmh ESE 2.3 mph3.7 kmh 30.00 in1015.9 mb - 0.00 in0.0 mm 0.00 in0.0 mm
06:42 AM 48.6°F9.2°C 48.1°F8.9°C 98% 1.2 mph SW1.9 kmh SW 1.2 mph1.9 kmh 30.00 in1015.9 mb - 0.00 in0.0 mm 0.00 in0.0 mm
06:43 AM 48.6°F9.2°C 48.1°F8.9°C 98% Calm Calm 3.5 mph5.6 kmh 30.00 in1015.9 mb - 0.00 in0.0 mm 0.00 in0.0 mm
06:44 AM 48.6°F9.2°C 48.1°F8.9°C 98% 1.2 mph SE1.9 kmh SE 5.8 mph9.3 kmh 30.00 in1015.9 mb - 0.00 in0.0 mm 0.00 in0.0 mm
06:45 AM 48.6°F9.2°C 48.1°F8.9°C 98% 3.5 mph S5.6 kmh S 5.8 mph9.3 kmh 30.00 in1015.9 mb - 0.00 in0.0 mm 0.00 in0.0 mm
06:46 AM 48.6°F9.2°C 48.1°F8.9°C 98% 2.3 mph ESE3.7 kmh ESE 5.8 mph9.3 kmh 30.00 in1015.9 mb - 0.00 in0.0 mm 0.00 in0.0 mm
06:47 AM 48.6°F9.2°C 48.1°F8.9°C 98% 2.3 mph E3.7 kmh E 3.5 mph5.6 kmh 30.00 in1015.9 mb - 0.00 in0.0 mm 0.00 in0.0 mm
06:48 AM 48.6°F9.2°C 48.1°F8.9°C 98% 2.3 mph SE3.7 kmh SE 3.5 mph5.6 kmh 30.00 in1015.9 mb - 0.00 in0.0 mm 0.00 in0.0 mm
06:49 AM 48.6°F9.2°C 48.1°F8.9°C 98% 3.5 mph S5.6 kmh S 5.8 mph9.3 kmh 30.00 in1015.9 mb - 0.00 in0.0 mm 0.00 in0.0 mm
06:50 AM 48.6°F9.2°C 48.1°F8.9°C 98% 3.5 mph S5.6 kmh S 3.5 mph5.6 kmh 29.99 in1015.6 mb - 0.00 in0.0 mm 0.00 in0.0 mm
06:51 AM 48.6°F9.2°C 48.1°F8.9°C 98% 2.3 mph S3.7 kmh S 3.5 mph5.6 kmh 29.99 in1015.6 mb - 0.00 in0.0 mm 0.00 in0.0 mm
06:52 AM 48.6°F9.2°C 48.1°F8.9°C 98% 3.5 mph WSW5.6 kmh WSW 5.8 mph9.3 kmh 29.99 in1015.6 mb - 0.00 in0.0 mm 0.00 in0.0 mm
06:53 AM 48.6°F9.2°C 48.1°F8.9°C 98% 2.3 mph SW3.7 kmh SW 4.6 mph7.4 kmh 29.99 in1015.6 mb - 0.00 in0.0 mm 0.00 in0.0 mm
06:54 AM 48.6°F9.2°C 48.1°F8.9°C 98% 2.3 mph NE3.7 kmh NE 3.5 mph5.6 kmh 29.99 in1015.6 mb - 0.00 in0.0 mm 0.00 in0.0 mm
06:55 AM 48.6°F9.2°C 48.1°F8.9°C 98% 3.5 mph SE5.6 kmh SE 3.5 mph5.6 kmh 29.99 in1015.6 mb - 0.00 in0.0 mm 0.00 in0.0 mm
06:56 AM 48.6°F9.2°C 48.1°F8.9°C 98% 3.5 mph SW5.6 kmh SW 6.9 mph11.1 kmh 29.99 in1015.6 mb - 0.00 in0.0 mm 0.00 in0.0 mm
06:57 AM 48.6°F9.2°C 48.1°F8.9°C 98% 3.5 mph SE5.6 kmh SE 2.3 mph3.7 kmh 29.99 in1015.6 mb - 0.00 in0.0 mm 0.00 in0.0 mm
06:58 AM 48.7°F9.3°C 48.1°F8.9°C 98% 2.3 mph SE3.7 kmh SE 2.3 mph3.7 kmh 29.99 in1015.6 mb - 0.00 in0.0 mm 0.00 in0.0 mm
06:59 AM 48.7°F9.3°C 48.2°F9.0°C 98% 3.5 mph S5.6 kmh S 5.8 mph9.3 kmh 29.99 in1015.6 mb - 0.00 in0.0 mm 0.00 in0.0 mm
07:00 AM 48.7°F9.3°C 48.2°F9.0°C 98% 3.5 mph S5.6 kmh S 2.3 mph3.7 kmh 29.99 in1015.6 mb - 0.00 in0.0 mm 0.00 in0.0 mm
07:01 AM 48.7°F9.3°C 48.2°F9.0°C 98% 2.3 mph SSE3.7 kmh SSE 2.3 mph3.7 kmh 29.99 in1015.6 mb - 0.00 in0.0 mm 0.00 in0.0 mm
07:02 AM 48.7°F9.3°C 48.2°F9.0°C 98% 2.3 mph E3.7 kmh E 3.5 mph5.6 kmh 29.99 in1015.6 mb - 0.00 in0.0 mm 0.00 in0.0 mm
07:03 AM 48.7°F9.3°C 48.2°F9.0°C 98% 2.3 mph SE3.7 kmh SE 3.5 mph5.6 kmh 29.98 in1015.2 mb - 0.00 in0.0 mm 0.00 in0.0 mm
07:04 AM 48.7°F9.3°C 48.2°F9.0°C 98% 2.3 mph ESE3.7 kmh ESE 3.5 mph5.6 kmh 29.98 in1015.2 mb - 0.00 in0.0 mm 0.00 in0.0 mm
07:05 AM 48.7°F9.3°C 48.2°F9.0°C 98% 3.5 mph NE5.6 kmh NE 3.5 mph5.6 kmh 29.98 in1015.2 mb - 0.00 in0.0 mm 0.00 in0.0 mm
07:06 AM 48.7°F9.3°C 48.2°F9.0°C 98% 3.5 mph S5.6 kmh S 3.5 mph5.6 kmh 29.98 in1015.2 mb - 0.00 in0.0 mm 0.00 in0.0 mm
07:07 AM 48.7°F9.3°C 48.2°F9.0°C 98% 2.3 mph SSE3.7 kmh SSE 5.8 mph9.3 kmh 29.98 in1015.2 mb - 0.00 in0.0 mm 0.00 in0.0 mm
07:08 AM 48.7°F9.3°C 48.2°F9.0°C 98% 2.3 mph S3.7 kmh S 3.5 mph5.6 kmh 29.98 in1015.2 mb - 0.00 in0.0 mm 0.00 in0.0 mm
07:09 AM 48.7°F9.3°C 48.2°F9.0°C 98% 2.3 mph SE3.7 kmh SE 2.3 mph3.7 kmh 29.98 in1015.2 mb - 0.00 in0.0 mm 0.00 in0.0 mm
07:10 AM 48.7°F9.3°C 48.2°F9.0°C 98% 2.3 mph SE3.7 kmh SE 3.5 mph5.6 kmh 29.98 in1015.2 mb - 0.00 in0.0 mm 0.00 in0.0 mm
07:11 AM 48.8°F9.3°C 48.2°F9.0°C 98% 2.3 mph SW3.7 kmh SW 4.6 mph7.4 kmh 29.98 in1015.2 mb - 0.00 in0.0 mm 0.00 in0.0 mm
07:12 AM 48.9°F9.4°C 48.4°F9.1°C 98% 3.5 mph SE5.6 kmh SE 4.6 mph7.4 kmh 29.98 in1015.2 mb - 0.00 in0.0 mm 0.00 in0.0 mm
07:13 AM 48.9°F9.4°C 48.4°F9.1°C 98% 3.5 mph S5.6 kmh S 5.8 mph9.3 kmh 29.98 in1015.2 mb - 0.00 in0.0 mm 0.00 in0.0 mm
07:14 AM 48.9°F9.4°C 48.4°F9.1°C 98% 4.6 mph W7.4 kmh W 6.9 mph11.1 kmh 29.98 in1015.2 mb - 0.00 in0.0 mm 0.00 in0.0 mm
07:15 AM 48.9°F9.4°C 48.4°F9.1°C 98% 4.6 mph S7.4 kmh S 5.8 mph9.3 kmh 29.98 in1015.2 mb - 0.00 in0.0 mm 0.00 in0.0 mm
07:16 AM 48.9°F9.4°C 48.4°F9.1°C 98% 4.6 mph ESE7.4 kmh ESE 5.8 mph9.3 kmh 29.98 in1015.2 mb - 0.00 in0.0 mm 0.00 in0.0 mm
07:17 AM 48.9°F9.4°C 48.4°F9.1°C 98% 3.5 mph S5.6 kmh S 4.6 mph7.4 kmh 29.98 in1015.2 mb - 0.00 in0.0 mm 0.00 in0.0 mm
07:18 AM 48.9°F9.4°C 48.4°F9.1°C 98% 2.3 mph SSW3.7 kmh SSW 3.5 mph5.6 kmh 29.98 in1015.2 mb - 0.00 in0.0 mm 0.00 in0.0 mm
07:19 AM 48.9°F9.4°C 48.4°F9.1°C 98% 1.2 mph SSW1.9 kmh SSW 4.6 mph7.4 kmh 29.98 in1015.2 mb - 0.00 in0.0 mm 0.00 in0.0 mm
07:20 AM 49.1°F9.5°C 48.5°F9.2°C 98% 2.3 mph S3.7 kmh S 4.6 mph7.4 kmh 29.98 in1015.2 mb - 0.00 in0.0 mm 0.00 in0.0 mm
07:21 AM 49.1°F9.5°C 48.6°F9.2°C 98% 2.3 mph S3.7 kmh S 3.5 mph5.6 kmh 29.98 in1015.2 mb - 0.00 in0.0 mm 0.00 in0.0 mm
07:22 AM 49.1°F9.5°C 48.6°F9.2°C 98% 2.3 mph SE3.7 kmh SE 4.6 mph7.4 kmh 29.98 in1015.2 mb - 0.00 in0.0 mm 0.00 in0.0 mm
07:23 AM 49.1°F9.5°C 48.6°F9.2°C 98% 3.5 mph S5.6 kmh S 5.8 mph9.3 kmh 29.98 in1015.2 mb - 0.00 in0.0 mm 0.00 in0.0 mm
07:24 AM 49.1°F9.5°C 48.6°F9.2°C 98% 3.5 mph SE5.6 kmh SE 5.8 mph9.3 kmh 29.98 in1015.2 mb - 0.00 in0.0 mm 0.00 in0.0 mm
07:25 AM 49.1°F9.5°C 48.6°F9.2°C 98% 2.3 mph S3.7 kmh S 6.9 mph11.1 kmh 29.98 in1015.2 mb - 0.00 in0.0 mm 0.00 in0.0 mm
07:26 AM 49.1°F9.5°C 48.6°F9.2°C 98% 4.6 mph SE7.4 kmh SE 3.5 mph5.6 kmh 29.98 in1015.2 mb - 0.00 in0.0 mm 0.00 in0.0 mm
07:27 AM 49.1°F9.5°C 48.6°F9.2°C 98% 2.3 mph SSW3.7 kmh SSW 3.5 mph5.6 kmh 29.98 in1015.2 mb - 0.00 in0.0 mm 0.00 in0.0 mm
07:28 AM 49.1°F9.5°C 48.6°F9.2°C 98% 3.5 mph SE5.6 kmh SE 5.8 mph9.3 kmh 29.98 in1015.2 mb - 0.00 in0.0 mm 0.00 in0.0 mm
07:29 AM 49.3°F9.6°C 48.8°F9.3°C 98% 4.6 mph SE7.4 kmh SE 4.6 mph7.4 kmh 29.98 in1015.2 mb - 0.00 in0.0 mm 0.00 in0.0 mm
07:30 AM 49.3°F9.6°C 48.8°F9.3°C 98% 2.3 mph SE3.7 kmh SE 5.8 mph9.3 kmh 29.98 in1015.2 mb - 0.00 in0.0 mm 0.00 in0.0 mm
07:31 AM 49.3°F9.6°C 48.8°F9.3°C 98% 4.6 mph SE7.4 kmh SE 5.8 mph9.3 kmh 29.98 in1015.2 mb - 0.00 in0.0 mm 0.00 in0.0 mm
07:32 AM 49.3°F9.6°C 48.8°F9.3°C 98% 3.5 mph SE5.6 kmh SE 3.5 mph5.6 kmh 29.98 in1015.2 mb - 0.00 in0.0 mm 0.00 in0.0 mm
07:33 AM 49.3°F9.6°C 48.8°F9.3°C 98% 2.3 mph SE3.7 kmh SE 2.3 mph3.7 kmh 29.98 in1015.2 mb - 0.00 in0.0 mm 0.00 in0.0 mm
07:34 AM 49.3°F9.6°C 48.8°F9.3°C 98% 2.3 mph WSW3.7 kmh WSW 3.5 mph5.6 kmh 29.98 in1015.2 mb - 0.00 in0.0 mm 0.00 in0.0 mm
07:35 AM 49.3°F9.6°C 48.8°F9.3°C 98% 3.5 mph SW5.6 kmh SW 3.5 mph5.6 kmh 29.98 in1015.2 mb - 0.00 in0.0 mm 0.00 in0.0 mm
07:36 AM 49.3°F9.6°C 48.8°F9.3°C 98% 3.5 mph SW5.6 kmh SW 8.1 mph13.0 kmh 29.98 in1015.2 mb - 0.00 in0.0 mm 0.00 in0.0 mm
07:37 AM 49.3°F9.6°C 48.8°F9.3°C 98% 4.6 mph NNW7.4 kmh NNW 5.8 mph9.3 kmh 29.98 in1015.2 mb - 0.00 in0.0 mm 0.00 in0.0 mm
07:38 AM 49.3°F9.6°C 48.8°F9.3°C 98% 3.5 mph SW5.6 kmh SW 4.6 mph7.4 kmh 29.98 in1015.2 mb - 0.00 in0.0 mm 0.00 in0.0 mm
07:39 AM 49.3°F9.6°C 48.8°F9.3°C 98% 2.3 mph SSE3.7 kmh SSE 5.8 mph9.3 kmh 29.98 in1015.2 mb - 0.00 in0.0 mm 0.00 in0.0 mm
07:40 AM 49.3°F9.6°C 48.8°F9.3°C 98% 5.8 mph E9.3 kmh E 10.4 mph16.7 kmh 29.98 in1015.2 mb - 0.00 in0.0 mm 0.00 in0.0 mm
07:41 AM 49.4°F9.7°C 48.8°F9.3°C 98% 3.5 mph SE5.6 kmh SE 5.8 mph9.3 kmh 29.98 in1015.2 mb - 0.00 in0.0 mm 0.00 in0.0 mm
07:42 AM 49.5°F9.7°C 49.0°F9.4°C 98% 4.6 mph ENE7.4 kmh ENE 5.8 mph9.3 kmh 29.98 in1015.2 mb - 0.00 in0.0 mm 0.00 in0.0 mm
07:43 AM 49.5°F9.7°C 49.0°F9.4°C 98% 4.6 mph SSE7.4 kmh SSE 4.6 mph7.4 kmh 29.98 in1015.2 mb - 0.00 in0.0 mm 0.00 in0.0 mm
07:44 AM 49.5°F9.7°C 49.0°F9.4°C 98% 3.5 mph SSW5.6 kmh SSW 4.6 mph7.4 kmh 29.98 in1015.2 mb - 0.00 in0.0 mm 0.00 in0.0 mm
07:45 AM 49.6°F9.8°C 49.1°F9.5°C 98% 2.3 mph SE3.7 kmh SE 4.6 mph7.4 kmh 29.98 in1015.2 mb - 0.00 in0.0 mm 0.00 in0.0 mm
07:46 AM 49.6°F9.8°C 49.1°F9.5°C 98% 3.5 mph S5.6 kmh S 5.8 mph9.3 kmh 29.98 in1015.2 mb - 0.00 in0.0 mm 0.00 in0.0 mm
07:47 AM 49.6°F9.8°C 49.1°F9.5°C 98% 3.5 mph E5.6 kmh E 4.6 mph7.4 kmh 29.98 in1015.2 mb - 0.00 in0.0 mm 0.00 in0.0 mm
07:48 AM 49.6°F9.8°C 49.1°F9.5°C 98% 2.3 mph SE3.7 kmh SE 2.3 mph3.7 kmh 29.98 in1015.2 mb - 0.00 in0.0 mm 0.00 in0.0 mm
07:49 AM 49.6°F9.8°C 49.1°F9.5°C 98% 2.3 mph E3.7 kmh E 4.6 mph7.4 kmh 29.98 in1015.2 mb - 0.00 in0.0 mm 0.00 in0.0 mm
07:50 AM 49.6°F9.8°C 49.1°F9.5°C 98% 4.6 mph SSE7.4 kmh SSE 8.1 mph13.0 kmh 29.98 in1015.2 mb - 0.00 in0.0 mm 0.00 in0.0 mm
07:51 AM 49.6°F9.8°C 49.1°F9.5°C 98% 4.6 mph SE7.4 kmh SE 6.9 mph11.1 kmh 29.97 in1014.9 mb - 0.00 in0.0 mm 0.00 in0.0 mm
07:52 AM 49.6°F9.8°C 49.1°F9.5°C 98% 3.5 mph E5.6 kmh E 6.9 mph11.1 kmh 29.97 in1014.9 mb - 0.00 in0.0 mm 0.00 in0.0 mm
07:53 AM 49.6°F9.8°C 49.1°F9.5°C 98% 2.3 mph S3.7 kmh S 5.8 mph9.3 kmh 29.97 in1014.9 mb - 0.00 in0.0 mm 0.00 in0.0 mm
07:54 AM 49.6°F9.8°C 49.1°F9.5°C 98% 3.5 mph S5.6 kmh S 2.3 mph3.7 kmh 29.97 in1014.9 mb - 0.00 in0.0 mm 0.00 in0.0 mm
07:55 AM 49.8°F9.9°C 49.2°F9.6°C 98% 2.3 mph SW3.7 kmh SW 6.9 mph11.1 kmh 29.97 in1014.9 mb - 0.00 in0.0 mm 0.00 in0.0 mm
07:56 AM 49.8°F9.9°C 49.3°F9.6°C 98% 3.5 mph ESE5.6 kmh ESE 6.9 mph11.1 kmh 29.97 in1014.9 mb - 0.00 in0.0 mm 0.00 in0.0 mm
07:57 AM 49.8°F9.9°C 49.3°F9.6°C 98% 3.5 mph SE5.6 kmh SE 5.8 mph9.3 kmh 29.97 in1014.9 mb - 0.00 in0.0 mm 0.00 in0.0 mm
07:58 AM 49.8°F9.9°C 49.0°F9.4°C 97% 3.5 mph SSE5.6 kmh SSE 4.6 mph7.4 kmh 29.97 in1014.9 mb - 0.00 in0.0 mm 0.00 in0.0 mm
07:59 AM 49.8°F9.9°C 49.0°F9.4°C 97% 3.5 mph SSE5.6 kmh SSE 4.6 mph7.4 kmh 29.97 in1014.9 mb - 0.00 in0.0 mm 0.00 in0.0 mm
08:00 AM 49.8°F9.9°C 49.0°F9.4°C 97% 4.6 mph SE7.4 kmh SE 6.9 mph11.1 kmh 29.97 in1014.9 mb - 0.00 in0.0 mm 0.00 in0.0 mm
08:01 AM 49.8°F9.9°C 49.0°F9.4°C 97% 4.6 mph SSE7.4 kmh SSE 6.9 mph11.1 kmh 29.96 in1014.6 mb - 0.00 in0.0 mm 0.00 in0.0 mm
08:02 AM 49.8°F9.9°C 49.0°F9.4°C 97% 3.5 mph SE5.6 kmh SE 4.6 mph7.4 kmh 29.96 in1014.6 mb - 0.00 in0.0 mm 0.00 in0.0 mm
08:03 AM 49.8°F9.9°C 49.0°F9.4°C 97% 3.5 mph ENE5.6 kmh ENE 5.8 mph9.3 kmh 29.96 in1014.6 mb - 0.00 in0.0 mm 0.00 in0.0 mm
08:04 AM 49.8°F9.9°C 49.0°F9.4°C 97% 4.6 mph S7.4 kmh S 5.8 mph9.3 kmh 29.96 in1014.6 mb - 0.00 in0.0 mm 0.00 in0.0 mm
08:05 AM 49.8°F9.9°C 49.0°F9.4°C 97% 3.5 mph S5.6 kmh S 3.5 mph5.6 kmh 29.96 in1014.6 mb - 0.00 in0.0 mm 0.00 in0.0 mm
08:06 AM 49.8°F9.9°C 49.0°F9.4°C 97% 3.5 mph SW5.6 kmh SW 5.8 mph9.3 kmh 29.96 in1014.6 mb - 0.00 in0.0 mm 0.00 in0.0 mm
08:07 AM 49.8°F9.9°C 49.0°F9.4°C 97% 4.6 mph SE7.4 kmh SE 5.8 mph9.3 kmh 29.96 in1014.6 mb - 0.00 in0.0 mm 0.00 in0.0 mm
08:08 AM 49.8°F9.9°C 49.0°F9.4°C 97% 3.5 mph SE5.6 kmh SE 4.6 mph7.4 kmh 29.96 in1014.6 mb - 0.00 in0.0 mm 0.00 in0.0 mm
08:09 AM 49.8°F9.9°C 49.0°F9.4°C 97% 4.6 mph ESE7.4 kmh ESE 6.9 mph11.1 kmh 29.96 in1014.6 mb - 0.00 in0.0 mm 0.00 in0.0 mm
08:10 AM 49.8°F9.9°C 49.0°F9.4°C 97% 4.6 mph SSE7.4 kmh SSE 4.6 mph7.4 kmh 29.96 in1014.6 mb - 0.00 in0.0 mm 0.00 in0.0 mm
08:11 AM 50.0°F10.0°C 49.1°F9.5°C 97% 3.5 mph WSW5.6 kmh WSW 3.5 mph5.6 kmh 29.96 in1014.6 mb - 0.00 in0.0 mm 0.00 in0.0 mm
08:12 AM 50.0°F10.0°C 49.2°F9.6°C 97% 2.3 mph S3.7 kmh S 5.8 mph9.3 kmh 29.96 in1014.6 mb - 0.00 in0.0 mm 0.00 in0.0 mm
08:13 AM 50.0°F10.0°C 49.2°F9.6°C 97% 3.5 mph SE5.6 kmh SE 5.8 mph9.3 kmh 29.96 in1014.6 mb - 0.00 in0.0 mm 0.00 in0.0 mm
08:14 AM 50.0°F10.0°C 49.2°F9.6°C 97% 3.5 mph N5.6 kmh N 3.5 mph5.6 kmh 29.95 in1014.2 mb - 0.00 in0.0 mm 0.00 in0.0 mm
08:15 AM 50.0°F10.0°C 49.2°F9.6°C 97% 2.3 mph S3.7 kmh S 2.3 mph3.7 kmh 29.95 in1014.2 mb - 0.00 in0.0 mm 0.00 in0.0 mm
08:16 AM 50.2°F10.1°C 49.3°F9.6°C 97% 1.2 mph S1.9 kmh S 2.3 mph3.7 kmh 29.95 in1014.2 mb - 0.00 in0.0 mm 0.00 in0.0 mm
08:17 AM 50.2°F10.1°C 49.4°F9.7°C 97% 2.3 mph S3.7 kmh S 8.1 mph13.0 kmh 29.95 in1014.2 mb - 0.00 in0.0 mm 0.00 in0.0 mm
08:18 AM 50.2°F10.1°C 49.4°F9.7°C 97% 4.6 mph ESE7.4 kmh ESE 3.5 mph5.6 kmh 29.95 in1014.2 mb - 0.00 in0.0 mm 0.00 in0.0 mm
08:19 AM 50.2°F10.1°C 49.4°F9.7°C 97% 2.3 mph SE3.7 kmh SE 2.3 mph3.7 kmh 29.95 in1014.2 mb - 0.00 in0.0 mm 0.00 in0.0 mm
08:20 AM 50.3°F10.2°C 49.5°F9.7°C 97% 2.3 mph ESE3.7 kmh ESE 3.5 mph5.6 kmh 29.95 in1014.2 mb - 0.00 in0.0 mm 0.00 in0.0 mm
08:21 AM 50.4°F10.2°C 49.3°F9.6°C 96% 3.5 mph SE5.6 kmh SE 5.8 mph9.3 kmh 29.95 in1014.2 mb - 0.00 in0.0 mm 0.00 in0.0 mm
08:22 AM 50.4°F10.2°C 49.3°F9.6°C 96% 2.3 mph SE3.7 kmh SE 2.3 mph3.7 kmh 29.95 in1014.2 mb - 0.00 in0.0 mm 0.00 in0.0 mm
08:23 AM 50.4°F10.2°C 49.3°F9.6°C 96% 2.3 mph ESE3.7 kmh ESE 4.6 mph7.4 kmh 29.95 in1014.2 mb - 0.00 in0.0 mm 0.00 in0.0 mm
08:24 AM 50.4°F10.2°C 49.3°F9.6°C 96% 3.5 mph S5.6 kmh S 3.5 mph5.6 kmh 29.95 in1014.2 mb - 0.00 in0.0 mm 0.00 in0.0 mm
08:25 AM 50.5°F10.3°C 49.4°F9.7°C 96% 2.3 mph SE3.7 kmh SE 2.3 mph3.7 kmh 29.95 in1014.2 mb - 0.00 in0.0 mm 0.00 in0.0 mm
08:26 AM 50.5°F10.3°C 49.4°F9.7°C 96% 1.2 mph SSE1.9 kmh SSE 1.2 mph1.9 kmh 29.95 in1014.2 mb - 0.00 in0.0 mm 0.00 in0.0 mm
08:27 AM 50.5°F10.3°C 49.4°F9.7°C 96% 2.3 mph SE3.7 kmh SE 6.9 mph11.1 kmh 29.95 in1014.2 mb - 0.00 in0.0 mm 0.00 in0.0 mm
08:28 AM 50.5°F10.3°C 49.4°F9.7°C 96% 3.5 mph SE5.6 kmh SE 6.9 mph11.1 kmh 29.95 in1014.2 mb - 0.00 in0.0 mm 0.00 in0.0 mm
08:29 AM 50.5°F10.3°C 49.4°F9.7°C 96% 4.6 mph SSE7.4 kmh SSE 5.8 mph9.3 kmh 29.95 in1014.2 mb - 0.00 in0.0 mm 0.00 in0.0 mm
08:30 AM 50.7°F10.4°C 49.6°F9.8°C 96% 3.5 mph SSE5.6 kmh SSE 9.2 mph14.8 kmh 29.95 in1014.2 mb - 0.00 in0.0 mm 0.00 in0.0 mm
08:31 AM 50.7°F10.4°C 49.6°F9.8°C 96% 5.8 mph SE9.3 kmh SE 9.2 mph14.8 kmh 29.95 in1014.2 mb - 0.00 in0.0 mm 0.00 in0.0 mm
08:32 AM 50.7°F10.4°C 49.4°F9.7°C 95% 3.5 mph SE5.6 kmh SE 4.6 mph7.4 kmh 29.95 in1014.2 mb - 0.00 in0.0 mm 0.00 in0.0 mm
08:33 AM 50.9°F10.5°C 49.5°F9.7°C 95% 3.5 mph S5.6 kmh S 6.9 mph11.1 kmh 29.95 in1014.2 mb - 0.00 in0.0 mm 0.00 in0.0 mm
08:34 AM 51.0°F10.6°C 49.6°F9.8°C 95% 3.5 mph WSW5.6 kmh WSW 4.6 mph7.4 kmh 29.95 in1014.2 mb - 0.00 in0.0 mm 0.00 in0.0 mm
08:35 AM 51.1°F10.6°C 49.7°F9.8°C 95% 3.5 mph SE5.6 kmh SE 4.6 mph7.4 kmh 29.95 in1014.2 mb - 0.00 in0.0 mm 0.00 in0.0 mm
08:36 AM 51.1°F10.6°C 49.7°F9.8°C 95% 3.5 mph SSE5.6 kmh SSE 4.6 mph7.4 kmh 29.95 in1014.2 mb - 0.00 in0.0 mm 0.00 in0.0 mm
08:37 AM 51.1°F10.6°C 49.7°F9.8°C 95% 3.5 mph E5.6 kmh E 5.8 mph9.3 kmh 29.95 in1014.2 mb - 0.00 in0.0 mm 0.00 in0.0 mm
08:38 AM 51.1°F10.6°C 49.7°F9.8°C 95% 4.6 mph SSE7.4 kmh SSE 5.8 mph9.3 kmh 29.94 in1013.9 mb - 0.00 in0.0 mm 0.00 in0.0 mm
08:39 AM 51.1°F10.6°C 49.7°F9.8°C 95% 4.6 mph ESE7.4 kmh ESE 4.6 mph7.4 kmh 29.93 in1013.5 mb - 0.00 in0.0 mm 0.00 in0.0 mm
08:40 AM 51.1°F10.6°C 49.7°F9.8°C 95% 3.5 mph WSW5.6 kmh WSW 4.6 mph7.4 kmh 29.93 in1013.5 mb - 0.00 in0.0 mm 0.00 in0.0 mm
08:41 AM 51.1°F10.6°C 49.7°F9.8°C 95% 3.5 mph SSE5.6 kmh SSE 5.8 mph9.3 kmh 29.93 in1013.5 mb - 0.00 in0.0 mm 0.00 in0.0 mm
08:42 AM 51.3°F10.7°C 49.6°F9.8°C 94% 4.6 mph S7.4 kmh S 6.9 mph11.1 kmh 29.93 in1013.5 mb - 0.00 in0.0 mm 0.00 in0.0 mm
08:43 AM 51.3°F10.7°C 49.6°F9.8°C 94% 3.5 mph NE5.6 kmh NE 3.5 mph5.6 kmh 29.93 in1013.5 mb - 0.00 in0.0 mm 0.00 in0.0 mm
08:44 AM 51.3°F10.7°C 49.6°F9.8°C 94% 3.5 mph S5.6 kmh S 6.9 mph11.1 kmh 29.93 in1013.5 mb - 0.00 in0.0 mm 0.00 in0.0 mm
08:45 AM 51.3°F10.7°C 49.6°F9.8°C 94% 4.6 mph NE7.4 kmh NE 6.9 mph11.1 kmh 29.93 in1013.5 mb - 0.00 in0.0 mm 0.00 in0.0 mm
08:46 AM 51.3°F10.7°C 49.6°F9.8°C 94% 3.5 mph SE5.6 kmh SE 3.5 mph5.6 kmh 29.93 in1013.5 mb - 0.00 in0.0 mm 0.00 in0.0 mm
08:47 AM 51.3°F10.7°C 49.6°F9.8°C 94% 2.3 mph S3.7 kmh S 2.3 mph3.7 kmh 29.93 in1013.5 mb - 0.00 in0.0 mm 0.00 in0.0 mm
08:48 AM 51.3°F10.7°C 49.6°F9.8°C 94% 3.5 mph E5.6 kmh E 6.9 mph11.1 kmh 29.93 in1013.5 mb - 0.00 in0.0 mm 0.00 in0.0 mm
08:49 AM 51.3°F10.7°C 49.6°F9.8°C 94% 4.6 mph SE7.4 kmh SE 9.2 mph14.8 kmh 29.93 in1013.5 mb - 0.00 in0.0 mm 0.00 in0.0 mm
08:50 AM 51.3°F10.7°C 49.6°F9.8°C 94% 5.8 mph SSE9.3 kmh SSE 5.8 mph9.3 kmh 29.93 in1013.5 mb - 0.00 in0.0 mm 0.00 in0.0 mm
08:51 AM 51.3°F10.7°C 49.6°F9.8°C 94% 3.5 mph SSE5.6 kmh SSE 9.2 mph14.8 kmh 29.94 in1013.9 mb - 0.00 in0.0 mm 0.00 in0.0 mm
08:52 AM 51.3°F10.7°C 49.6°F9.8°C 94% 4.6 mph SE7.4 kmh SE 9.2 mph14.8 kmh 29.94 in1013.9 mb - 0.00 in0.0 mm 0.00 in0.0 mm
08:53 AM 51.3°F10.7°C 49.9°F9.9°C 95% 2.3 mph SE3.7 kmh SE 3.5 mph5.6 kmh 29.94 in1013.9 mb - 0.00 in0.0 mm 0.00 in0.0 mm
08:54 AM 51.3°F10.7°C 49.9°F9.9°C 95% 4.6 mph SE7.4 kmh SE 8.1 mph13.0 kmh 29.94 in1013.9 mb - 0.00 in0.0 mm 0.00 in0.0 mm
08:55 AM 51.1°F10.6°C 49.7°F9.8°C 95% 3.5 mph SE5.6 kmh SE 4.6 mph7.4 kmh 29.94 in1013.9 mb - 0.00 in0.0 mm 0.00 in0.0 mm
08:56 AM 51.1°F10.6°C 49.7°F9.8°C 95% 3.5 mph SE5.6 kmh SE 5.8 mph9.3 kmh 29.94 in1013.9 mb - 0.00 in0.0 mm 0.00 in0.0 mm
08:57 AM 51.1°F10.6°C 49.7°F9.8°C 95% 4.6 mph SE7.4 kmh SE 8.1 mph13.0 kmh 29.94 in1013.9 mb - 0.00 in0.0 mm 0.00 in0.0 mm
08:58 AM 51.1°F10.6°C 49.7°F9.8°C 95% 4.6 mph S7.4 kmh S 5.8 mph9.3 kmh 29.94 in1013.9 mb - 0.00 in0.0 mm 0.00 in0.0 mm
08:59 AM 51.1°F10.6°C 49.7°F9.8°C 95% 4.6 mph S7.4 kmh S 5.8 mph9.3 kmh 29.94 in1013.9 mb - 0.00 in0.0 mm 0.00 in0.0 mm
09:00 AM 51.1°F10.6°C 49.7°F9.8°C 95% 3.5 mph SE5.6 kmh SE 6.9 mph11.1 kmh 29.94 in1013.9 mb - 0.00 in0.0 mm 0.00 in0.0 mm
09:01 AM 51.1°F10.6°C 49.7°F9.8°C 95% 4.6 mph SSE7.4 kmh SSE 5.8 mph9.3 kmh 29.94 in1013.9 mb - 0.00 in0.0 mm 0.00 in0.0 mm
09:02 AM 51.1°F10.6°C 49.7°F9.8°C 95% 4.6 mph S7.4 kmh S 6.9 mph11.1 kmh 29.94 in1013.9 mb - 0.00 in0.0 mm 0.00 in0.0 mm
09:03 AM 51.1°F10.6°C 49.7°F9.8°C 95% 4.6 mph S7.4 kmh S 5.8 mph9.3 kmh 29.94 in1013.9 mb - 0.00 in0.0 mm 0.00 in0.0 mm
09:04 AM 51.1°F10.6°C 49.7°F9.8°C 95% 4.6 mph S7.4 kmh S 5.8 mph9.3 kmh 29.94 in1013.9 mb - 0.00 in0.0 mm 0.00 in0.0 mm
09:05 AM 51.1°F10.6°C 49.7°F9.8°C 95% 3.5 mph SSW5.6 kmh SSW 4.6 mph7.4 kmh 29.94 in1013.9 mb - 0.00 in0.0 mm 0.00 in0.0 mm
09:06 AM 51.1°F10.6°C 49.7°F9.8°C 95% 4.6 mph SW7.4 kmh SW 5.8 mph9.3 kmh 29.94 in1013.9 mb - 0.00 in0.0 mm 0.00 in0.0 mm
09:07 AM 51.0°F10.6°C 49.9°F9.9°C 96% 4.6 mph ESE7.4 kmh ESE 8.1 mph13.0 kmh 29.94 in1013.9 mb - 0.00 in0.0 mm 0.00 in0.0 mm
09:08 AM 50.9°F10.5°C 49.8°F9.9°C 96% 4.6 mph SE7.4 kmh SE 5.8 mph9.3 kmh 29.94 in1013.9 mb - 0.00 in0.0 mm 0.00 in0.0 mm
09:09 AM 50.9°F10.5°C 49.8°F9.9°C 96% 4.6 mph SSE7.4 kmh SSE 4.6 mph7.4 kmh 29.94 in1013.9 mb - 0.00 in0.0 mm 0.00 in0.0 mm
09:10 AM 50.9°F10.5°C 49.8°F9.9°C 96% 4.6 mph SSE7.4 kmh SSE 5.8 mph9.3 kmh 29.94 in1013.9 mb - 0.00 in0.0 mm 0.00 in0.0 mm
09:11 AM 50.9°F10.5°C 49.8°F9.9°C 96% 3.5 mph ESE5.6 kmh ESE 5.8 mph9.3 kmh 29.94 in1013.9 mb - 0.00 in0.0 mm 0.00 in0.0 mm
09:12 AM 50.9°F10.5°C 49.8°F9.9°C 96% 5.8 mph E9.3 kmh E 8.1 mph13.0 kmh 29.94 in1013.9 mb - 0.00 in0.0 mm 0.00 in0.0 mm
09:13 AM 50.9°F10.5°C 49.8°F9.9°C 96% 6.9 mph SSE11.1 kmh SSE 8.1 mph13.0 kmh 29.94 in1013.9 mb - 0.00 in0.0 mm 0.00 in0.0 mm
09:14 AM 50.9°F10.5°C 49.8°F9.9°C 96% 4.6 mph SE7.4 kmh SE 5.8 mph9.3 kmh 29.94 in1013.9 mb - 0.00 in0.0 mm 0.00 in0.0 mm
09:15 AM 50.9°F10.5°C 49.8°F9.9°C 96% 3.5 mph SE5.6 kmh SE 5.8 mph9.3 kmh 29.94 in1013.9 mb - 0.00 in0.0 mm 0.00 in0.0 mm
09:16 AM 50.9°F10.5°C 50.1°F10.1°C 97% 4.6 mph SE7.4 kmh SE 8.1 mph13.0 kmh 29.94 in1013.9 mb - 0.00 in0.0 mm 0.00 in0.0 mm
09:17 AM 50.7°F10.4°C 49.9°F9.9°C 97% 5.8 mph S9.3 kmh S 5.8 mph9.3 kmh 29.94 in1013.9 mb - 0.00 in0.0 mm 0.00 in0.0 mm
09:18 AM 50.7°F10.4°C 50.2°F10.1°C 98% 3.5 mph S5.6 kmh S 5.8 mph9.3 kmh 29.94 in1013.9 mb - 0.00 in0.0 mm 0.00 in0.0 mm
09:19 AM 50.6°F10.3°C 50.1°F10.1°C 98% 4.6 mph SSE7.4 kmh SSE 5.8 mph9.3 kmh 29.94 in1013.9 mb - 0.00 in0.0 mm 0.00 in0.0 mm
09:20 AM 50.5°F10.3°C 50.0°F10.0°C 98% 4.6 mph E7.4 kmh E 4.6 mph7.4 kmh 29.94 in1013.9 mb - 0.01 in0.3 mm 0.01 in0.3 mm
09:21 AM 50.5°F10.3°C 50.2°F10.1°C 99% 3.5 mph S5.6 kmh S 4.6 mph7.4 kmh 29.94 in1013.9 mb - 0.01 in0.3 mm 0.01 in0.3 mm
09:22 AM 50.5°F10.3°C 50.2°F10.1°C 99% 4.6 mph SE7.4 kmh SE 5.8 mph9.3 kmh 29.94 in1013.9 mb - 0.01 in0.3 mm 0.02 in0.5 mm
09:23 AM 50.4°F10.2°C 50.1°F10.1°C 99% 4.6 mph SE7.4 kmh SE 5.8 mph9.3 kmh 29.94 in1013.9 mb - 0.02 in0.5 mm 0.03 in0.8 mm
09:24 AM 50.4°F10.2°C 50.1°F10.1°C 99% 4.6 mph SE7.4 kmh SE 9.2 mph14.8 kmh 29.94 in1013.9 mb - 0.01 in0.3 mm 0.03 in0.8 mm
09:25 AM 50.4°F10.2°C 50.1°F10.1°C 99% 4.6 mph SE7.4 kmh SE 5.8 mph9.3 kmh 29.94 in1013.9 mb - 0.00 in0.0 mm 0.03 in0.8 mm
09:26 AM 50.4°F10.2°C 50.1°F10.1°C 99% 4.6 mph E7.4 kmh E 5.8 mph9.3 kmh 29.94 in1013.9 mb - 0.01 in0.3 mm 0.04 in1.0 mm
09:27 AM 50.3°F10.2°C 50.0°F10.0°C 99% 3.5 mph SSE5.6 kmh SSE 3.5 mph5.6 kmh 29.94 in1013.9 mb - 0.02 in0.5 mm 0.05 in1.3 mm
09:28 AM 50.2°F10.1°C 49.9°F9.9°C 99% 3.5 mph S5.6 kmh S 5.8 mph9.3 kmh 29.94 in1013.9 mb - 0.02 in0.5 mm 0.06 in1.5 mm
09:29 AM 50.2°F10.1°C 49.9°F9.9°C 99% 3.5 mph W5.6 kmh W 5.8 mph9.3 kmh 29.94 in1013.9 mb - 0.02 in0.5 mm 0.07 in1.8 mm
09:30 AM 50.2°F10.1°C 49.9°F9.9°C 99% 4.6 mph SW7.4 kmh SW 5.8 mph9.3 kmh 29.94 in1013.9 mb - 0.01 in0.3 mm 0.07 in1.8 mm
09:31 AM 50.2°F10.1°C 49.9°F9.9°C 99% 2.3 mph S3.7 kmh S 3.5 mph5.6 kmh 29.94 in1013.9 mb - 0.01 in0.3 mm 0.08 in2.0 mm
09:32 AM 50.2°F10.1°C 49.9°F9.9°C 99% 2.3 mph SSE3.7 kmh SSE 3.5 mph5.6 kmh 29.94 in1013.9 mb - 0.01 in0.3 mm 0.08 in2.0 mm
09:33 AM 50.2°F10.1°C 49.9°F9.9°C 99% 3.5 mph E5.6 kmh E 5.8 mph9.3 kmh 29.94 in1013.9 mb - 0.01 in0.3 mm 0.09 in2.3 mm
09:34 AM 50.2°F10.1°C 49.9°F9.9°C 99% 4.6 mph SE7.4 kmh SE 8.1 mph13.0 kmh 29.94 in1013.9 mb - 0.01 in0.3 mm 0.09 in2.3 mm
09:35 AM 50.2°F10.1°C 49.9°F9.9°C 99% 4.6 mph SE7.4 kmh SE 5.8 mph9.3 kmh 29.94 in1013.9 mb - 0.01 in0.3 mm 0.10 in2.5 mm
09:36 AM 50.2°F10.1°C 49.9°F9.9°C 99% 6.9 mph SE11.1 kmh SE 10.4 mph16.7 kmh 29.94 in1013.9 mb - 0.02 in0.5 mm 0.11 in2.8 mm
09:37 AM 50.2°F10.1°C 49.9°F9.9°C 99% 6.9 mph SE11.1 kmh SE 9.2 mph14.8 kmh 29.94 in1013.9 mb - 0.01 in0.3 mm 0.11 in2.8 mm
09:38 AM 50.2°F10.1°C 49.9°F9.9°C 99% 5.8 mph SE9.3 kmh SE 4.6 mph7.4 kmh 29.94 in1013.9 mb - 0.00 in0.0 mm 0.11 in2.8 mm
09:39 AM 50.2°F10.1°C 49.9°F9.9°C 99% 4.6 mph SE7.4 kmh SE 9.2 mph14.8 kmh 29.93 in1013.5 mb - 0.01 in0.3 mm 0.12 in3.0 mm
09:40 AM 50.2°F10.1°C 50.0°F10.0°C 99% 6.9 mph SE11.1 kmh SE 8.1 mph13.0 kmh 29.93 in1013.5 mb - 0.01 in0.3 mm 0.12 in3.0 mm
09:41 AM 50.4°F10.2°C 50.1°F10.1°C 99% 4.6 mph SE7.4 kmh SE 4.6 mph7.4 kmh 29.93 in1013.5 mb - 0.00 in0.0 mm 0.12 in3.0 mm
09:42 AM 50.4°F10.2°C 50.1°F10.1°C 99% 3.5 mph SSE5.6 kmh SSE 3.5 mph5.6 kmh 29.93 in1013.5 mb - 0.00 in0.0 mm 0.12 in3.0 mm
09:43 AM 50.5°F10.3°C 50.2°F10.1°C 99% 3.5 mph SE5.6 kmh SE 5.8 mph9.3 kmh 29.93 in1013.5 mb - 0.00 in0.0 mm 0.12 in3.0 mm
09:44 AM 50.5°F10.3°C 50.2°F10.1°C 99% 5.8 mph S9.3 kmh S 8.1 mph13.0 kmh 29.93 in1013.5 mb - 0.00 in0.0 mm 0.12 in3.0 mm
09:45 AM 50.5°F10.3°C 50.2°F10.1°C 99% 5.8 mph SE9.3 kmh SE 10.4 mph16.7 kmh 29.93 in1013.5 mb - 0.01 in0.3 mm 0.13 in3.3 mm
09:46 AM 50.7°F10.4°C 50.4°F10.2°C 99% 6.9 mph SE11.1 kmh SE 6.9 mph11.1 kmh 29.93 in1013.5 mb - 0.01 in0.3 mm 0.13 in3.3 mm
09:47 AM 50.8°F10.4°C 50.5°F10.3°C 99% 4.6 mph ESE7.4 kmh ESE 10.4 mph16.7 kmh 29.93 in1013.5 mb - 0.00 in0.0 mm 0.13 in3.3 mm
09:48 AM 50.9°F10.5°C 50.6°F10.3°C 99% 6.9 mph SE11.1 kmh SE 9.2 mph14.8 kmh 29.93 in1013.5 mb - 0.00 in0.0 mm 0.13 in3.3 mm
09:49 AM 50.9°F10.5°C 50.6°F10.3°C 99% 5.8 mph ESE9.3 kmh ESE 8.1 mph13.0 kmh 29.93 in1013.5 mb - 0.00 in0.0 mm 0.13 in3.3 mm
09:50 AM 50.9°F10.5°C 50.6°F10.3°C 99% 4.6 mph SE7.4 kmh SE 8.1 mph13.0 kmh 29.93 in1013.5 mb - 0.00 in0.0 mm 0.13 in3.3 mm
09:51 AM 51.1°F10.6°C 50.8°F10.4°C 99% 4.6 mph ESE7.4 kmh ESE 6.9 mph11.1 kmh 29.93 in1013.5 mb - 0.00 in0.0 mm 0.13 in3.3 mm
09:52 AM 51.1°F10.6°C 50.8°F10.4°C 99% 4.6 mph SE7.4 kmh SE 6.9 mph11.1 kmh 29.93 in1013.5 mb - 0.00 in0.0 mm 0.13 in3.3 mm
09:53 AM 51.1°F10.6°C 50.8°F10.4°C 99% 4.6 mph S7.4 kmh S 5.8 mph9.3 kmh 29.93 in1013.5 mb - 0.00 in0.0 mm 0.13 in3.3 mm
09:54 AM 51.2°F10.7°C 50.9°F10.5°C 99% 5.8 mph SSE9.3 kmh SSE 11.5 mph18.5 kmh 29.93 in1013.5 mb - 0.00 in0.0 mm 0.13 in3.3 mm
09:55 AM 51.3°F10.7°C 51.0°F10.6°C 99% 5.8 mph S9.3 kmh S 11.5 mph18.5 kmh 29.93 in1013.5 mb - 0.00 in0.0 mm 0.13 in3.3 mm
09:56 AM 51.3°F10.7°C 51.0°F10.6°C 99% 5.8 mph S9.3 kmh S 8.1 mph13.0 kmh 29.93 in1013.5 mb - 0.00 in0.0 mm 0.13 in3.3 mm
09:57 AM 51.3°F10.7°C 51.0°F10.6°C 99% 5.8 mph E9.3 kmh E 6.9 mph11.1 kmh 29.93 in1013.5 mb - 0.00 in0.0 mm 0.13 in3.3 mm
09:58 AM 51.3°F10.7°C 51.0°F10.6°C 99% 5.8 mph SE9.3 kmh SE 9.2 mph14.8 kmh 29.93 in1013.5 mb - 0.00 in0.0 mm 0.13 in3.3 mm
09:59 AM 51.3°F10.7°C 51.0°F10.6°C 99% 4.6 mph SE7.4 kmh SE 9.2 mph14.8 kmh 29.93 in1013.5 mb - 0.00 in0.0 mm 0.13 in3.3 mm
10:00 AM 51.3°F10.7°C 51.0°F10.6°C 99% 5.8 mph S9.3 kmh S 11.5 mph18.5 kmh 29.93 in1013.5 mb - 0.01 in0.3 mm 0.14 in3.6 mm
10:01 AM 51.3°F10.7°C 51.0°F10.6°C 99% 6.9 mph SE11.1 kmh SE 11.5 mph18.5 kmh 29.93 in1013.5 mb - 0.01 in0.3 mm 0.14 in3.6 mm
10:02 AM 51.3°F10.7°C 51.0°F10.6°C 99% 5.8 mph S9.3 kmh S 9.2 mph14.8 kmh 29.93 in1013.5 mb - 0.00 in0.0 mm 0.14 in3.6 mm
10:03 AM 51.3°F10.7°C 51.0°F10.6°C 99% 5.8 mph E9.3 kmh E 5.8 mph9.3 kmh 29.93 in1013.5 mb - 0.01 in0.3 mm 0.15 in3.8 mm
10:04 AM 51.3°F10.7°C 51.0°F10.6°C 99% 4.6 mph ESE7.4 kmh ESE 12.7 mph20.4 kmh 29.93 in1013.5 mb - 0.01 in0.3 mm 0.15 in3.8 mm
10:05 AM 51.3°F10.7°C 51.0°F10.6°C 99% 6.9 mph SE11.1 kmh SE 12.7 mph20.4 kmh 29.93 in1013.5 mb - 0.00 in0.0 mm 0.15 in3.8 mm
10:06 AM 51.3°F10.7°C 51.0°F10.6°C 99% 4.6 mph SE7.4 kmh SE 5.8 mph9.3 kmh 29.93 in1013.5 mb - 0.01 in0.3 mm 0.16 in4.1 mm
10:07 AM 51.3°F10.7°C 51.0°F10.6°C 99% 5.8 mph SE9.3 kmh SE 15.0 mph24.1 kmh 29.93 in1013.5 mb - 0.01 in0.3 mm 0.16 in4.1 mm
10:08 AM 51.3°F10.7°C 51.0°F10.6°C 99% 6.9 mph S11.1 kmh S 6.9 mph11.1 kmh 29.93 in1013.5 mb - 0.00 in0.0 mm 0.16 in4.1 mm
10:09 AM 51.3°F10.7°C 51.0°F10.6°C 99% 5.8 mph ENE9.3 kmh ENE 4.6 mph7.4 kmh 29.93 in1013.5 mb - 0.00 in0.0 mm 0.16 in4.1 mm
10:10 AM 51.3°F10.7°C 51.0°F10.6°C 99% 4.6 mph SE7.4 kmh SE 6.9 mph11.1 kmh 29.93 in1013.5 mb - 0.01 in0.3 mm 0.17 in4.3 mm
10:11 AM 51.3°F10.7°C 51.0°F10.6°C 99% 8.1 mph SSE13.0 kmh SSE 10.4 mph16.7 kmh 29.93 in1013.5 mb - 0.01 in0.3 mm 0.17 in4.3 mm
10:12 AM 51.3°F10.7°C 51.0°F10.6°C 99% 5.8 mph SW9.3 kmh SW 5.8 mph9.3 kmh 29.93 in1013.5 mb - 0.00 in0.0 mm 0.17 in4.3 mm
10:13 AM 51.3°F10.7°C 51.0°F10.6°C 99% 4.6 mph S7.4 kmh S 8.1 mph13.0 kmh 29.93 in1013.5 mb - 0.01 in0.3 mm 0.18 in4.6 mm
10:14 AM 51.3°F10.7°C 51.0°F10.6°C 99% 4.6 mph ESE7.4 kmh ESE 3.5 mph5.6 kmh 29.93 in1013.5 mb - 0.01 in0.3 mm 0.18 in4.6 mm
10:15 AM 51.3°F10.7°C 51.0°F10.6°C 99% 3.5 mph S5.6 kmh S 6.9 mph11.1 kmh 29.93 in1013.5 mb - 0.01 in0.3 mm 0.19 in4.8 mm
10:16 AM 51.1°F10.6°C 50.8°F10.4°C 99% 5.8 mph SE9.3 kmh SE 6.9 mph11.1 kmh 29.93 in1013.5 mb - 0.02 in0.5 mm 0.20 in5.1 mm
10:17 AM 51.1°F10.6°C 50.8°F10.4°C 99% 2.3 mph S3.7 kmh S 6.9 mph11.1 kmh 29.93 in1013.5 mb - 0.01 in0.3 mm 0.20 in5.1 mm
10:18 AM 51.1°F10.6°C 50.8°F10.4°C 99% 5.8 mph SSE9.3 kmh SSE 10.4 mph16.7 kmh 29.93 in1013.5 mb - 0.01 in0.3 mm 0.21 in5.3 mm
10:19 AM 51.1°F10.6°C 50.8°F10.4°C 99% 3.5 mph E5.6 kmh E 4.6 mph7.4 kmh 29.93 in1013.5 mb - 0.01 in0.3 mm 0.21 in5.3 mm
10:20 AM 51.1°F10.6°C 50.8°F10.4°C 99% 4.6 mph SW7.4 kmh SW 10.4 mph16.7 kmh 29.93 in1013.5 mb - 0.01 in0.3 mm 0.22 in5.6 mm
10:21 AM 51.1°F10.6°C 50.8°F10.4°C 99% 6.9 mph S11.1 kmh S 10.4 mph16.7 kmh 29.93 in1013.5 mb - 0.01 in0.3 mm 0.22 in5.6 mm
10:22 AM 51.1°F10.6°C 50.8°F10.4°C 99% 6.9 mph SSE11.1 kmh SSE 10.4 mph16.7 kmh 29.93 in1013.5 mb - 0.01 in0.3 mm 0.23 in5.8 mm
10:23 AM 51.1°F10.6°C 50.8°F10.4°C 99% 5.8 mph SSE9.3 kmh SSE 6.9 mph11.1 kmh 29.93 in1013.5 mb - 0.01 in0.3 mm 0.23 in5.8 mm
10:24 AM 51.1°F10.6°C 50.8°F10.4°C 99% 4.6 mph S7.4 kmh S 8.1 mph13.0 kmh 29.93 in1013.5 mb - 0.00 in0.0 mm 0.23 in5.8 mm
10:25 AM 51.1°F10.6°C 50.8°F10.4°C 99% 6.9 mph SW11.1 kmh SW 6.9 mph11.1 kmh 29.93 in1013.5 mb - 0.00 in0.0 mm 0.23 in5.8 mm
10:26 AM 51.1°F10.6°C 50.8°F10.4°C 99% 4.6 mph S7.4 kmh S 5.8 mph9.3 kmh 29.93 in1013.5 mb - 0.00 in0.0 mm 0.23 in5.8 mm
10:27 AM 51.1°F10.6°C 50.8°F10.4°C 99% 4.6 mph S7.4 kmh S 10.4 mph16.7 kmh 29.93 in1013.5 mb - 0.00 in0.0 mm 0.23 in5.8 mm
10:28 AM 51.1°F10.6°C 50.8°F10.4°C 99% 3.5 mph S5.6 kmh S 5.8 mph9.3 kmh 29.93 in1013.5 mb - 0.00 in0.0 mm 0.23 in5.8 mm
10:29 AM 51.1°F10.6°C 50.8°F10.4°C 99% 5.8 mph ESE9.3 kmh ESE 9.2 mph14.8 kmh 29.93 in1013.5 mb - 0.00 in0.0 mm 0.23 in5.8 mm
10:30 AM 51.1°F10.6°C 50.8°F10.4°C 99% 5.8 mph SSE9.3 kmh SSE 10.4 mph16.7 kmh 29.93 in1013.5 mb - 0.00 in0.0 mm 0.23 in5.8 mm
10:31 AM 50.9°F10.5°C 50.7°F10.4°C 99% 6.9 mph SSE11.1 kmh SSE 10.4 mph16.7 kmh 29.93 in1013.5 mb - 0.00 in0.0 mm 0.23 in5.8 mm
10:32 AM 50.9°F10.5°C 50.6°F10.3°C 99% 8.1 mph NE13.0 kmh NE 12.7 mph20.4 kmh 29.93 in1013.5 mb - 0.00 in0.0 mm 0.23 in5.8 mm
10:33 AM 50.9°F10.5°C 50.6°F10.3°C 99% 8.1 mph S13.0 kmh S 12.7 mph20.4 kmh 29.93 in1013.5 mb - 0.00 in0.0 mm 0.23 in5.8 mm
10:34 AM 50.9°F10.5°C 50.6°F10.3°C 99% 4.6 mph SSE7.4 kmh SSE 4.6 mph7.4 kmh 29.93 in1013.5 mb - 0.00 in0.0 mm 0.23 in5.8 mm
10:35 AM 50.9°F10.5°C 50.6°F10.3°C 99% 6.9 mph E11.1 kmh E 11.5 mph18.5 kmh 29.93 in1013.5 mb - 0.00 in0.0 mm 0.23 in5.8 mm
10:36 AM 50.9°F10.5°C 50.6°F10.3°C 99% 6.9 mph SE11.1 kmh SE 5.8 mph9.3 kmh 29.93 in1013.5 mb - 0.00 in0.0 mm 0.23 in5.8 mm
10:37 AM 50.9°F10.5°C 50.6°F10.3°C 99% 4.6 mph S7.4 kmh S 5.8 mph9.3 kmh 29.93 in1013.5 mb - 0.00 in0.0 mm 0.23 in5.8 mm
10:38 AM 50.9°F10.5°C 50.6°F10.3°C 99% 4.6 mph S7.4 kmh S 5.8 mph9.3 kmh 29.93 in1013.5 mb - 0.00 in0.0 mm 0.23 in5.8 mm
10:39 AM 50.9°F10.5°C 50.6°F10.3°C 99% 2.3 mph SSE3.7 kmh SSE 11.5 mph18.5 kmh 29.93 in1013.5 mb - 0.00 in0.0 mm 0.23 in5.8 mm
10:40 AM 50.9°F10.5°C 50.6°F10.3°C 99% 5.8 mph SSE9.3 kmh SSE 11.5 mph18.5 kmh 29.93 in1013.5 mb - 0.01 in0.3 mm 0.24 in6.1 mm
10:41 AM 50.9°F10.5°C 50.6°F10.3°C 99% 5.8 mph S9.3 kmh S 6.9 mph11.1 kmh 29.93 in1013.5 mb - 0.01 in0.3 mm 0.24 in6.1 mm
10:42 AM 50.9°F10.5°C 50.6°F10.3°C 99% 5.8 mph SE9.3 kmh SE 6.9 mph11.1 kmh 29.93 in1013.5 mb - 0.00 in0.0 mm 0.24 in6.1 mm
10:43 AM 50.9°F10.5°C 50.6°F10.3°C 99% 3.5 mph SE5.6 kmh SE 9.2 mph14.8 kmh 29.93 in1013.5 mb - 0.00 in0.0 mm 0.24 in6.1 mm
10:44 AM 50.9°F10.5°C 50.6°F10.3°C 99% 5.8 mph SSE9.3 kmh SSE 9.2 mph14.8 kmh 29.93 in1013.5 mb - 0.00 in0.0 mm 0.24 in6.1 mm
10:45 AM 50.9°F10.5°C 50.6°F10.3°C 99% 5.8 mph W9.3 kmh W 6.9 mph11.1 kmh 29.93 in1013.5 mb - 0.00 in0.0 mm 0.24 in6.1 mm
10:46 AM 50.9°F10.5°C 50.6°F10.3°C 99% 6.9 mph SSE11.1 kmh SSE 10.4 mph16.7 kmh 29.93 in1013.5 mb - 0.00 in0.0 mm 0.24 in6.1 mm
10:47 AM 50.9°F10.5°C 50.6°F10.3°C 99% 5.8 mph SE9.3 kmh SE 8.1 mph13.0 kmh 29.93 in1013.5 mb - 0.00 in0.0 mm 0.24 in6.1 mm
10:48 AM 50.8°F10.4°C 50.5°F10.3°C 99% 6.9 mph SSE11.1 kmh SSE 8.1 mph13.0 kmh 29.93 in1013.5 mb - 0.00 in0.0 mm 0.24 in6.1 mm
10:49 AM 50.7°F10.4°C 50.4°F10.2°C 99% 5.8 mph E9.3 kmh E 8.1 mph13.0 kmh 29.93 in1013.5 mb - 0.00 in0.0 mm 0.24 in6.1 mm
10:50 AM 50.7°F10.4°C 50.4°F10.2°C 99% 4.6 mph ENE7.4 kmh ENE 5.8 mph9.3 kmh 29.92 in1013.2 mb - 0.00 in0.0 mm 0.24 in6.1 mm
10:51 AM 50.7°F10.4°C 50.4°F10.2°C 99% 4.6 mph S7.4 kmh S 5.8 mph9.3 kmh 29.92 in1013.2 mb - 0.00 in0.0 mm 0.24 in6.1 mm
10:52 AM 50.7°F10.4°C 50.4°F10.2°C 99% 4.6 mph WSW7.4 kmh WSW 12.7 mph20.4 kmh 29.92 in1013.2 mb - 0.00 in0.0 mm 0.24 in6.1 mm
10:53 AM 50.7°F10.4°C 50.4°F10.2°C 99% 8.1 mph S13.0 kmh S 12.7 mph20.4 kmh 29.92 in1013.2 mb - 0.00 in0.0 mm 0.24 in6.1 mm
10:54 AM 50.7°F10.4°C 50.4°F10.2°C 99% 6.9 mph SE11.1 kmh SE 8.1 mph13.0 kmh 29.92 in1013.2 mb - 0.00 in0.0 mm 0.24 in6.1 mm
10:55 AM 50.7°F10.4°C 50.4°F10.2°C 99% 5.8 mph S9.3 kmh S 8.1 mph13.0 kmh 29.92 in1013.2 mb - 0.00 in0.0 mm 0.24 in6.1 mm
10:56 AM 50.7°F10.4°C 50.4°F10.2°C 99% 5.8 mph S9.3 kmh S 11.5 mph18.5 kmh 29.92 in1013.2 mb - 0.00 in0.0 mm 0.24 in6.1 mm
10:57 AM 50.7°F10.4°C 50.4°F10.2°C 99% 8.1 mph SSE13.0 kmh SSE 16.1 mph25.9 kmh 29.92 in1013.2 mb - 0.01 in0.3 mm 0.25 in6.4 mm
10:58 AM 50.5°F10.3°C 50.2°F10.1°C 99% 9.2 mph SE14.8 kmh SE 16.1 mph25.9 kmh 29.92 in1013.2 mb - 0.01 in0.3 mm 0.25 in6.4 mm
10:59 AM 50.4°F10.2°C 50.1°F10.1°C 99% 9.2 mph S14.8 kmh S 10.4 mph16.7 kmh 29.92 in1013.2 mb - 0.00 in0.0 mm 0.25 in6.4 mm
11:00 AM 50.4°F10.2°C 50.1°F10.1°C 99% 6.9 mph S11.1 kmh S 5.8 mph9.3 kmh 29.92 in1013.2 mb - 0.00 in0.0 mm 0.25 in6.4 mm
11:01 AM 50.4°F10.2°C 50.1°F10.1°C 99% 5.8 mph SSE9.3 kmh SSE 6.9 mph11.1 kmh 29.92 in1013.2 mb - 0.00 in0.0 mm 0.25 in6.4 mm
11:02 AM 50.4°F10.2°C 50.1°F10.1°C 99% 5.8 mph SSE9.3 kmh SSE 12.7 mph20.4 kmh 29.92 in1013.2 mb - 0.01 in0.3 mm 0.26 in6.6 mm
11:03 AM 50.4°F10.2°C 50.1°F10.1°C 99% 9.2 mph S14.8 kmh S 13.8 mph22.2 kmh 29.92 in1013.2 mb - 0.02 in0.5 mm 0.27 in6.9 mm
11:04 AM 50.4°F10.2°C 50.1°F10.1°C 99% 6.9 mph S11.1 kmh S 13.8 mph22.2 kmh 29.92 in1013.2 mb - 0.01 in0.3 mm 0.27 in6.9 mm
11:05 AM 50.4°F10.2°C 50.1°F10.1°C 99% 5.8 mph SE9.3 kmh SE 9.2 mph14.8 kmh 29.92 in1013.2 mb - 0.00 in0.0 mm 0.27 in6.9 mm
11:06 AM 50.2°F10.1°C 49.9°F9.9°C 99% 6.9 mph ESE11.1 kmh ESE 10.4 mph16.7 kmh 29.92 in1013.2 mb - 0.01 in0.3 mm 0.28 in7.1 mm
11:07 AM 50.2°F10.1°C 49.9°F9.9°C 99% 6.9 mph ESE11.1 kmh ESE 10.4 mph16.7 kmh 29.92 in1013.2 mb - 0.01 in0.3 mm 0.28 in7.1 mm
11:08 AM 50.1°F10.1°C 49.8°F9.9°C 99% 8.1 mph SE13.0 kmh SE 9.2 mph14.8 kmh 29.92 in1013.2 mb - 0.01 in0.3 mm 0.29 in7.4 mm
11:09 AM 50.0°F10.0°C 49.7°F9.8°C 99% 4.6 mph SE7.4 kmh SE 6.9 mph11.1 kmh 29.92 in1013.2 mb - 0.01 in0.3 mm 0.29 in7.4 mm
11:10 AM 50.0°F10.0°C 49.7°F9.8°C 99% 4.6 mph S7.4 kmh S 6.9 mph11.1 kmh 29.92 in1013.2 mb - 0.01 in0.3 mm 0.30 in7.6 mm
11:11 AM 50.0°F10.0°C 49.7°F9.8°C 99% 3.5 mph ESE5.6 kmh ESE 5.8 mph9.3 kmh 29.92 in1013.2 mb - 0.02 in0.5 mm 0.31 in7.9 mm
11:12 AM 50.0°F10.0°C 49.7°F9.8°C 99% 4.6 mph SE7.4 kmh SE 5.8 mph9.3 kmh 29.92 in1013.2 mb - 0.01 in0.3 mm 0.31 in7.9 mm
11:13 AM 50.0°F10.0°C 49.7°F9.8°C 99% 4.6 mph SE7.4 kmh SE 11.5 mph18.5 kmh 29.92 in1013.2 mb - 0.00 in0.0 mm 0.31 in7.9 mm
11:14 AM 50.0°F10.0°C 49.7°F9.8°C 99% 6.9 mph SE11.1 kmh SE 6.9 mph11.1 kmh 29.92 in1013.2 mb - 0.01 in0.3 mm 0.32 in8.1 mm
11:15 AM 50.0°F10.0°C 49.7°F9.8°C 99% 4.6 mph SE7.4 kmh SE 5.8 mph9.3 kmh 29.93 in1013.5 mb - 0.01 in0.3 mm 0.32 in8.1 mm
11:16 AM 50.0°F10.0°C 49.7°F9.8°C 99% 5.8 mph SE9.3 kmh SE 10.4 mph16.7 kmh 29.93 in1013.5 mb - 0.01 in0.3 mm 0.33 in8.4 mm
11:17 AM 50.0°F10.0°C 49.7°F9.8°C 99% 5.8 mph SSE9.3 kmh SSE 8.1 mph13.0 kmh 29.93 in1013.5 mb - 0.01 in0.3 mm 0.33 in8.4 mm
11:18 AM 50.0°F10.0°C 49.7°F9.8°C 99% 4.6 mph ESE7.4 kmh ESE 8.1 mph13.0 kmh 29.93 in1013.5 mb - 0.01 in0.3 mm 0.34 in8.6 mm
11:19 AM 50.0°F10.0°C 49.7°F9.8°C 99% 4.6 mph SSE7.4 kmh SSE 5.8 mph9.3 kmh 29.93 in1013.5 mb - 0.01 in0.3 mm 0.34 in8.6 mm
11:20 AM 49.9°F9.9°C 49.6°F9.8°C 99% 5.8 mph SE9.3 kmh SE 8.1 mph13.0 kmh 29.93 in1013.5 mb - 0.01 in0.3 mm 0.35 in8.9 mm
11:21 AM 49.8°F9.9°C 49.5°F9.7°C 99% 6.9 mph SE11.1 kmh SE 8.1 mph13.0 kmh 29.93 in1013.5 mb - 0.01 in0.3 mm 0.35 in8.9 mm
11:22 AM 49.8°F9.9°C 49.5°F9.7°C 99% 5.8 mph SW9.3 kmh SW 8.1 mph13.0 kmh 29.93 in1013.5 mb - 0.00 in0.0 mm 0.35 in8.9 mm
11:23 AM 49.8°F9.9°C 49.5°F9.7°C 99% 5.8 mph SE9.3 kmh SE 8.1 mph13.0 kmh 29.93 in1013.5 mb - 0.00 in0.0 mm 0.35 in8.9 mm
11:24 AM 49.8°F9.9°C 49.5°F9.7°C 99% 5.8 mph S9.3 kmh S 9.2 mph14.8 kmh 29.93 in1013.5 mb - 0.01 in0.3 mm 0.36 in9.1 mm
11:25 AM 49.6°F9.8°C 49.3°F9.6°C 99% 8.1 mph S13.0 kmh S 16.1 mph25.9 kmh 29.93 in1013.5 mb - 0.02 in0.5 mm 0.37 in9.4 mm
11:26 AM 49.6°F9.8°C 49.3°F9.6°C 99% 8.1 mph SE13.0 kmh SE 9.2 mph14.8 kmh 29.92 in1013.2 mb - 0.01 in0.3 mm 0.37 in9.4 mm
11:27 AM 49.6°F9.8°C 49.3°F9.6°C 99% 5.8 mph SSE9.3 kmh SSE 11.5 mph18.5 kmh 29.91 in1012.9 mb - 0.00 in0.0 mm 0.37 in9.4 mm
11:28 AM 49.6°F9.8°C 49.3°F9.6°C 99% 5.8 mph SE9.3 kmh SE 6.9 mph11.1 kmh 29.91 in1012.9 mb - 0.01 in0.3 mm 0.38 in9.7 mm
11:29 AM 49.6°F9.8°C 49.3°F9.6°C 99% 4.6 mph SSE7.4 kmh SSE 5.8 mph9.3 kmh 29.91 in1012.9 mb - 0.02 in0.5 mm 0.39 in9.9 mm
11:30 AM 49.6°F9.8°C 49.3°F9.6°C 99% 4.6 mph SSE7.4 kmh SSE 6.9 mph11.1 kmh 29.91 in1012.9 mb - 0.01 in0.3 mm 0.39 in9.9 mm
11:31 AM 49.6°F9.8°C 49.3°F9.6°C 99% 5.8 mph SSE9.3 kmh SSE 10.4 mph16.7 kmh 29.91 in1012.9 mb - 0.01 in0.3 mm 0.40 in10.2 mm
11:32 AM 49.5°F9.7°C 49.2°F9.6°C 99% 6.9 mph S11.1 kmh S 10.4 mph16.7 kmh 29.91 in1012.9 mb - 0.01 in0.3 mm 0.40 in10.2 mm
11:33 AM 49.5°F9.7°C 49.2°F9.6°C 99% 3.5 mph S5.6 kmh S 8.1 mph13.0 kmh 29.91 in1012.9 mb - 0.01 in0.3 mm 0.41 in10.4 mm
11:34 AM 49.5°F9.7°C 49.2°F9.6°C 99% 5.8 mph SW9.3 kmh SW 8.1 mph13.0 kmh 29.91 in1012.9 mb - 0.02 in0.5 mm 0.42 in10.7 mm
11:35 AM 49.5°F9.7°C 49.2°F9.6°C 99% 4.6 mph E7.4 kmh E 5.8 mph9.3 kmh 29.91 in1012.9 mb - 0.01 in0.3 mm 0.42 in10.7 mm
11:36 AM 49.5°F9.7°C 49.2°F9.6°C 99% 4.6 mph SE7.4 kmh SE 10.4 mph16.7 kmh 29.91 in1012.9 mb - 0.00 in0.0 mm 0.42 in10.7 mm
11:37 AM 49.5°F9.7°C 49.2°F9.6°C 99% 6.9 mph SSE11.1 kmh SSE 10.4 mph16.7 kmh 29.91 in1012.9 mb - 0.00 in0.0 mm 0.42 in10.7 mm
11:38 AM 49.5°F9.7°C 49.2°F9.6°C 99% 4.6 mph E7.4 kmh E 8.1 mph13.0 kmh 29.91 in1012.9 mb - 0.01 in0.3 mm 0.43 in10.9 mm
11:39 AM 49.5°F9.7°C 49.2°F9.6°C 99% 6.9 mph SE11.1 kmh SE 6.9 mph11.1 kmh 29.90 in1012.5 mb - 0.01 in0.3 mm 0.43 in10.9 mm
11:40 AM 49.5°F9.7°C 49.2°F9.6°C 99% 4.6 mph S7.4 kmh S 8.1 mph13.0 kmh 29.90 in1012.5 mb - 0.00 in0.0 mm 0.43 in10.9 mm
11:41 AM 49.5°F9.7°C 49.2°F9.6°C 99% 5.8 mph SSE9.3 kmh SSE 8.1 mph13.0 kmh 29.90 in1012.5 mb - 0.00 in0.0 mm 0.43 in10.9 mm
11:42 AM 49.5°F9.7°C 49.2°F9.6°C 99% 5.8 mph S9.3 kmh S 8.1 mph13.0 kmh 29.90 in1012.5 mb - 0.00 in0.0 mm 0.43 in10.9 mm
11:43 AM 49.5°F9.7°C 49.2°F9.6°C 99% 4.6 mph S7.4 kmh S 6.9 mph11.1 kmh 29.90 in1012.5 mb - 0.00 in0.0 mm 0.43 in10.9 mm
11:44 AM 49.5°F9.7°C 49.2°F9.6°C 99% 4.6 mph E7.4 kmh E 6.9 mph11.1 kmh 29.90 in1012.5 mb - 0.00 in0.0 mm 0.43 in10.9 mm
11:45 AM 49.5°F9.7°C 49.2°F9.6°C 99% 5.8 mph SE9.3 kmh SE 10.4 mph16.7 kmh 29.90 in1012.5 mb - 0.00 in0.0 mm 0.43 in10.9 mm
11:46 AM 49.5°F9.7°C 49.2°F9.6°C 99% 5.8 mph SSE9.3 kmh SSE 6.9 mph11.1 kmh 29.90 in1012.5 mb - 0.01 in0.3 mm 0.44 in11.2 mm
11:47 AM 49.5°F9.7°C 49.2°F9.6°C 99% 4.6 mph SSE7.4 kmh SSE 6.9 mph11.1 kmh 29.90 in1012.5 mb - 0.01 in0.3 mm 0.44 in11.2 mm
11:48 AM 49.5°F9.7°C 49.2°F9.6°C 99% 5.8 mph N9.3 kmh N 12.7 mph20.4 kmh 29.90 in1012.5 mb - 0.01 in0.3 mm 0.45 in11.4 mm
11:49 AM 49.5°F9.7°C 49.2°F9.6°C 99% 9.2 mph SSE14.8 kmh SSE 9.2 mph14.8 kmh 29.90 in1012.5 mb - 0.01 in0.3 mm 0.45 in11.4 mm
11:50 AM 49.5°F9.7°C 49.2°F9.6°C 99% 5.8 mph SE9.3 kmh SE 15.0 mph24.1 kmh 29.90 in1012.5 mb - 0.00 in0.0 mm 0.45 in11.4 mm
11:51 AM 49.5°F9.7°C 49.2°F9.6°C 99% 9.2 mph SSE14.8 kmh SSE 15.0 mph24.1 kmh 29.89 in1012.2 mb - 0.00 in0.0 mm 0.45 in11.4 mm
11:52 AM 49.5°F9.7°C 49.2°F9.6°C 99% 6.9 mph NW11.1 kmh NW 6.9 mph11.1 kmh 29.89 in1012.2 mb - 0.00 in0.0 mm 0.45 in11.4 mm
11:53 AM 49.6°F9.8°C 49.3°F9.6°C 99% 3.5 mph SE5.6 kmh SE 5.8 mph9.3 kmh 29.89 in1012.2 mb - 0.00 in0.0 mm 0.45 in11.4 mm
11:54 AM 49.6°F9.8°C 49.3°F9.6°C 99% 5.8 mph S9.3 kmh S 12.7 mph20.4 kmh 29.89 in1012.2 mb - 0.01 in0.3 mm 0.46 in11.7 mm
11:55 AM 49.6°F9.8°C 49.3°F9.6°C 99% 9.2 mph SE14.8 kmh SE 12.7 mph20.4 kmh 29.89 in1012.2 mb - 0.01 in0.3 mm 0.46 in11.7 mm
11:56 AM 49.6°F9.8°C 49.3°F9.6°C 99% 6.9 mph SSE11.1 kmh SSE 8.1 mph13.0 kmh 29.89 in1012.2 mb - 0.00 in0.0 mm 0.46 in11.7 mm
11:57 AM 49.6°F9.8°C 49.3°F9.6°C 99% 5.8 mph SE9.3 kmh SE 5.8 mph9.3 kmh 29.89 in1012.2 mb - 0.00 in0.0 mm 0.46 in11.7 mm
11:58 AM 49.6°F9.8°C 49.3°F9.6°C 99% 4.6 mph S7.4 kmh S 6.9 mph11.1 kmh 29.89 in1012.2 mb - 0.01 in0.3 mm 0.47 in11.9 mm
11:59 AM 49.6°F9.8°C 49.3°F9.6°C 99% 4.6 mph S7.4 kmh S 10.4 mph16.7 kmh 29.89 in1012.2 mb - 0.01 in0.3 mm 0.47 in11.9 mm
12:00 PM 49.6°F9.8°C 49.3°F9.6°C 99% 6.9 mph S11.1 kmh S 10.4 mph16.7 kmh 29.89 in1012.2 mb - 0.00 in0.0 mm 0.47 in11.9 mm
12:01 PM 49.6°F9.8°C 49.3°F9.6°C 99% 8.1 mph SSW13.0 kmh SSW 12.7 mph20.4 kmh 29.89 in1012.2 mb - 0.00 in0.0 mm 0.47 in11.9 mm
12:02 PM 49.6°F9.8°C 49.3°F9.6°C 99% 6.9 mph S11.1 kmh S 9.2 mph14.8 kmh 29.89 in1012.2 mb - 0.00 in0.0 mm 0.47 in11.9 mm
12:03 PM 49.6°F9.8°C 49.3°F9.6°C 99% 5.8 mph S9.3 kmh S 8.1 mph13.0 kmh 29.89 in1012.2 mb - 0.00 in0.0 mm 0.47 in11.9 mm
12:04 PM 49.6°F9.8°C 49.3°F9.6°C 99% 4.6 mph SSE7.4 kmh SSE 4.6 mph7.4 kmh 29.89 in1012.2 mb - 0.01 in0.3 mm 0.48 in12.2 mm
12:05 PM 49.6°F9.8°C 49.3°F9.6°C 99% 3.5 mph S5.6 kmh S 9.2 mph14.8 kmh 29.89 in1012.2 mb - 0.01 in0.3 mm 0.48 in12.2 mm
12:06 PM 49.6°F9.8°C 49.3°F9.6°C 99% 4.6 mph SE7.4 kmh SE 4.6 mph7.4 kmh 29.89 in1012.2 mb - 0.00 in0.0 mm 0.48 in12.2 mm
12:07 PM 49.6°F9.8°C 49.3°F9.6°C 99% 3.5 mph ESE5.6 kmh ESE 10.4 mph16.7 kmh 29.89 in1012.2 mb - 0.01 in0.3 mm 0.49 in12.4 mm
12:08 PM 49.6°F9.8°C 49.3°F9.6°C 99% 5.8 mph S9.3 kmh S 8.1 mph13.0 kmh 29.89 in1012.2 mb - 0.01 in0.3 mm 0.49 in12.4 mm
12:09 PM 49.6°F9.8°C 49.3°F9.6°C 99% 5.8 mph S9.3 kmh S 5.8 mph9.3 kmh 29.89 in1012.2 mb - 0.00 in0.0 mm 0.49 in12.4 mm
12:10 PM 49.6°F9.8°C 49.3°F9.6°C 99% 4.6 mph S7.4 kmh S 4.6 mph7.4 kmh 29.89 in1012.2 mb - 0.00 in0.0 mm 0.49 in12.4 mm
12:11 PM 49.6°F9.8°C 49.3°F9.6°C 99% 4.6 mph S7.4 kmh S 6.9 mph11.1 kmh 29.89 in1012.2 mb - 0.01 in0.3 mm 0.50 in12.7 mm
12:12 PM 49.6°F9.8°C 49.3°F9.6°C 99% 4.6 mph S7.4 kmh S 8.1 mph13.0 kmh 29.89 in1012.2 mb - 0.02 in0.5 mm 0.51 in13.0 mm
12:13 PM 49.6°F9.8°C 49.3°F9.6°C 99% 4.6 mph SE7.4 kmh SE 8.1 mph13.0 kmh 29.89 in1012.2 mb - 0.01 in0.3 mm 0.51 in13.0 mm
12:14 PM 49.6°F9.8°C 49.3°F9.6°C 99% 4.6 mph S7.4 kmh S 4.6 mph7.4 kmh 29.89 in1012.2 mb - 0.00 in0.0 mm 0.51 in13.0 mm
12:15 PM 49.6°F9.8°C 49.3°F9.6°C 99% 3.5 mph S5.6 kmh S 5.8 mph9.3 kmh 29.89 in1012.2 mb - 0.00 in0.0 mm 0.51 in13.0 mm
12:16 PM 49.6°F9.8°C 49.3°F9.6°C 99% 3.5 mph S5.6 kmh S 5.8 mph9.3 kmh 29.89 in1012.2 mb - 0.00 in0.0 mm 0.51 in13.0 mm
12:17 PM 49.6°F9.8°C 49.3°F9.6°C 99% 4.6 mph S7.4 kmh S 6.9 mph11.1 kmh 29.89 in1012.2 mb - 0.01 in0.3 mm 0.52 in13.2 mm
12:18 PM 49.6°F9.8°C 49.3°F9.6°C 99% 6.9 mph SSE11.1 kmh SSE 9.2 mph14.8 kmh 29.89 in1012.2 mb - 0.01 in0.3 mm 0.52 in13.2 mm
12:19 PM 49.6°F9.8°C 49.3°F9.6°C 99% 6.9 mph S11.1 kmh S 9.2 mph14.8 kmh 29.89 in1012.2 mb - 0.00 in0.0 mm 0.52 in13.2 mm
12:20 PM 49.6°F9.8°C 49.3°F9.6°C 99% 4.6 mph S7.4 kmh S 5.8 mph9.3 kmh 29.89 in1012.2 mb - 0.00 in0.0 mm 0.52 in13.2 mm
12:21 PM 49.6°F9.8°C 49.3°F9.6°C 99% 4.6 mph S7.4 kmh S 6.9 mph11.1 kmh 29.89 in1012.2 mb - 0.00 in0.0 mm 0.52 in13.2 mm
12:22 PM 49.6°F9.8°C 49.3°F9.6°C 99% 5.8 mph SE9.3 kmh SE 6.9 mph11.1 kmh 29.89 in1012.2 mb - 0.00 in0.0 mm 0.52 in13.2 mm
12:23 PM 49.6°F9.8°C 49.3°F9.6°C 99% 3.5 mph S5.6 kmh S 8.1 mph13.0 kmh 29.89 in1012.2 mb - 0.00 in0.0 mm 0.52 in13.2 mm
12:24 PM 49.7°F9.8°C 49.4°F9.7°C 99% 4.6 mph S7.4 kmh S 3.5 mph5.6 kmh 29.89 in1012.2 mb - 0.00 in0.0 mm 0.52 in13.2 mm
12:25 PM 49.8°F9.9°C 49.5°F9.7°C 99% 4.6 mph SE7.4 kmh SE 9.2 mph14.8 kmh 29.89 in1012.2 mb - 0.01 in0.3 mm 0.53 in13.5 mm
12:26 PM 49.8°F9.9°C 49.5°F9.7°C 99% 5.8 mph SE9.3 kmh SE 5.8 mph9.3 kmh 29.89 in1012.2 mb - 0.01 in0.3 mm 0.53 in13.5 mm
12:27 PM 49.8°F9.9°C 49.5°F9.7°C 99% 5.8 mph SSE9.3 kmh SSE 8.1 mph13.0 kmh 29.89 in1012.2 mb - 0.00 in0.0 mm 0.53 in13.5 mm
12:28 PM 49.8°F9.9°C 49.5°F9.7°C 99% 5.8 mph SE9.3 kmh SE 5.8 mph9.3 kmh 29.89 in1012.2 mb - 0.00 in0.0 mm 0.53 in13.5 mm
12:29 PM 49.8°F9.9°C 49.5°F9.7°C 99% 3.5 mph SSE5.6 kmh SSE 4.6 mph7.4 kmh 29.89 in1012.2 mb - 0.00 in0.0 mm 0.53 in13.5 mm
12:30 PM 49.8°F9.9°C 49.5°F9.7°C 99% 4.6 mph SSE7.4 kmh SSE 6.9 mph11.1 kmh 29.89 in1012.2 mb - 0.00 in0.0 mm 0.53 in13.5 mm
12:31 PM 49.8°F9.9°C 49.5°F9.7°C 99% 5.8 mph SE9.3 kmh SE 8.1 mph13.0 kmh 29.89 in1012.2 mb - 0.00 in0.0 mm 0.53 in13.5 mm
12:32 PM 49.8°F9.9°C 49.5°F9.7°C 99% 4.6 mph SE7.4 kmh SE 4.6 mph7.4 kmh 29.89 in1012.2 mb - 0.01 in0.3 mm 0.54 in13.7 mm
12:33 PM 49.8°F9.9°C 49.5°F9.7°C 99% 4.6 mph S7.4 kmh S 5.8 mph9.3 kmh 29.89 in1012.2 mb - 0.02 in0.5 mm 0.55 in14.0 mm
12:34 PM 49.8°F9.9°C 49.5°F9.7°C 99% 4.6 mph SE7.4 kmh SE 5.8 mph9.3 kmh 29.89 in1012.2 mb - 0.01 in0.3 mm 0.55 in14.0 mm
12:35 PM 49.9°F9.9°C 49.6°F9.8°C 99% 4.6 mph SSE7.4 kmh SSE 5.8 mph9.3 kmh 29.89 in1012.2 mb - 0.00 in0.0 mm 0.55 in14.0 mm
12:36 PM 50.0°F10.0°C 49.7°F9.8°C 99% 3.5 mph ESE5.6 kmh ESE 3.5 mph5.6 kmh 29.89 in1012.2 mb - 0.01 in0.3 mm 0.56 in14.2 mm
12:37 PM 50.0°F10.0°C 49.7°F9.8°C 99% 3.5 mph S5.6 kmh S 6.9 mph11.1 kmh 29.88 in1011.9 mb - 0.01 in0.3 mm 0.56 in14.2 mm
12:38 PM 50.1°F10.1°C 49.8°F9.9°C 99% 4.6 mph SE7.4 kmh SE 5.8 mph9.3 kmh 29.87 in1011.5 mb - 0.01 in0.3 mm 0.57 in14.5 mm
12:39 PM 50.2°F10.1°C 49.9°F9.9°C 99% 4.6 mph SE7.4 kmh SE 6.9 mph11.1 kmh 29.87 in1011.5 mb - 0.01 in0.3 mm 0.57 in14.5 mm
12:40 PM 50.2°F10.1°C 49.9°F9.9°C 99% 4.6 mph S7.4 kmh S 4.6 mph7.4 kmh 29.87 in1011.5 mb - 0.01 in0.3 mm 0.58 in14.7 mm
12:41 PM 50.3°F10.2°C 50.0°F10.0°C 99% 3.5 mph S5.6 kmh S 10.4 mph16.7 kmh 29.87 in1011.5 mb - 0.01 in0.3 mm 0.58 in14.7 mm
12:42 PM 50.4°F10.2°C 50.1°F10.1°C 99% 6.9 mph SW11.1 kmh SW 10.4 mph16.7 kmh 29.87 in1011.5 mb - 0.01 in0.3 mm 0.59 in15.0 mm
12:43 PM 50.4°F10.2°C 50.1°F10.1°C 99% 5.8 mph SE9.3 kmh SE 12.7 mph20.4 kmh 29.87 in1011.5 mb - 0.01 in0.3 mm 0.59 in15.0 mm
12:44 PM 50.4°F10.2°C 50.1°F10.1°C 99% 6.9 mph S11.1 kmh S 12.7 mph20.4 kmh 29.87 in1011.5 mb - 0.00 in0.0 mm 0.59 in15.0 mm
12:45 PM 50.4°F10.2°C 50.1°F10.1°C 99% 4.6 mph SE7.4 kmh SE 5.8 mph9.3 kmh 29.87 in1011.5 mb - 0.00 in0.0 mm 0.59 in15.0 mm
12:46 PM 50.4°F10.2°C 50.2°F10.1°C 99% 4.6 mph S7.4 kmh S 5.8 mph9.3 kmh 29.87 in1011.5 mb - 0.01 in0.3 mm 0.60 in15.2 mm
12:47 PM 50.5°F10.3°C 50.2°F10.1°C 99% 3.5 mph ESE5.6 kmh ESE 6.9 mph11.1 kmh 29.87 in1011.5 mb - 0.01 in0.3 mm 0.60 in15.2 mm
12:48 PM 50.5°F10.3°C 50.2°F10.1°C 99% 6.9 mph ENE11.1 kmh ENE 9.2 mph14.8 kmh 29.87 in1011.5 mb - 0.00 in0.0 mm 0.60 in15.2 mm
12:49 PM 50.5°F10.3°C 50.2°F10.1°C 99% 5.8 mph SSE9.3 kmh SSE 8.1 mph13.0 kmh 29.87 in1011.5 mb - 0.01 in0.3 mm 0.61 in15.5 mm
12:50 PM 50.5°F10.3°C 50.2°F10.1°C 99% 5.8 mph SSE9.3 kmh SSE 10.4 mph16.7 kmh 29.85 in1010.8 mb - 0.01 in0.3 mm 0.61 in15.5 mm
12:51 PM 50.5°F10.3°C 50.2°F10.1°C 99% 6.9 mph E11.1 kmh E 9.2 mph14.8 kmh 29.84 in1010.5 mb - 0.00 in0.0 mm 0.61 in15.5 mm
12:52 PM 50.5°F10.3°C 50.2°F10.1°C 99% 5.8 mph E9.3 kmh E 9.2 mph14.8 kmh 29.84 in1010.5 mb - 0.00 in0.0 mm 0.61 in15.5 mm
12:53 PM 50.5°F10.3°C 50.2°F10.1°C 99% 5.8 mph SSE9.3 kmh SSE 12.7 mph20.4 kmh 29.84 in1010.5 mb - 0.00 in0.0 mm 0.61 in15.5 mm
12:54 PM 50.5°F10.3°C 50.2°F10.1°C 99% 8.1 mph SE13.0 kmh SE 12.7 mph20.4 kmh 29.84 in1010.5 mb - 0.00 in0.0 mm 0.61 in15.5 mm
12:55 PM 50.5°F10.3°C 50.3°F10.2°C 99% 5.8 mph SE9.3 kmh SE 5.8 mph9.3 kmh 29.84 in1010.5 mb - 0.00 in0.0 mm 0.61 in15.5 mm
12:56 PM 50.7°F10.4°C 50.4°F10.2°C 99% 6.9 mph SE11.1 kmh SE 10.4 mph16.7 kmh 29.84 in1010.5 mb - 0.00 in0.0 mm 0.61 in15.5 mm
12:57 PM 50.7°F10.4°C 50.4°F10.2°C 99% 6.9 mph SSE11.1 kmh SSE 9.2 mph14.8 kmh 29.84 in1010.5 mb - 0.01 in0.3 mm 0.62 in15.7 mm
12:58 PM 50.7°F10.4°C 50.4°F10.2°C 99% 5.8 mph SSE9.3 kmh SSE 6.9 mph11.1 kmh 29.84 in1010.5 mb - 0.01 in0.3 mm 0.62 in15.7 mm
12:59 PM 50.7°F10.4°C 50.4°F10.2°C 99% 5.8 mph SE9.3 kmh SE 6.9 mph11.1 kmh 29.84 in1010.5 mb - 0.01 in0.3 mm 0.63 in16.0 mm
01:00 PM 50.7°F10.4°C 50.4°F10.2°C 99% 5.8 mph SE9.3 kmh SE 6.9 mph11.1 kmh 29.84 in1010.5 mb - 0.01 in0.3 mm 0.63 in16.0 mm
01:01 PM 50.8°F10.4°C 50.5°F10.3°C 99% 4.6 mph SE7.4 kmh SE 3.5 mph5.6 kmh 29.84 in1010.5 mb - 0.00 in0.0 mm 0.63 in16.0 mm
01:02 PM 50.9°F10.5°C 50.6°F10.3°C 99% 4.6 mph SSE7.4 kmh SSE 9.2 mph14.8 kmh 29.83 in1010.2 mb - 0.01 in0.3 mm 0.64 in16.3 mm
01:03 PM 50.9°F10.5°C 50.6°F10.3°C 99% 6.9 mph SSE11.1 kmh SSE 9.2 mph14.8 kmh 29.82 in1009.8 mb - 0.01 in0.3 mm 0.64 in16.3 mm
01:04 PM 50.9°F10.5°C 50.6°F10.3°C 99% 4.6 mph SSE7.4 kmh SSE 6.9 mph11.1 kmh 29.82 in1009.8 mb - 0.00 in0.0 mm 0.64 in16.3 mm
01:05 PM 50.9°F10.5°C 50.6°F10.3°C 99% 5.8 mph SSE9.3 kmh SSE 6.9 mph11.1 kmh 29.82 in1009.8 mb - 0.01 in0.3 mm 0.65 in16.5 mm
01:06 PM 50.9°F10.5°C 50.6°F10.3°C 99% 6.9 mph SSE11.1 kmh SSE 9.2 mph14.8 kmh 29.82 in1009.8 mb - 0.01 in0.3 mm 0.65 in16.5 mm
01:07 PM 51.0°F10.6°C 50.7°F10.4°C 99% 6.9 mph SE11.1 kmh SE 8.1 mph13.0 kmh 29.82 in1009.8 mb - 0.00 in0.0 mm 0.65 in16.5 mm
01:08 PM 51.1°F10.6°C 50.8°F10.4°C 99% 6.9 mph E11.1 kmh E 9.2 mph14.8 kmh 29.82 in1009.8 mb - 0.01 in0.3 mm 0.66 in16.8 mm
01:09 PM 51.1°F10.6°C 50.8°F10.4°C 99% 5.8 mph ESE9.3 kmh ESE 4.6 mph7.4 kmh 29.82 in1009.8 mb - 0.01 in0.3 mm 0.66 in16.8 mm
01:10 PM 51.1°F10.6°C 50.8°F10.4°C 99% 4.6 mph SSE7.4 kmh SSE 11.5 mph18.5 kmh 29.82 in1009.8 mb - 0.01 in0.3 mm 0.67 in17.0 mm
01:11 PM 51.1°F10.6°C 50.8°F10.4°C 99% 9.2 mph SE14.8 kmh SE 9.2 mph14.8 kmh 29.82 in1009.8 mb - 0.01 in0.3 mm 0.67 in17.0 mm
01:12 PM 51.1°F10.6°C 50.8°F10.4°C 99% 5.8 mph SSE9.3 kmh SSE 5.8 mph9.3 kmh 29.82 in1009.8 mb - 0.00 in0.0 mm 0.67 in17.0 mm
01:13 PM 51.1°F10.6°C 50.8°F10.4°C 99% 4.6 mph S7.4 kmh S 4.6 mph7.4 kmh 29.82 in1009.8 mb - 0.00 in0.0 mm 0.67 in17.0 mm
01:14 PM 51.1°F10.6°C 50.8°F10.4°C 99% 4.6 mph S7.4 kmh S 6.9 mph11.1 kmh 29.81 in1009.5 mb - 0.01 in0.3 mm 0.68 in17.3 mm
01:15 PM 51.1°F10.6°C 50.8°F10.4°C 99% 5.8 mph NNE9.3 kmh NNE 9.2 mph14.8 kmh 29.81 in1009.5 mb - 0.02 in0.5 mm 0.69 in17.5 mm
01:16 PM 51.1°F10.6°C 50.8°F10.4°C 99% 5.8 mph SSE9.3 kmh SSE 6.9 mph11.1 kmh 29.81 in1009.5 mb - 0.01 in0.3 mm 0.69 in17.5 mm
01:17 PM 51.2°F10.7°C 50.9°F10.5°C 99% 5.8 mph SE9.3 kmh SE 6.9 mph11.1 kmh 29.81 in1009.5 mb - 0.01 in0.3 mm 0.70 in17.8 mm
01:18 PM 51.3°F10.7°C 51.0°F10.6°C 99% 5.8 mph SE9.3 kmh SE 9.2 mph14.8 kmh 29.81 in1009.5 mb - 0.01 in0.3 mm 0.70 in17.8 mm
01:19 PM 51.3°F10.7°C 51.0°F10.6°C 99% 4.6 mph SSE7.4 kmh SSE 5.8 mph9.3 kmh 29.81 in1009.5 mb - 0.00 in0.0 mm 0.70 in17.8 mm
01:20 PM 51.3°F10.7°C 51.0°F10.6°C 99% 5.8 mph SSE9.3 kmh SSE 9.2 mph14.8 kmh 29.81 in1009.5 mb - 0.01 in0.3 mm 0.71 in18.0 mm
01:21 PM 51.3°F10.7°C 51.0°F10.6°C 99% 5.8 mph SE9.3 kmh SE 8.1 mph13.0 kmh 29.81 in1009.5 mb - 0.01 in0.3 mm 0.71 in18.0 mm
01:22 PM 51.3°F10.7°C 51.0°F10.6°C 99% 6.9 mph ESE11.1 kmh ESE 10.4 mph16.7 kmh 29.81 in1009.5 mb - 0.00 in0.0 mm 0.71 in18.0 mm
01:23 PM 51.3°F10.7°C 51.0°F10.6°C 99% 8.1 mph ESE13.0 kmh ESE 10.4 mph16.7 kmh 29.81 in1009.5 mb - 0.01 in0.3 mm 0.72 in18.3 mm
01:24 PM 51.4°F10.8°C 51.1°F10.6°C 99% 8.1 mph E13.0 kmh E 6.9 mph11.1 kmh 29.81 in1009.5 mb - 0.01 in0.3 mm 0.72 in18.3 mm
01:25 PM 51.4°F10.8°C 51.1°F10.6°C 99% 6.9 mph ESE11.1 kmh ESE 11.5 mph18.5 kmh 29.81 in1009.5 mb - 0.01 in0.3 mm 0.73 in18.5 mm
01:26 PM 51.4°F10.8°C 51.1°F10.6°C 99% 6.9 mph SE11.1 kmh SE 12.7 mph20.4 kmh 29.80 in1009.1 mb - 0.01 in0.3 mm 0.73 in18.5 mm
01:27 PM 51.4°F10.8°C 51.1°F10.6°C 99% 8.1 mph S13.0 kmh S 8.1 mph13.0 kmh 29.79 in1008.8 mb - 0.00 in0.0 mm 0.73 in18.5 mm
01:28 PM 51.4°F10.8°C 51.1°F10.6°C 99% 6.9 mph ENE11.1 kmh ENE 10.4 mph16.7 kmh 29.79 in1008.8 mb - 0.01 in0.3 mm 0.74 in18.8 mm
01:29 PM 51.4°F10.8°C 51.1°F10.6°C 99% 9.2 mph ESE14.8 kmh ESE 15.0 mph24.1 kmh 29.79 in1008.8 mb - 0.01 in0.3 mm 0.74 in18.8 mm
01:30 PM 51.4°F10.8°C 51.1°F10.6°C 99% 9.2 mph ESE14.8 kmh ESE 15.0 mph24.1 kmh 29.79 in1008.8 mb - 0.01 in0.3 mm 0.75 in19.1 mm
01:31 PM 51.4°F10.8°C 51.1°F10.6°C 99% 8.1 mph SSE13.0 kmh SSE 15.0 mph24.1 kmh 29.79 in1008.8 mb - 0.01 in0.3 mm 0.75 in19.1 mm
01:32 PM 51.4°F10.8°C 51.1°F10.6°C 99% 6.9 mph SE11.1 kmh SE 9.2 mph14.8 kmh 29.79 in1008.8 mb - 0.01 in0.3 mm 0.76 in19.3 mm
01:33 PM 51.4°F10.8°C 51.1°F10.6°C 99% 4.6 mph WNW7.4 kmh WNW 3.5 mph5.6 kmh 29.79 in1008.8 mb - 0.01 in0.3 mm 0.76 in19.3 mm
01:34 PM 51.4°F10.8°C 51.1°F10.6°C 99% 4.6 mph SSE7.4 kmh SSE 5.8 mph9.3 kmh 29.79 in1008.8 mb - 0.01 in0.3 mm 0.77 in19.6 mm
01:35 PM 51.4°F10.8°C 51.1°F10.6°C 99% 3.5 mph SW5.6 kmh SW 6.9 mph11.1 kmh 29.79 in1008.8 mb - 0.01 in0.3 mm 0.77 in19.6 mm
01:36 PM 51.4°F10.8°C 51.1°F10.6°C 99% 5.8 mph SE9.3 kmh SE 10.4 mph16.7 kmh 29.79 in1008.8 mb - 0.01 in0.3 mm 0.78 in19.8 mm
01:37 PM 51.4°F10.8°C 51.1°F10.6°C 99% 6.9 mph NE11.1 kmh NE 11.5 mph18.5 kmh 29.79 in1008.8 mb - 0.01 in0.3 mm 0.78 in19.8 mm
01:38 PM 51.4°F10.8°C 51.1°F10.6°C 99% 5.8 mph SE9.3 kmh SE 5.8 mph9.3 kmh 29.79 in1008.8 mb - 0.00 in0.0 mm 0.78 in19.8 mm
01:39 PM 51.4°F10.8°C 51.1°F10.6°C 99% 5.8 mph SE9.3 kmh SE 9.2 mph14.8 kmh 29.78 in1008.5 mb - 0.01 in0.3 mm 0.79 in20.1 mm
01:40 PM 51.4°F10.8°C 51.1°F10.6°C 99% 6.9 mph SSE11.1 kmh SSE 10.4 mph16.7 kmh 29.78 in1008.5 mb - 0.01 in0.3 mm 0.79 in20.1 mm
01:41 PM 51.4°F10.8°C 51.1°F10.6°C 99% 9.2 mph SE14.8 kmh SE 11.5 mph18.5 kmh 29.78 in1008.5 mb - 0.00 in0.0 mm 0.79 in20.1 mm
01:42 PM 51.4°F10.8°C 51.1°F10.6°C 99% 8.1 mph SE13.0 kmh SE 10.4 mph16.7 kmh 29.78 in1008.5 mb - 0.00 in0.0 mm 0.79 in20.1 mm
01:43 PM 51.4°F10.8°C 51.1°F10.6°C 99% 6.9 mph ESE11.1 kmh ESE 8.1 mph13.0 kmh 29.78 in1008.5 mb - 0.01 in0.3 mm 0.80 in20.3 mm
01:44 PM 51.4°F10.8°C 51.1°F10.6°C 99% 8.1 mph SSE13.0 kmh SSE 10.4 mph16.7 kmh 29.78 in1008.5 mb - 0.01 in0.3 mm 0.80 in20.3 mm
01:45 PM 51.4°F10.8°C 51.1°F10.6°C 99% 9.2 mph S14.8 kmh S 12.7 mph20.4 kmh 29.78 in1008.5 mb - 0.01 in0.3 mm 0.81 in20.6 mm
01:46 PM 51.4°F10.8°C 51.1°F10.6°C 99% 6.9 mph ESE11.1 kmh ESE 10.4 mph16.7 kmh 29.78 in1008.5 mb - 0.01 in0.3 mm 0.81 in20.6 mm
01:47 PM 51.4°F10.8°C 51.1°F10.6°C 99% 9.2 mph SSE14.8 kmh SSE 11.5 mph18.5 kmh 29.78 in1008.5 mb - 0.00 in0.0 mm 0.81 in20.6 mm
01:48 PM 51.4°F10.8°C 51.1°F10.6°C 99% 9.2 mph SSE14.8 kmh SSE 9.2 mph14.8 kmh 29.78 in1008.5 mb - 0.00 in0.0 mm 0.81 in20.6 mm
01:49 PM 51.4°F10.8°C 51.1°F10.6°C 99% 8.1 mph S13.0 kmh S 9.2 mph14.8 kmh 29.78 in1008.5 mb - 0.01 in0.3 mm 0.82 in20.8 mm
01:50 PM 51.5°F10.8°C 51.2°F10.7°C 99% 8.1 mph S13.0 kmh S 8.1 mph13.0 kmh 29.78 in1008.5 mb - 0.01 in0.3 mm 0.82 in20.8 mm
01:51 PM 51.6°F10.9°C 51.3°F10.7°C 99% 6.9 mph S11.1 kmh S 8.1 mph13.0 kmh 29.77 in1008.1 mb - 0.00 in0.0 mm 0.82 in20.8 mm
01:52 PM 51.6°F10.9°C 51.3°F10.7°C 99% 8.1 mph SSE13.0 kmh SSE 11.5 mph18.5 kmh 29.77 in1008.1 mb - 0.01 in0.3 mm 0.83 in21.1 mm
01:53 PM 51.6°F10.9°C 51.3°F10.7°C 99% 9.2 mph SE14.8 kmh SE 11.5 mph18.5 kmh 29.77 in1008.1 mb - 0.01 in0.3 mm 0.83 in21.1 mm
01:54 PM 51.6°F10.9°C 51.3°F10.7°C 99% 6.9 mph SE11.1 kmh SE 11.5 mph18.5 kmh 29.77 in1008.1 mb - 0.00 in0.0 mm 0.83 in21.1 mm
01:55 PM 51.6°F10.9°C 51.3°F10.7°C 99% 9.2 mph SE14.8 kmh SE 11.5 mph18.5 kmh 29.77 in1008.1 mb - 0.00 in0.0 mm 0.83 in21.1 mm
01:56 PM 51.6°F10.9°C 51.3°F10.7°C 99% 8.1 mph SE13.0 kmh SE 9.2 mph14.8 kmh 29.77 in1008.1 mb - 0.01 in0.3 mm 0.84 in21.3 mm
01:57 PM 51.6°F10.9°C 51.3°F10.7°C 99% 5.8 mph ESE9.3 kmh ESE 9.2 mph14.8 kmh 29.77 in1008.1 mb - 0.01 in0.3 mm 0.84 in21.3 mm
01:58 PM 51.6°F10.9°C 51.3°F10.7°C 99% 5.8 mph S9.3 kmh S 16.1 mph25.9 kmh 29.77 in1008.1 mb - 0.01 in0.3 mm 0.85 in21.6 mm
01:59 PM 51.6°F10.9°C 51.3°F10.7°C 99% 10.4 mph S16.7 kmh S 16.1 mph25.9 kmh 29.77 in1008.1 mb - 0.01 in0.3 mm 0.85 in21.6 mm
02:00 PM 51.6°F10.9°C 51.3°F10.7°C 99% 6.9 mph E11.1 kmh E 6.9 mph11.1 kmh 29.77 in1008.1 mb - 0.00 in0.0 mm 0.85 in21.6 mm
02:01 PM 51.6°F10.9°C 51.3°F10.7°C 99% 5.8 mph S9.3 kmh S 10.4 mph16.7 kmh 29.77 in1008.1 mb - 0.01 in0.3 mm 0.86 in21.8 mm
02:02 PM 51.6°F10.9°C 51.3°F10.7°C 99% 9.2 mph SE14.8 kmh SE 12.7 mph20.4 kmh 29.77 in1008.1 mb - 0.01 in0.3 mm 0.86 in21.8 mm
02:03 PM 51.6°F10.9°C 51.3°F10.7°C 99% 9.2 mph SE14.8 kmh SE 16.1 mph25.9 kmh 29.76 in1007.8 mb - 0.01 in0.3 mm 0.87 in22.1 mm
02:04 PM 51.6°F10.9°C 51.3°F10.7°C 99% 10.4 mph SE16.7 kmh SE 10.4 mph16.7 kmh 29.76 in1007.8 mb - 0.01 in0.3 mm 0.87 in22.1 mm
02:05 PM 51.8°F11.0°C 51.5°F10.8°C 99% 6.9 mph SE11.1 kmh SE 11.5 mph18.5 kmh 29.76 in1007.8 mb - 0.01 in0.3 mm 0.88 in22.4 mm
02:06 PM 51.8°F11.0°C 51.5°F10.8°C 99% 8.1 mph S13.0 kmh S 13.8 mph22.2 kmh 29.76 in1007.8 mb - 0.01 in0.3 mm 0.88 in22.4 mm
02:07 PM 51.8°F11.0°C 51.5°F10.8°C 99% 8.1 mph SE13.0 kmh SE 10.4 mph16.7 kmh 29.76 in1007.8 mb - 0.00 in0.0 mm 0.88 in22.4 mm
02:08 PM 51.8°F11.0°C 51.5°F10.8°C 99% 8.1 mph ESE13.0 kmh ESE 11.5 mph18.5 kmh 29.76 in1007.8 mb - 0.00 in0.0 mm 0.88 in22.4 mm
02:09 PM 51.8°F11.0°C 51.5°F10.8°C 99% 5.8 mph SW9.3 kmh SW 15.0 mph24.1 kmh 29.76 in1007.8 mb - 0.01 in0.3 mm 0.89 in22.6 mm
02:10 PM 51.8°F11.0°C 51.5°F10.8°C 99% 9.2 mph S14.8 kmh S 15.0 mph24.1 kmh 29.76 in1007.8 mb - 0.01 in0.3 mm 0.89 in22.6 mm
02:11 PM 51.8°F11.0°C 51.5°F10.8°C 99% 4.6 mph WSW7.4 kmh WSW 4.6 mph7.4 kmh 29.76 in1007.8 mb - 0.00 in0.0 mm 0.89 in22.6 mm
02:12 PM 51.8°F11.0°C 51.5°F10.8°C 99% 4.6 mph SSW7.4 kmh SSW 9.2 mph14.8 kmh 29.76 in1007.8 mb - 0.00 in0.0 mm 0.89 in22.6 mm
02:13 PM 51.8°F11.0°C 51.5°F10.8°C 99% 8.1 mph S13.0 kmh S 10.4 mph16.7 kmh 29.76 in1007.8 mb - 0.00 in0.0 mm 0.89 in22.6 mm
02:14 PM 51.8°F11.0°C 51.5°F10.8°C 99% 4.6 mph SE7.4 kmh SE 5.8 mph9.3 kmh 29.75 in1007.5 mb - 0.00 in0.0 mm 0.89 in22.6 mm
02:15 PM 51.8°F11.0°C 51.5°F10.8°C 99% 5.8 mph S9.3 kmh S 10.4 mph16.7 kmh 29.75 in1007.5 mb - 0.00 in0.0 mm 0.89 in22.6 mm
02:16 PM 51.8°F11.0°C 51.5°F10.8°C 99% 6.9 mph SE11.1 kmh SE 10.4 mph16.7 kmh 29.75 in1007.5 mb - 0.00 in0.0 mm 0.89 in22.6 mm
02:17 PM 51.8°F11.0°C 51.5°F10.8°C 99% 6.9 mph NE11.1 kmh NE 10.4 mph16.7 kmh 29.75 in1007.5 mb - 0.01 in0.3 mm 0.90 in22.9 mm
02:18 PM 51.8°F11.0°C 51.5°F10.8°C 99% 5.8 mph ESE9.3 kmh ESE 8.1 mph13.0 kmh 29.75 in1007.5 mb - 0.01 in0.3 mm 0.90 in22.9 mm
02:19 PM 51.8°F11.0°C 51.5°F10.8°C 99% 5.8 mph SE9.3 kmh SE 8.1 mph13.0 kmh 29.75 in1007.5 mb - 0.00 in0.0 mm 0.90 in22.9 mm
02:20 PM 51.8°F11.0°C 51.5°F10.8°C 99% 4.6 mph SSE7.4 kmh SSE 6.9 mph11.1 kmh 29.75 in1007.5 mb - 0.00 in0.0 mm 0.90 in22.9 mm
02:21 PM 51.8°F11.0°C 51.5°F10.8°C 99% 5.8 mph E9.3 kmh E 8.1 mph13.0 kmh 29.75 in1007.5 mb - 0.01 in0.3 mm 0.91 in23.1 mm
02:22 PM 51.8°F11.0°C 51.5°F10.8°C 99% 6.9 mph E11.1 kmh E 8.1 mph13.0 kmh 29.75 in1007.5 mb - 0.01 in0.3 mm 0.91 in23.1 mm
02:23 PM 51.8°F11.0°C 51.5°F10.8°C 99% 5.8 mph SSE9.3 kmh SSE 8.1 mph13.0 kmh 29.75 in1007.5 mb - 0.00 in0.0 mm 0.91 in23.1 mm
02:24 PM 51.8°F11.0°C 51.5°F10.8°C 99% 6.9 mph SSE11.1 kmh SSE 9.2 mph14.8 kmh 29.75 in1007.5 mb - 0.00 in0.0 mm 0.91 in23.1 mm
02:25 PM 51.8°F11.0°C 51.5°F10.8°C 99% 6.9 mph SE11.1 kmh SE 10.4 mph16.7 kmh 29.75 in1007.5 mb - 0.01 in0.3 mm 0.92 in23.4 mm
02:26 PM 51.8°F11.0°C 51.5°F10.8°C 99% 8.1 mph SE13.0 kmh SE 10.4 mph16.7 kmh 29.75 in1007.5 mb - 0.01 in0.3 mm 0.92 in23.4 mm
02:27 PM 51.8°F11.0°C 51.5°F10.8°C 99% 8.1 mph SSE13.0 kmh SSE 10.4 mph16.7 kmh 29.74 in1007.1 mb - 0.00 in0.0 mm 0.92 in23.4 mm
02:28 PM 51.8°F11.0°C 51.5°F10.8°C 99% 8.1 mph E13.0 kmh E 9.2 mph14.8 kmh 29.74 in1007.1 mb - 0.00 in0.0 mm 0.92 in23.4 mm
02:29 PM 51.8°F11.0°C 51.5°F10.8°C 99% 6.9 mph SE11.1 kmh SE 10.4 mph16.7 kmh 29.74 in1007.1 mb - 0.01 in0.3 mm 0.93 in23.6 mm
02:30 PM 51.8°F11.0°C 51.5°F10.8°C 99% 8.1 mph SE13.0 kmh SE 11.5 mph18.5 kmh 29.74 in1007.1 mb - 0.01 in0.3 mm 0.93 in23.6 mm
02:31 PM 51.8°F11.0°C 51.5°F10.8°C 99% 6.9 mph SSE11.1 kmh SSE 9.2 mph14.8 kmh 29.74 in1007.1 mb - 0.00 in0.0 mm 0.93 in23.6 mm
02:32 PM 51.8°F11.0°C 51.5°F10.8°C 99% 5.8 mph S9.3 kmh S 10.4 mph16.7 kmh 29.74 in1007.1 mb - 0.00 in0.0 mm 0.93 in23.6 mm
02:33 PM 51.8°F11.0°C 51.5°F10.8°C 99% 8.1 mph E13.0 kmh E 8.1 mph13.0 kmh 29.74 in1007.1 mb - 0.00 in0.0 mm 0.93 in23.6 mm
02:34 PM 51.8°F11.0°C 51.5°F10.8°C 99% 4.6 mph SE7.4 kmh SE 6.9 mph11.1 kmh 29.74 in1007.1 mb - 0.01 in0.3 mm 0.94 in23.9 mm
02:35 PM 51.8°F11.0°C 51.5°F10.8°C 99% 5.8 mph SSE9.3 kmh SSE 8.1 mph13.0 kmh 29.74 in1007.1 mb - 0.01 in0.3 mm 0.94 in23.9 mm
02:36 PM 51.8°F11.0°C 51.5°F10.8°C 99% 4.6 mph SE7.4 kmh SE 6.9 mph11.1 kmh 29.74 in1007.1 mb - 0.01 in0.3 mm 0.95 in24.1 mm
02:37 PM 51.9°F11.1°C 51.6°F10.9°C 99% 4.6 mph SE7.4 kmh SE 6.9 mph11.1 kmh 29.74 in1007.1 mb - 0.01 in0.3 mm 0.95 in24.1 mm
02:38 PM 52.0°F11.1°C 51.7°F10.9°C 99% 4.6 mph SE7.4 kmh SE 6.9 mph11.1 kmh 29.74 in1007.1 mb - 0.00 in0.0 mm 0.95 in24.1 mm
02:39 PM 52.0°F11.1°C 51.7°F10.9°C 99% 6.9 mph SE11.1 kmh SE 8.1 mph13.0 kmh 29.74 in1007.1 mb - 0.01 in0.3 mm 0.96 in24.4 mm
02:40 PM 52.0°F11.1°C 51.7°F10.9°C 99% 6.9 mph SE11.1 kmh SE 8.1 mph13.0 kmh 29.74 in1007.1 mb - 0.01 in0.3 mm 0.96 in24.4 mm
02:41 PM 52.0°F11.1°C 51.7°F10.9°C 99% 6.9 mph SE11.1 kmh SE 9.2 mph14.8 kmh 29.74 in1007.1 mb - 0.00 in0.0 mm 0.96 in24.4 mm
02:42 PM 52.0°F11.1°C 51.7°F10.9°C 99% 5.8 mph SE9.3 kmh SE 6.9 mph11.1 kmh 29.74 in1007.1 mb - 0.00 in0.0 mm 0.96 in24.4 mm
02:43 PM 52.0°F11.1°C 51.7°F10.9°C 99% 4.6 mph S7.4 kmh S 5.8 mph9.3 kmh 29.74 in1007.1 mb - 0.00 in0.0 mm 0.96 in24.4 mm
02:44 PM 52.0°F11.1°C 51.7°F10.9°C 99% 4.6 mph SSE7.4 kmh SSE 8.1 mph13.0 kmh 29.74 in1007.1 mb - 0.01 in0.3 mm 0.97 in24.6 mm
02:45 PM 52.0°F11.1°C 51.7°F10.9°C 99% 6.9 mph S11.1 kmh S 9.2 mph14.8 kmh 29.74 in1007.1 mb - 0.01 in0.3 mm 0.97 in24.6 mm
02:46 PM 52.0°F11.1°C 51.7°F10.9°C 99% 8.1 mph SSW13.0 kmh SSW 9.2 mph14.8 kmh 29.74 in1007.1 mb - 0.00 in0.0 mm 0.97 in24.6 mm
02:47 PM 52.0°F11.1°C 51.7°F10.9°C 99% 5.8 mph S9.3 kmh S 5.8 mph9.3 kmh 29.74 in1007.1 mb - 0.00 in0.0 mm 0.97 in24.6 mm
02:48 PM 52.0°F11.1°C 51.7°F10.9°C 99% 5.8 mph SE9.3 kmh SE 8.1 mph13.0 kmh 29.74 in1007.1 mb - 0.00 in0.0 mm 0.97 in24.6 mm
02:49 PM 52.0°F11.1°C 51.7°F10.9°C 99% 4.6 mph ESE7.4 kmh ESE 9.2 mph14.8 kmh 29.73 in1006.8 mb - 0.01 in0.3 mm 0.98 in24.9 mm
02:50 PM 52.1°F11.2°C 51.8°F11.0°C 99% 5.8 mph SW9.3 kmh SW 9.2 mph14.8 kmh 29.73 in1006.8 mb - 0.01 in0.3 mm 0.98 in24.9 mm
02:51 PM 52.2°F11.2°C 51.9°F11.1°C 99% 4.6 mph SSE7.4 kmh SSE 6.9 mph11.1 kmh 29.73 in1006.8 mb - 0.00 in0.0 mm 0.98 in24.9 mm
02:52 PM 52.2°F11.2°C 51.9°F11.1°C 99% 6.9 mph ESE11.1 kmh ESE 12.7 mph20.4 kmh 29.73 in1006.8 mb - 0.00 in0.0 mm 0.98 in24.9 mm
02:53 PM 52.2°F11.2°C 51.9°F11.1°C 99% 8.1 mph SE13.0 kmh SE 10.4 mph16.7 kmh 29.73 in1006.8 mb - 0.01 in0.3 mm 0.99 in25.1 mm
02:54 PM 52.2°F11.2°C 51.9°F11.1°C 99% 6.9 mph S11.1 kmh S 5.8 mph9.3 kmh 29.73 in1006.8 mb - 0.01 in0.3 mm 0.99 in25.1 mm
02:55 PM 52.2°F11.2°C 51.9°F11.1°C 99% 4.6 mph SE7.4 kmh SE 5.8 mph9.3 kmh 29.73 in1006.8 mb - 0.00 in0.0 mm 0.99 in25.1 mm
02:56 PM 52.2°F11.2°C 51.9°F11.1°C 99% 3.5 mph SSE5.6 kmh SSE 5.8 mph9.3 kmh 29.73 in1006.8 mb - 0.01 in0.3 mm 1.00 in25.4 mm
02:57 PM 52.2°F11.2°C 51.9°F11.1°C 99% 3.5 mph S5.6 kmh S 5.8 mph9.3 kmh 29.73 in1006.8 mb - 0.02 in0.5 mm 1.01 in25.7 mm
02:58 PM 52.2°F11.2°C 51.9°F11.1°C 99% 5.8 mph SW9.3 kmh SW 8.1 mph13.0 kmh 29.73 in1006.8 mb - 0.01 in0.3 mm 1.01 in25.7 mm
02:59 PM 52.2°F11.2°C 51.9°F11.1°C 99% 4.6 mph SSE7.4 kmh SSE 6.9 mph11.1 kmh 29.73 in1006.8 mb - 0.00 in0.0 mm 1.01 in25.7 mm
03:00 PM 52.2°F11.2°C 51.9°F11.1°C 99% 6.9 mph SSE11.1 kmh SSE 10.4 mph16.7 kmh 29.73 in1006.8 mb - 0.00 in0.0 mm 1.01 in25.7 mm
03:01 PM 52.2°F11.2°C 51.9°F11.1°C 99% 6.9 mph E11.1 kmh E 6.9 mph11.1 kmh 29.73 in1006.8 mb - 0.00 in0.0 mm 1.01 in25.7 mm
03:02 PM 52.2°F11.2°C 51.9°F11.1°C 99% 4.6 mph SE7.4 kmh SE 5.8 mph9.3 kmh 29.73 in1006.8 mb - 0.00 in0.0 mm 1.01 in25.7 mm
03:03 PM 52.2°F11.2°C 52.0°F11.1°C 99% 3.5 mph SE5.6 kmh SE 4.6 mph7.4 kmh 29.73 in1006.8 mb - 0.01 in0.3 mm 1.02 in25.9 mm
03:04 PM 52.3°F11.3°C 52.0°F11.1°C 99% 3.5 mph SE5.6 kmh SE 5.8 mph9.3 kmh 29.73 in1006.8 mb - 0.01 in0.3 mm 1.02 in25.9 mm
03:05 PM 52.3°F11.3°C 52.0°F11.1°C 99% 4.6 mph NE7.4 kmh NE 9.2 mph14.8 kmh 29.73 in1006.8 mb - 0.01 in0.3 mm 1.03 in26.2 mm
03:06 PM 52.3°F11.3°C 52.0°F11.1°C 99% 8.1 mph ESE13.0 kmh ESE 9.2 mph14.8 kmh 29.73 in1006.8 mb - 0.01 in0.3 mm 1.03 in26.2 mm
03:07 PM 52.3°F11.3°C 52.0°F11.1°C 99% 5.8 mph SE9.3 kmh SE 8.1 mph13.0 kmh 29.73 in1006.8 mb - 0.00 in0.0 mm 1.03 in26.2 mm
03:08 PM 52.3°F11.3°C 52.0°F11.1°C 99% 4.6 mph SE7.4 kmh SE 5.8 mph9.3 kmh 29.73 in1006.8 mb - 0.00 in0.0 mm 1.03 in26.2 mm
03:09 PM 52.5°F11.4°C 52.2°F11.2°C 99% 4.6 mph SSE7.4 kmh SSE 9.2 mph14.8 kmh 29.73 in1006.8 mb - 0.00 in0.0 mm 1.03 in26.2 mm
03:10 PM 52.5°F11.4°C 52.2°F11.2°C 99% 5.8 mph S9.3 kmh S 5.8 mph9.3 kmh 29.73 in1006.8 mb - 0.00 in0.0 mm 1.03 in26.2 mm
03:11 PM 52.5°F11.4°C 52.2°F11.2°C 99% 4.6 mph SE7.4 kmh SE 5.8 mph9.3 kmh 29.73 in1006.8 mb - 0.00 in0.0 mm 1.03 in26.2 mm
03:12 PM 52.5°F11.4°C 52.2°F11.2°C 99% 4.6 mph SE7.4 kmh SE 8.1 mph13.0 kmh 29.73 in1006.8 mb - 0.01 in0.3 mm 1.04 in26.4 mm
03:13 PM 52.5°F11.4°C 52.2°F11.2°C 99% 5.8 mph SSE9.3 kmh SSE 5.8 mph9.3 kmh 29.73 in1006.8 mb - 0.01 in0.3 mm 1.04 in26.4 mm
03:14 PM 52.5°F11.4°C 52.2°F11.2°C 99% 4.6 mph SSE7.4 kmh SSE 5.8 mph9.3 kmh 29.72 in1006.4 mb - 0.00 in0.0 mm 1.04 in26.4 mm
03:15 PM 52.6°F11.4°C 52.4°F11.3°C 99% 3.5 mph S5.6 kmh S 9.2 mph14.8 kmh 29.71 in1006.1 mb - 0.00 in0.0 mm 1.04 in26.4 mm
03:16 PM 52.7°F11.5°C 52.4°F11.3°C 99% 5.8 mph S9.3 kmh S 9.2 mph14.8 kmh 29.71 in1006.1 mb - 0.00 in0.0 mm 1.04 in26.4 mm
03:17 PM 52.7°F11.5°C 52.4°F11.3°C 99% 8.1 mph S13.0 kmh S 11.5 mph18.5 kmh 29.71 in1006.1 mb - 0.01 in0.3 mm 1.05 in26.7 mm
03:18 PM 52.7°F11.5°C 52.4°F11.3°C 99% 8.1 mph S13.0 kmh S 6.9 mph11.1 kmh 29.71 in1006.1 mb - 0.01 in0.3 mm 1.05 in26.7 mm
03:19 PM 52.7°F11.5°C 52.4°F11.3°C 99% 5.8 mph SE9.3 kmh SE 10.4 mph16.7 kmh 29.71 in1006.1 mb - 0.00 in0.0 mm 1.05 in26.7 mm
03:20 PM 52.7°F11.5°C 52.4°F11.3°C 99% 5.8 mph S9.3 kmh S 8.1 mph13.0 kmh 29.71 in1006.1 mb - 0.00 in0.0 mm 1.05 in26.7 mm
03:21 PM 52.7°F11.5°C 52.4°F11.3°C 99% 5.8 mph SE9.3 kmh SE 6.9 mph11.1 kmh 29.71 in1006.1 mb - 0.00 in0.0 mm 1.05 in26.7 mm
03:22 PM 52.7°F11.5°C 52.4°F11.3°C 99% 5.8 mph SSE9.3 kmh SSE 8.1 mph13.0 kmh 29.71 in1006.1 mb - 0.01 in0.3 mm 1.06 in26.9 mm
03:23 PM 52.7°F11.5°C 52.4°F11.3°C 99% 4.6 mph SW7.4 kmh SW 5.8 mph9.3 kmh 29.71 in1006.1 mb - 0.02 in0.5 mm 1.07 in27.2 mm
03:24 PM 52.7°F11.5°C 52.4°F11.3°C 99% 5.8 mph SW9.3 kmh SW 8.1 mph13.0 kmh 29.71 in1006.1 mb - 0.01 in0.3 mm 1.07 in27.2 mm
03:25 PM 52.7°F11.5°C 52.4°F11.3°C 99% 5.8 mph SE9.3 kmh SE 8.1 mph13.0 kmh 29.71 in1006.1 mb - 0.00 in0.0 mm 1.07 in27.2 mm
03:26 PM 52.7°F11.5°C 52.4°F11.3°C 99% 4.6 mph SSE7.4 kmh SSE 8.1 mph13.0 kmh 29.70 in1005.8 mb - 0.00 in0.0 mm 1.07 in27.2 mm
03:27 PM 52.7°F11.5°C 52.4°F11.3°C 99% 6.9 mph SE11.1 kmh SE 11.5 mph18.5 kmh 29.70 in1005.8 mb - 0.00 in0.0 mm 1.07 in27.2 mm
03:28 PM 52.7°F11.5°C 52.4°F11.3°C 99% 5.8 mph ESE9.3 kmh ESE 8.1 mph13.0 kmh 29.70 in1005.8 mb - 0.01 in0.3 mm 1.08 in27.4 mm
03:29 PM 52.7°F11.5°C 52.4°F11.3°C 99% 6.9 mph SE11.1 kmh SE 9.2 mph14.8 kmh 29.70 in1005.8 mb - 0.01 in0.3 mm 1.08 in27.4 mm
03:30 PM 52.7°F11.5°C 52.4°F11.3°C 99% 6.9 mph SW11.1 kmh SW 6.9 mph11.1 kmh 29.70 in1005.8 mb - 0.00 in0.0 mm 1.08 in27.4 mm
03:31 PM 52.9°F11.6°C 52.6°F11.4°C 99% 5.8 mph SW9.3 kmh SW 12.7 mph20.4 kmh 29.70 in1005.8 mb - 0.01 in0.3 mm 1.09 in27.7 mm
03:32 PM 52.9°F11.6°C 52.6°F11.4°C 99% 8.1 mph SE13.0 kmh SE 6.9 mph11.1 kmh 29.70 in1005.8 mb - 0.01 in0.3 mm 1.09 in27.7 mm
03:33 PM 52.9°F11.6°C 52.6°F11.4°C 99% 4.6 mph S7.4 kmh S 5.8 mph9.3 kmh 29.70 in1005.8 mb - 0.00 in0.0 mm 1.09 in27.7 mm
03:34 PM 52.9°F11.6°C 52.6°F11.4°C 99% 4.6 mph S7.4 kmh S 9.2 mph14.8 kmh 29.70 in1005.8 mb - 0.01 in0.3 mm 1.10 in27.9 mm
03:35 PM 52.9°F11.6°C 52.6°F11.4°C 99% 6.9 mph SE11.1 kmh SE 9.2 mph14.8 kmh 29.70 in1005.8 mb - 0.02 in0.5 mm 1.11 in28.2 mm
03:36 PM 52.9°F11.6°C 52.6°F11.4°C 99% 5.8 mph ESE9.3 kmh ESE 5.8 mph9.3 kmh 29.70 in1005.8 mb - 0.01 in0.3 mm 1.11 in28.2 mm
03:37 PM 52.9°F11.6°C 52.6°F11.4°C 99% 4.6 mph E7.4 kmh E 9.2 mph14.8 kmh 29.70 in1005.8 mb - 0.00 in0.0 mm 1.11 in28.2 mm
03:38 PM 52.9°F11.6°C 52.6°F11.4°C 99% 5.8 mph SSE9.3 kmh SSE 6.9 mph11.1 kmh 29.70 in1005.8 mb - 0.01 in0.3 mm 1.12 in28.4 mm
03:39 PM 52.9°F11.6°C 52.6°F11.4°C 99% 5.8 mph ESE9.3 kmh ESE 8.1 mph13.0 kmh 29.69 in1005.4 mb - 0.01 in0.3 mm 1.12 in28.4 mm
03:40 PM 52.9°F11.6°C 52.6°F11.4°C 99% 5.8 mph SE9.3 kmh SE 9.2 mph14.8 kmh 29.69 in1005.4 mb - 0.01 in0.3 mm 1.13 in28.7 mm
03:41 PM 52.9°F11.6°C 52.6°F11.4°C 99% 6.9 mph SE11.1 kmh SE 9.2 mph14.8 kmh 29.69 in1005.4 mb - 0.01 in0.3 mm 1.13 in28.7 mm
03:42 PM 52.9°F11.6°C 52.6°F11.4°C 99% 8.1 mph SE13.0 kmh SE 11.5 mph18.5 kmh 29.69 in1005.4 mb - 0.00 in0.0 mm 1.13 in28.7 mm
03:43 PM 52.9°F11.6°C 52.6°F11.4°C 99% 5.8 mph ESE9.3 kmh ESE 8.1 mph13.0 kmh 29.69 in1005.4 mb - 0.00 in0.0 mm 1.13 in28.7 mm
03:44 PM 52.9°F11.6°C 52.6°F11.4°C 99% 6.9 mph ESE11.1 kmh ESE 11.5 mph18.5 kmh 29.69 in1005.4 mb - 0.02 in0.5 mm 1.15 in29.2 mm
03:45 PM 52.9°F11.6°C 52.6°F11.4°C 99% 6.9 mph S11.1 kmh S 11.5 mph18.5 kmh 29.69 in1005.4 mb - 0.02 in0.5 mm 1.15 in29.2 mm
03:46 PM 52.9°F11.6°C 52.6°F11.4°C 99% 5.8 mph S9.3 kmh S 13.8 mph22.2 kmh 29.69 in1005.4 mb - 0.00 in0.0 mm 1.15 in29.2 mm
03:47 PM 52.9°F11.6°C 52.6°F11.4°C 99% 4.6 mph S7.4 kmh S 9.2 mph14.8 kmh 29.69 in1005.4 mb - 0.00 in0.0 mm 1.15 in29.2 mm
03:48 PM 52.9°F11.6°C 52.6°F11.4°C 99% 5.8 mph SE9.3 kmh SE 9.2 mph14.8 kmh 29.69 in1005.4 mb - 0.01 in0.3 mm 1.16 in29.5 mm
03:49 PM 52.9°F11.6°C 52.6°F11.4°C 99% 5.8 mph S9.3 kmh S 6.9 mph11.1 kmh 29.69 in1005.4 mb - 0.01 in0.3 mm 1.16 in29.5 mm
03:50 PM 52.9°F11.6°C 52.6°F11.4°C 99% 5.8 mph S9.3 kmh S 6.9 mph11.1 kmh 29.69 in1005.4 mb - 0.00 in0.0 mm 1.16 in29.5 mm
03:51 PM 52.9°F11.6°C 52.6°F11.4°C 99% 6.9 mph S11.1 kmh S 12.7 mph20.4 kmh 29.69 in1005.4 mb - 0.00 in0.0 mm 1.16 in29.5 mm
03:52 PM 52.9°F11.6°C 52.6°F11.4°C 99% 6.9 mph S11.1 kmh S 8.1 mph13.0 kmh 29.69 in1005.4 mb - 0.01 in0.3 mm 1.17 in29.7 mm
03:53 PM 52.9°F11.6°C 52.6°F11.4°C 99% 5.8 mph ESE9.3 kmh ESE 6.9 mph11.1 kmh 29.69 in1005.4 mb - 0.01 in0.3 mm 1.17 in29.7 mm
03:54 PM 52.9°F11.6°C 52.6°F11.4°C 99% 5.8 mph SE9.3 kmh SE 6.9 mph11.1 kmh 29.69 in1005.4 mb - 0.00 in0.0 mm 1.17 in29.7 mm
03:55 PM 52.9°F11.6°C 52.6°F11.4°C 99% 5.8 mph SE9.3 kmh SE 10.4 mph16.7 kmh 29.69 in1005.4 mb - 0.00 in0.0 mm 1.17 in29.7 mm
03:56 PM 52.9°F11.6°C 52.6°F11.4°C 99% 10.4 mph SSE16.7 kmh SSE 13.8 mph22.2 kmh 29.69 in1005.4 mb - 0.00 in0.0 mm 1.17 in29.7 mm
03:57 PM 53.1°F11.7°C 52.8°F11.6°C 99% 8.1 mph S13.0 kmh S 10.4 mph16.7 kmh 29.69 in1005.4 mb - 0.01 in0.3 mm 1.18 in30.0 mm
03:58 PM 53.1°F11.7°C 52.8°F11.6°C 99% 6.9 mph S11.1 kmh S 6.9 mph11.1 kmh 29.69 in1005.4 mb - 0.01 in0.3 mm 1.18 in30.0 mm
03:59 PM 53.1°F11.7°C 52.8°F11.6°C 99% 5.8 mph SE9.3 kmh SE 9.2 mph14.8 kmh 29.69 in1005.4 mb - 0.00 in0.0 mm 1.18 in30.0 mm
04:00 PM 53.1°F11.7°C 52.8°F11.6°C 99% 5.8 mph SW9.3 kmh SW 9.2 mph14.8 kmh 29.69 in1005.4 mb - 0.01 in0.3 mm 1.19 in30.2 mm
04:01 PM 53.1°F11.7°C 52.8°F11.6°C 99% 4.6 mph SE7.4 kmh SE 6.9 mph11.1 kmh 29.69 in1005.4 mb - 0.01 in0.3 mm 1.19 in30.2 mm
04:02 PM 53.1°F11.7°C 52.8°F11.6°C 99% 5.8 mph SSE9.3 kmh SSE 9.2 mph14.8 kmh 29.69 in1005.4 mb - 0.00 in0.0 mm 1.19 in30.2 mm
04:03 PM 53.1°F11.7°C 52.8°F11.6°C 99% 5.8 mph SE9.3 kmh SE 5.8 mph9.3 kmh 29.68 in1005.1 mb - 0.01 in0.3 mm 1.20 in30.5 mm
04:04 PM 53.1°F11.7°C 52.8°F11.6°C 99% 4.6 mph SE7.4 kmh SE 9.2 mph14.8 kmh 29.68 in1005.1 mb - 0.02 in0.5 mm 1.21 in30.7 mm
04:05 PM 53.1°F11.7°C 52.8°F11.6°C 99% 6.9 mph S11.1 kmh S 10.4 mph16.7 kmh 29.68 in1005.1 mb - 0.01 in0.3 mm 1.21 in30.7 mm
04:06 PM 53.1°F11.7°C 52.8°F11.6°C 99% 6.9 mph SE11.1 kmh SE 10.4 mph16.7 kmh 29.68 in1005.1 mb - 0.00 in0.0 mm 1.21 in30.7 mm
04:07 PM 53.1°F11.7°C 52.8°F11.6°C 99% 8.1 mph SSE13.0 kmh SSE 10.4 mph16.7 kmh 29.68 in1005.1 mb - 0.01 in0.3 mm 1.22 in31.0 mm
04:08 PM 53.1°F11.7°C 52.9°F11.6°C 99% 6.9 mph SSE11.1 kmh SSE 8.1 mph13.0 kmh 29.68 in1005.1 mb - 0.01 in0.3 mm 1.22 in31.0 mm
04:09 PM 53.2°F11.8°C 52.9°F11.6°C 99% 5.8 mph S9.3 kmh S 8.1 mph13.0 kmh 29.68 in1005.1 mb - 0.00 in0.0 mm 1.22 in31.0 mm
04:10 PM 53.2°F11.8°C 52.9°F11.6°C 99% 6.9 mph SE11.1 kmh SE 11.5 mph18.5 kmh 29.68 in1005.1 mb - 0.01 in0.3 mm 1.23 in31.2 mm
04:11 PM 53.2°F11.8°C 52.9°F11.6°C 99% 6.9 mph SE11.1 kmh SE 10.4 mph16.7 kmh 29.68 in1005.1 mb - 0.01 in0.3 mm 1.23 in31.2 mm
04:12 PM 53.2°F11.8°C 52.9°F11.6°C 99% 5.8 mph SE9.3 kmh SE 9.2 mph14.8 kmh 29.68 in1005.1 mb - 0.00 in0.0 mm 1.23 in31.2 mm
04:13 PM 53.2°F11.8°C 52.9°F11.6°C 99% 4.6 mph SE7.4 kmh SE 8.1 mph13.0 kmh 29.68 in1005.1 mb - 0.00 in0.0 mm 1.23 in31.2 mm
04:14 PM 53.2°F11.8°C 52.9°F11.6°C 99% 6.9 mph SE11.1 kmh SE 11.5 mph18.5 kmh 29.67 in1004.7 mb - 0.00 in0.0 mm 1.23 in31.2 mm
04:15 PM 53.2°F11.8°C 52.9°F11.6°C 99% 6.9 mph SSW11.1 kmh SSW 8.1 mph13.0 kmh 29.66 in1004.4 mb - 0.00 in0.0 mm 1.23 in31.2 mm
04:16 PM 53.2°F11.8°C 52.9°F11.6°C 99% 6.9 mph S11.1 kmh S 6.9 mph11.1 kmh 29.66 in1004.4 mb - 0.00 in0.0 mm 1.23 in31.2 mm
04:17 PM 53.3°F11.8°C 53.1°F11.7°C 99% 4.6 mph SSE7.4 kmh SSE 4.6 mph7.4 kmh 29.66 in1004.4 mb - 0.01 in0.3 mm 1.24 in31.5 mm
04:18 PM 53.4°F11.9°C 53.1°F11.7°C 99% 3.5 mph S5.6 kmh S 5.8 mph9.3 kmh 29.66 in1004.4 mb - 0.01 in0.3 mm 1.24 in31.5 mm
04:19 PM 53.4°F11.9°C 53.1°F11.7°C 99% 4.6 mph SSE7.4 kmh SSE 8.1 mph13.0 kmh 29.66 in1004.4 mb - 0.01 in0.3 mm 1.25 in31.8 mm
04:20 PM 53.4°F11.9°C 53.1°F11.7°C 99% 5.8 mph SSE9.3 kmh SSE 9.2 mph14.8 kmh 29.66 in1004.4 mb - 0.01 in0.3 mm 1.25 in31.8 mm
04:21 PM 53.4°F11.9°C 53.1°F11.7°C 99% 5.8 mph SE9.3 kmh SE 9.2 mph14.8 kmh 29.66 in1004.4 mb - 0.00 in0.0 mm 1.25 in31.8 mm
04:22 PM 53.4°F11.9°C 53.1°F11.7°C 99% 5.8 mph S9.3 kmh S 6.9 mph11.1 kmh 29.66 in1004.4 mb - 0.01 in0.3 mm 1.26 in32.0 mm
04:23 PM 53.4°F11.9°C 53.1°F11.7°C 99% 5.8 mph S9.3 kmh S 10.4 mph16.7 kmh 29.66 in1004.4 mb - 0.02 in0.5 mm 1.27 in32.3 mm
04:24 PM 53.4°F11.9°C 53.1°F11.7°C 99% 9.2 mph S14.8 kmh S 12.7 mph20.4 kmh 29.66 in1004.4 mb - 0.01 in0.3 mm 1.27 in32.3 mm
04:25 PM 53.4°F11.9°C 53.1°F11.7°C 99% 9.2 mph ESE14.8 kmh ESE 11.5 mph18.5 kmh 29.66 in1004.4 mb - 0.00 in0.0 mm 1.27 in32.3 mm
04:26 PM 53.4°F11.9°C 53.1°F11.7°C 99% 5.8 mph SE9.3 kmh SE 10.4 mph16.7 kmh 29.66 in1004.4 mb - 0.01 in0.3 mm 1.28 in32.5 mm
04:27 PM 53.4°F11.9°C 53.1°F11.7°C 99% 6.9 mph SE11.1 kmh SE 8.1 mph13.0 kmh 29.66 in1004.4 mb - 0.01 in0.3 mm 1.28 in32.5 mm
04:28 PM 53.4°F11.9°C 53.1°F11.7°C 99% 5.8 mph S9.3 kmh S 8.1 mph13.0 kmh 29.66 in1004.4 mb - 0.01 in0.3 mm 1.29 in32.8 mm
04:29 PM 53.4°F11.9°C 53.1°F11.7°C 99% 4.6 mph S7.4 kmh S 9.2 mph14.8 kmh 29.66 in1004.4 mb - 0.00 in0.0 mm 1.29 in32.8 mm
04:30 PM 53.4°F11.9°C 53.1°F11.7°C 99% 5.8 mph SSE9.3 kmh SSE 6.9 mph11.1 kmh 29.66 in1004.4 mb - 0.01 in0.3 mm 1.30 in33.0 mm
04:31 PM 53.4°F11.9°C 53.1°F11.7°C 99% 4.6 mph N7.4 kmh N 9.2 mph14.8 kmh 29.66 in1004.4 mb - 0.01 in0.3 mm 1.30 in33.0 mm
04:32 PM 53.4°F11.9°C 53.1°F11.7°C 99% 6.9 mph SE11.1 kmh SE 12.7 mph20.4 kmh 29.66 in1004.4 mb - 0.01 in0.3 mm 1.31 in33.3 mm
04:33 PM 53.4°F11.9°C 53.1°F11.7°C 99% 8.1 mph SE13.0 kmh SE 10.4 mph16.7 kmh 29.66 in1004.4 mb - 0.02 in0.5 mm 1.32 in33.5 mm
04:34 PM 53.4°F11.9°C 53.1°F11.7°C 99% 5.8 mph S9.3 kmh S 6.9 mph11.1 kmh 29.66 in1004.4 mb - 0.02 in0.5 mm 1.33 in33.8 mm
04:35 PM 53.4°F11.9°C 53.1°F11.7°C 99% 6.9 mph ESE11.1 kmh ESE 8.1 mph13.0 kmh 29.66 in1004.4 mb - 0.01 in0.3 mm 1.33 in33.8 mm
04:36 PM 53.4°F11.9°C 53.1°F11.7°C 99% 6.9 mph SE11.1 kmh SE 9.2 mph14.8 kmh 29.66 in1004.4 mb - 0.01 in0.3 mm 1.34 in34.0 mm
04:37 PM 53.4°F11.9°C 53.1°F11.7°C 99% 4.6 mph S7.4 kmh S 5.8 mph9.3 kmh 29.66 in1004.4 mb - 0.02 in0.5 mm 1.35 in34.3 mm
04:38 PM 53.4°F11.9°C 53.1°F11.7°C 99% 6.9 mph SSE11.1 kmh SSE 12.7 mph20.4 kmh 29.66 in1004.4 mb - 0.02 in0.5 mm 1.36 in34.5 mm
04:39 PM 53.4°F11.9°C 53.1°F11.7°C 99% 9.2 mph E14.8 kmh E 8.1 mph13.0 kmh 29.66 in1004.4 mb - 0.02 in0.5 mm 1.37 in34.8 mm
04:40 PM 53.4°F11.9°C 53.1°F11.7°C 99% 5.8 mph E9.3 kmh E 8.1 mph13.0 kmh 29.66 in1004.4 mb - 0.01 in0.3 mm 1.37 in34.8 mm
04:41 PM 53.4°F11.9°C 53.1°F11.7°C 99% 5.8 mph S9.3 kmh S 8.1 mph13.0 kmh 29.66 in1004.4 mb - 0.00 in0.0 mm 1.37 in34.8 mm
04:42 PM 53.4°F11.9°C 53.1°F11.7°C 99% 5.8 mph SE9.3 kmh SE 6.9 mph11.1 kmh 29.66 in1004.4 mb - 0.01 in0.3 mm 1.38 in35.1 mm
04:43 PM 53.4°F11.9°C 53.1°F11.7°C 99% 5.8 mph ESE9.3 kmh ESE 10.4 mph16.7 kmh 29.66 in1004.4 mb - 0.02 in0.5 mm 1.39 in35.3 mm
04:44 PM 53.4°F11.9°C 53.1°F11.7°C 99% 8.1 mph S13.0 kmh S 8.1 mph13.0 kmh 29.66 in1004.4 mb - 0.01 in0.3 mm 1.39 in35.3 mm
04:45 PM 53.4°F11.9°C 53.1°F11.7°C 99% 5.8 mph SE9.3 kmh SE 4.6 mph7.4 kmh 29.66 in1004.4 mb - 0.00 in0.0 mm 1.39 in35.3 mm
04:46 PM 53.4°F11.9°C 53.1°F11.7°C 99% 4.6 mph S7.4 kmh S 12.7 mph20.4 kmh 29.66 in1004.4 mb - 0.00 in0.0 mm 1.39 in35.3 mm
04:47 PM 53.4°F11.9°C 53.1°F11.7°C 99% 6.9 mph S11.1 kmh S 12.7 mph20.4 kmh 29.66 in1004.4 mb - 0.01 in0.3 mm 1.40 in35.6 mm
04:48 PM 53.4°F11.9°C 53.1°F11.7°C 99% 4.6 mph E7.4 kmh E 10.4 mph16.7 kmh 29.66 in1004.4 mb - 0.01 in0.3 mm 1.40 in35.6 mm
04:49 PM 53.4°F11.9°C 53.1°F11.7°C 99% 8.1 mph S13.0 kmh S 10.4 mph16.7 kmh 29.66 in1004.4 mb - 0.00 in0.0 mm 1.40 in35.6 mm
04:50 PM 53.4°F11.9°C 53.1°F11.7°C 99% 6.9 mph SSE11.1 kmh SSE 10.4 mph16.7 kmh 29.65 in1004.1 mb - 0.00 in0.0 mm 1.40 in35.6 mm
04:51 PM 53.4°F11.9°C 53.1°F11.7°C 99% 5.8 mph S9.3 kmh S 6.9 mph11.1 kmh 29.65 in1004.1 mb - 0.01 in0.3 mm 1.41 in35.8 mm
04:52 PM 53.4°F11.9°C 53.1°F11.7°C 99% 5.8 mph SE9.3 kmh SE 6.9 mph11.1 kmh 29.65 in1004.1 mb - 0.01 in0.3 mm 1.41 in35.8 mm
04:53 PM 53.4°F11.9°C 53.1°F11.7°C 99% 4.6 mph SSE7.4 kmh SSE 6.9 mph11.1 kmh 29.65 in1004.1 mb - 0.00 in0.0 mm 1.41 in35.8 mm
04:54 PM 53.4°F11.9°C 53.1°F11.7°C 99% 4.6 mph ESE7.4 kmh ESE 6.9 mph11.1 kmh 29.65 in1004.1 mb - 0.00 in0.0 mm 1.41 in35.8 mm
04:55 PM 53.4°F11.9°C 53.1°F11.7°C 99% 5.8 mph S9.3 kmh S 6.9 mph11.1 kmh 29.65 in1004.1 mb - 0.01 in0.3 mm 1.42 in36.1 mm
04:56 PM 53.4°F11.9°C 53.1°F11.7°C 99% 3.5 mph S5.6 kmh S 11.5 mph18.5 kmh 29.65 in1004.1 mb - 0.01 in0.3 mm 1.42 in36.1 mm
04:57 PM 53.4°F11.9°C 53.1°F11.7°C 99% 6.9 mph SE11.1 kmh SE 6.9 mph11.1 kmh 29.65 in1004.1 mb - 0.01 in0.3 mm 1.43 in36.3 mm
04:58 PM 53.4°F11.9°C 53.1°F11.7°C 99% 5.8 mph SSE9.3 kmh SSE 6.9 mph11.1 kmh 29.65 in1004.1 mb - 0.01 in0.3 mm 1.43 in36.3 mm
04:59 PM 53.4°F11.9°C 53.1°F11.7°C 99% 4.6 mph S7.4 kmh S 9.2 mph14.8 kmh 29.65 in1004.1 mb - 0.00 in0.0 mm 1.43 in36.3 mm
05:00 PM 53.4°F11.9°C 53.1°F11.7°C 99% 5.8 mph SE9.3 kmh SE 9.2 mph14.8 kmh 29.65 in1004.1 mb - 0.00 in0.0 mm 1.43 in36.3 mm
05:01 PM 53.4°F11.9°C 53.1°F11.7°C 99% 4.6 mph S7.4 kmh S 5.8 mph9.3 kmh 29.65 in1004.1 mb - 0.01 in0.3 mm 1.44 in36.6 mm
05:02 PM 53.4°F11.9°C 53.1°F11.7°C 99% 4.6 mph SE7.4 kmh SE 4.6 mph7.4 kmh 29.65 in1004.1 mb - 0.01 in0.3 mm 1.44 in36.6 mm
05:03 PM 53.4°F11.9°C 53.1°F11.7°C 99% 3.5 mph SSE5.6 kmh SSE 4.6 mph7.4 kmh 29.65 in1004.1 mb - 0.00 in0.0 mm 1.44 in36.6 mm
05:04 PM 53.4°F11.9°C 53.1°F11.7°C 99% 3.5 mph ENE5.6 kmh ENE 5.8 mph9.3 kmh 29.65 in1004.1 mb - 0.00 in0.0 mm 1.44 in36.6 mm
05:05 PM 53.4°F11.9°C 53.1°F11.7°C 99% 3.5 mph SE5.6 kmh SE 4.6 mph7.4 kmh 29.65 in1004.1 mb - 0.00 in0.0 mm 1.44 in36.6 mm
05:06 PM 53.4°F11.9°C 53.1°F11.7°C 99% 4.6 mph ESE7.4 kmh ESE 5.8 mph9.3 kmh 29.65 in1004.1 mb - 0.00 in0.0 mm 1.44 in36.6 mm
05:07 PM 53.4°F11.9°C 53.1°F11.7°C 99% 5.8 mph S9.3 kmh S 5.8 mph9.3 kmh 29.65 in1004.1 mb - 0.01 in0.3 mm 1.45 in36.8 mm
05:08 PM 53.4°F11.9°C 53.1°F11.7°C 99% 3.5 mph SSE5.6 kmh SSE 4.6 mph7.4 kmh 29.65 in1004.1 mb - 0.01 in0.3 mm 1.45 in36.8 mm
05:09 PM 53.4°F11.9°C 53.1°F11.7°C 99% 2.3 mph SSE3.7 kmh SSE 4.6 mph7.4 kmh 29.65 in1004.1 mb - 0.00 in0.0 mm 1.45 in36.8 mm
05:10 PM 53.4°F11.9°C 53.1°F11.7°C 99% 3.5 mph SE5.6 kmh SE 4.6 mph7.4 kmh 29.65 in1004.1 mb - 0.01 in0.3 mm 1.46 in37.1 mm
05:11 PM 53.4°F11.9°C 53.1°F11.7°C 99% 5.8 mph S9.3 kmh S 9.2 mph14.8 kmh 29.65 in1004.1 mb - 0.01 in0.3 mm 1.46 in37.1 mm
05:12 PM 53.4°F11.9°C 53.1°F11.7°C 99% 5.8 mph SSE9.3 kmh SSE 6.9 mph11.1 kmh 29.65 in1004.1 mb - 0.01 in0.3 mm 1.47 in37.3 mm
05:13 PM 53.4°F11.9°C 53.1°F11.7°C 99% 4.6 mph SE7.4 kmh SE 3.5 mph5.6 kmh 29.65 in1004.1 mb - 0.01 in0.3 mm 1.47 in37.3 mm
05:14 PM 53.4°F11.9°C 53.1°F11.7°C 99% 3.5 mph S5.6 kmh S 5.8 mph9.3 kmh 29.65 in1004.1 mb - 0.00 in0.0 mm 1.47 in37.3 mm
05:15 PM 53.4°F11.9°C 53.1°F11.7°C 99% 4.6 mph SSE7.4 kmh SSE 8.1 mph13.0 kmh 29.65 in1004.1 mb - 0.01 in0.3 mm 1.48 in37.6 mm
05:16 PM 53.4°F11.9°C 53.1°F11.7°C 99% 6.9 mph SSE11.1 kmh SSE 6.9 mph11.1 kmh 29.65 in1004.1 mb - 0.01 in0.3 mm 1.48 in37.6 mm
05:17 PM 53.4°F11.9°C 53.1°F11.7°C 99% 4.6 mph SSE7.4 kmh SSE 6.9 mph11.1 kmh 29.65 in1004.1 mb - 0.01 in0.3 mm 1.49 in37.8 mm
05:18 PM 53.4°F11.9°C 53.1°F11.7°C 99% 3.5 mph S5.6 kmh S 5.8 mph9.3 kmh 29.65 in1004.1 mb - 0.01 in0.3 mm 1.49 in37.8 mm
05:19 PM 53.4°F11.9°C 53.1°F11.7°C 99% 4.6 mph S7.4 kmh S 5.8 mph9.3 kmh 29.65 in1004.1 mb - 0.00 in0.0 mm 1.49 in37.8 mm
05:20 PM 53.4°F11.9°C 53.1°F11.7°C 99% 3.5 mph SE5.6 kmh SE 5.8 mph9.3 kmh 29.65 in1004.1 mb - 0.01 in0.3 mm 1.50 in38.1 mm
05:21 PM 53.4°F11.9°C 53.1°F11.7°C 99% 4.6 mph SE7.4 kmh SE 5.8 mph9.3 kmh 29.65 in1004.1 mb - 0.01 in0.3 mm 1.50 in38.1 mm
05:22 PM 53.4°F11.9°C 53.1°F11.7°C 99% 3.5 mph S5.6 kmh S 5.8 mph9.3 kmh 29.65 in1004.1 mb - 0.01 in0.3 mm 1.51 in38.4 mm
05:23 PM 53.4°F11.9°C 53.1°F11.7°C 99% 3.5 mph SE5.6 kmh SE 5.8 mph9.3 kmh 29.65 in1004.1 mb - 0.01 in0.3 mm 1.51 in38.4 mm
05:24 PM 53.4°F11.9°C 53.1°F11.7°C 99% 2.3 mph SSE3.7 kmh SSE 3.5 mph5.6 kmh 29.65 in1004.1 mb - 0.00 in0.0 mm 1.51 in38.4 mm
05:25 PM 53.4°F11.9°C 53.1°F11.7°C 99% 3.5 mph S5.6 kmh S 5.8 mph9.3 kmh 29.65 in1004.1 mb - 0.01 in0.3 mm 1.52 in38.6 mm
05:26 PM 53.4°F11.9°C 53.1°F11.7°C 99% 4.6 mph S7.4 kmh S 5.8 mph9.3 kmh 29.64 in1003.7 mb - 0.02 in0.5 mm 1.53 in38.9 mm
05:27 PM 53.4°F11.9°C 53.1°F11.7°C 99% 3.5 mph SW5.6 kmh SW 5.8 mph9.3 kmh 29.64 in1003.7 mb - 0.01 in0.3 mm 1.53 in38.9 mm
05:28 PM 53.4°F11.9°C 53.1°F11.7°C 99% 4.6 mph E7.4 kmh E 9.2 mph14.8 kmh 29.64 in1003.7 mb - 0.01 in0.3 mm 1.54 in39.1 mm
05:29 PM 53.5°F11.9°C 53.3°F11.8°C 99% 5.8 mph ESE9.3 kmh ESE 6.9 mph11.1 kmh 29.64 in1003.7 mb - 0.02 in0.5 mm 1.55 in39.4 mm
05:30 PM 53.6°F12.0°C 53.3°F11.8°C 99% 3.5 mph ESE5.6 kmh ESE 5.8 mph9.3 kmh 29.64 in1003.7 mb - 0.01 in0.3 mm 1.55 in39.4 mm
05:31 PM 53.6°F12.0°C 53.3°F11.8°C 99% 4.6 mph S7.4 kmh S 4.6 mph7.4 kmh 29.64 in1003.7 mb - 0.00 in0.0 mm 1.55 in39.4 mm
05:32 PM 53.6°F12.0°C 53.3°F11.8°C 99% 2.3 mph SSE3.7 kmh SSE 5.8 mph9.3 kmh 29.64 in1003.7 mb - 0.01 in0.3 mm 1.56 in39.6 mm
05:33 PM 53.6°F12.0°C 53.3°F11.8°C 99% 3.5 mph SSE5.6 kmh SSE 5.8 mph9.3 kmh 29.64 in1003.7 mb - 0.02 in0.5 mm 1.57 in39.9 mm
05:34 PM 53.6°F12.0°C 53.3°F11.8°C 99% 2.3 mph S3.7 kmh S 8.1 mph13.0 kmh 29.64 in1003.7 mb - 0.01 in0.3 mm 1.57 in39.9 mm
05:35 PM 53.6°F12.0°C 53.3°F11.8°C 99% 4.6 mph SE7.4 kmh SE 8.1 mph13.0 kmh 29.64 in1003.7 mb - 0.01 in0.3 mm 1.58 in40.1 mm
05:36 PM 53.6°F12.0°C 53.3°F11.8°C 99% 3.5 mph SSE5.6 kmh SSE 4.6 mph7.4 kmh 29.64 in1003.7 mb - 0.02 in0.5 mm 1.59 in40.4 mm
05:37 PM 53.6°F12.0°C 53.3°F11.8°C 99% 3.5 mph SSE5.6 kmh SSE 4.6 mph7.4 kmh 29.64 in1003.7 mb - 0.01 in0.3 mm 1.59 in40.4 mm
05:38 PM 53.6°F12.0°C 53.3°F11.8°C 99% 3.5 mph SSW5.6 kmh SSW 5.8 mph9.3 kmh 29.65 in1004.1 mb - 0.01 in0.3 mm 1.60 in40.6 mm
05:39 PM 53.6°F12.0°C 53.3°F11.8°C 99% 5.8 mph S9.3 kmh S 10.4 mph16.7 kmh 29.65 in1004.1 mb - 0.01 in0.3 mm 1.60 in40.6 mm
05:40 PM 53.6°F12.0°C 53.3°F11.8°C 99% 5.8 mph S9.3 kmh S 3.5 mph5.6 kmh 29.65 in1004.1 mb - 0.01 in0.3 mm 1.61 in40.9 mm
05:41 PM 53.6°F12.0°C 53.3°F11.8°C 99% 2.3 mph S3.7 kmh S 3.5 mph5.6 kmh 29.65 in1004.1 mb - 0.01 in0.3 mm 1.61 in40.9 mm
05:42 PM 53.6°F12.0°C 53.3°F11.8°C 99% 3.5 mph S5.6 kmh S 5.8 mph9.3 kmh 29.65 in1004.1 mb - 0.00 in0.0 mm 1.61 in40.9 mm
05:43 PM 53.6°F12.0°C 53.3°F11.8°C 99% 4.6 mph SW7.4 kmh SW 4.6 mph7.4 kmh 29.65 in1004.1 mb - 0.01 in0.3 mm 1.62 in41.1 mm
05:44 PM 53.6°F12.0°C 53.3°F11.8°C 99% 2.3 mph SSW3.7 kmh SSW 3.5 mph5.6 kmh 29.65 in1004.1 mb - 0.01 in0.3 mm 1.62 in41.1 mm
05:45 PM 53.6°F12.0°C 53.3°F11.8°C 99% 3.5 mph SE5.6 kmh SE 3.5 mph5.6 kmh 29.65 in1004.1 mb - 0.00 in0.0 mm 1.62 in41.1 mm
05:46 PM 53.6°F12.0°C 53.3°F11.8°C 99% 3.5 mph SE5.6 kmh SE 3.5 mph5.6 kmh 29.65 in1004.1 mb - 0.01 in0.3 mm 1.63 in41.4 mm
05:47 PM 53.6°F12.0°C 53.3°F11.8°C 99% 2.3 mph SE3.7 kmh SE 2.3 mph3.7 kmh 29.65 in1004.1 mb - 0.01 in0.3 mm 1.63 in41.4 mm
05:48 PM 53.6°F12.0°C 53.3°F11.8°C 99% 2.3 mph SE3.7 kmh SE 3.5 mph5.6 kmh 29.65 in1004.1 mb - 0.00 in0.0 mm 1.63 in41.4 mm
05:49 PM 53.6°F12.0°C 53.3°F11.8°C 99% 2.3 mph SSE3.7 kmh SSE 2.3 mph3.7 kmh 29.65 in1004.1 mb - 0.00 in0.0 mm 1.63 in41.4 mm
05:50 PM 53.6°F12.0°C 53.3°F11.8°C 99% 1.2 mph SE1.9 kmh SE 2.3 mph3.7 kmh 29.65 in1004.1 mb - 0.00 in0.0 mm 1.63 in41.4 mm
05:51 PM 53.8°F12.1°C 53.5°F11.9°C 99% Calm Calm 2.3 mph3.7 kmh 29.65 in1004.1 mb - 0.01 in0.3 mm 1.64 in41.7 mm
05:52 PM 53.8°F12.1°C 53.5°F11.9°C 99% 2.3 mph S3.7 kmh S 3.5 mph5.6 kmh 29.65 in1004.1 mb - 0.01 in0.3 mm 1.64 in41.7 mm
05:53 PM 53.8°F12.1°C 53.5°F11.9°C 99% 2.3 mph SE3.7 kmh SE 3.5 mph5.6 kmh 29.65 in1004.1 mb - 0.00 in0.0 mm 1.64 in41.7 mm
05:54 PM 53.8°F12.1°C 53.5°F11.9°C 99% 1.2 mph S1.9 kmh S 1.2 mph1.9 kmh 29.65 in1004.1 mb - 0.00 in0.0 mm 1.64 in41.7 mm
05:55 PM 53.8°F12.1°C 53.5°F11.9°C 99% Calm Calm 2.3 mph3.7 kmh 29.65 in1004.1 mb - 0.00 in0.0 mm 1.64 in41.7 mm
05:56 PM 53.8°F12.1°C 53.5°F11.9°C 99% 1.2 mph WSW1.9 kmh WSW 2.3 mph3.7 kmh 29.65 in1004.1 mb - 0.00 in0.0 mm 1.64 in41.7 mm
05:57 PM 53.8°F12.1°C 53.5°F11.9°C 99% 1.2 mph SW1.9 kmh SW 3.5 mph5.6 kmh 29.65 in1004.1 mb - 0.00 in0.0 mm 1.64 in41.7 mm
05:58 PM 53.8°F12.1°C 53.5°F11.9°C 99% 1.2 mph S1.9 kmh S 3.5 mph5.6 kmh 29.65 in1004.1 mb - 0.00 in0.0 mm 1.64 in41.7 mm
05:59 PM 53.8°F12.1°C 53.5°F11.9°C 99% 2.3 mph SSW3.7 kmh SSW 3.5 mph5.6 kmh 29.65 in1004.1 mb - 0.00 in0.0 mm 1.64 in41.7 mm
06:00 PM 53.8°F12.1°C 53.5°F11.9°C 99% 1.2 mph WSW1.9 kmh WSW 3.5 mph5.6 kmh 29.65 in1004.1 mb - 0.00 in0.0 mm 1.64 in41.7 mm
06:01 PM 53.8°F12.1°C 53.5°F11.9°C 99% 2.3 mph SSE3.7 kmh SSE 4.6 mph7.4 kmh 29.65 in1004.1 mb - 0.00 in0.0 mm 1.64 in41.7 mm
06:02 PM 53.8°F12.1°C 53.5°F11.9°C 99% 3.5 mph SSE5.6 kmh SSE 3.5 mph5.6 kmh 29.64 in1003.7 mb - 0.00 in0.0 mm 1.64 in41.7 mm
06:03 PM 54.0°F12.2°C 53.7°F12.1°C 99% 1.2 mph SSW1.9 kmh SSW 5.8 mph9.3 kmh 29.64 in1003.7 mb - 0.00 in0.0 mm 1.64 in41.7 mm
06:04 PM 54.0°F12.2°C 53.7°F12.1°C 99% 2.3 mph S3.7 kmh S 5.8 mph9.3 kmh 29.64 in1003.7 mb - 0.00 in0.0 mm 1.64 in41.7 mm
06:05 PM 54.1°F12.3°C 53.8°F12.1°C 99% 4.6 mph S7.4 kmh S 5.8 mph9.3 kmh 29.64 in1003.7 mb - 0.01 in0.3 mm 1.65 in41.9 mm
06:06 PM 54.1°F12.3°C 53.8°F12.1°C 99% 3.5 mph SE5.6 kmh SE 4.6 mph7.4 kmh 29.64 in1003.7 mb - 0.01 in0.3 mm 1.65 in41.9 mm
06:07 PM 54.1°F12.3°C 53.8°F12.1°C 99% 3.5 mph S5.6 kmh S 4.6 mph7.4 kmh 29.64 in1003.7 mb - 0.00 in0.0 mm 1.65 in41.9 mm
06:08 PM 54.2°F12.3°C 53.9°F12.2°C 99% 3.5 mph SSW5.6 kmh SSW 5.8 mph9.3 kmh 29.64 in1003.7 mb - 0.00 in0.0 mm 1.65 in41.9 mm
06:09 PM 54.3°F12.4°C 54.1°F12.3°C 99% 4.6 mph SSE7.4 kmh SSE 5.8 mph9.3 kmh 29.64 in1003.7 mb - 0.00 in0.0 mm 1.65 in41.9 mm
06:10 PM 54.5°F12.5°C 54.2°F12.3°C 99% 4.6 mph ESE7.4 kmh ESE 4.6 mph7.4 kmh 29.64 in1003.7 mb - 0.01 in0.3 mm 1.66 in42.2 mm
06:11 PM 54.5°F12.5°C 54.2°F12.3°C 99% 2.3 mph SE3.7 kmh SE 1.2 mph1.9 kmh 29.64 in1003.7 mb - 0.02 in0.5 mm 1.67 in42.4 mm
06:12 PM 54.5°F12.5°C 54.2°F12.3°C 99% 1.2 mph S1.9 kmh S 3.5 mph5.6 kmh 29.64 in1003.7 mb - 0.01 in0.3 mm 1.67 in42.4 mm
06:13 PM 54.5°F12.5°C 54.2°F12.3°C 99% 2.3 mph SSE3.7 kmh SSE 2.3 mph3.7 kmh 29.64 in1003.7 mb - 0.00 in0.0 mm 1.67 in42.4 mm
06:14 PM 54.5°F12.5°C 54.3°F12.4°C 99% 2.3 mph S3.7 kmh S 1.2 mph1.9 kmh 29.64 in1003.7 mb - 0.00 in0.0 mm 1.67 in42.4 mm
06:15 PM 54.7°F12.6°C 54.4°F12.4°C 99% 1.2 mph S1.9 kmh S 2.3 mph3.7 kmh 29.64 in1003.7 mb - 0.00 in0.0 mm 1.67 in42.4 mm
06:16 PM 54.7°F12.6°C 54.4°F12.4°C 99% 2.3 mph SSE3.7 kmh SSE 2.3 mph3.7 kmh 29.64 in1003.7 mb - 0.01 in0.3 mm 1.68 in42.7 mm
06:17 PM 54.7°F12.6°C 54.4°F12.4°C 99% 2.3 mph SE3.7 kmh SE 2.3 mph3.7 kmh 29.64 in1003.7 mb - 0.01 in0.3 mm 1.68 in42.7 mm
06:18 PM 54.7°F12.6°C 54.4°F12.4°C 99% Calm Calm -- 29.64 in1003.7 mb - 0.00 in0.0 mm 1.68 in42.7 mm
06:19 PM 54.7°F12.6°C 54.4°F12.4°C 99% Calm Calm 2.3 mph3.7 kmh 29.64 in1003.7 mb - 0.00 in0.0 mm 1.68 in42.7 mm
06:20 PM 54.7°F12.6°C 54.4°F12.4°C 99% 1.2 mph S1.9 kmh S 2.3 mph3.7 kmh 29.64 in1003.7 mb - 0.01 in0.3 mm 1.69 in42.9 mm
06:21 PM 54.7°F12.6°C 54.4°F12.4°C 99% Calm Calm -- 29.64 in1003.7 mb - 0.01 in0.3 mm 1.69 in42.9 mm
06:22 PM 54.7°F12.6°C 54.4°F12.4°C 99% Calm Calm 1.2 mph1.9 kmh 29.64 in1003.7 mb - 0.00 in0.0 mm 1.69 in42.9 mm
06:23 PM 54.7°F12.6°C 54.4°F12.4°C 99% Calm Calm 1.2 mph1.9 kmh 29.64 in1003.7 mb - 0.01 in0.3 mm 1.70 in43.2 mm
06:24 PM 54.7°F12.6°C 54.4°F12.4°C 99% Calm Calm -- 29.64 in1003.7 mb - 0.01 in0.3 mm 1.70 in43.2 mm
06:25 PM 54.7°F12.6°C 54.4°F12.4°C 99% Calm Calm -- 29.64 in1003.7 mb - 0.01 in0.3 mm 1.71 in43.4 mm
06:26 PM 54.7°F12.6°C 54.4°F12.4°C 99% Calm Calm -- 29.64 in1003.7 mb - 0.01 in0.3 mm 1.71 in43.4 mm
06:27 PM 54.7°F12.6°C 54.4°F12.4°C 99% Calm Calm 2.3 mph3.7 kmh 29.64 in1003.7 mb - 0.01 in0.3 mm 1.72 in43.7 mm
06:28 PM 54.7°F12.6°C 54.4°F12.4°C 99% 2.3 mph WNW3.7 kmh WNW 2.3 mph3.7 kmh 29.64 in1003.7 mb - 0.02 in0.5 mm 1.73 in43.9 mm
06:29 PM 54.7°F12.6°C 54.4°F12.4°C 99% 2.3 mph W3.7 kmh W 2.3 mph3.7 kmh 29.64 in1003.7 mb - 0.01 in0.3 mm 1.73 in43.9 mm
06:30 PM 54.7°F12.6°C 54.4°F12.4°C 99% 1.2 mph W1.9 kmh W 1.2 mph1.9 kmh 29.64 in1003.7 mb - 0.01 in0.3 mm 1.75 in44.5 mm
06:31 PM 54.7°F12.6°C 54.4°F12.4°C 99% 1.2 mph WNW1.9 kmh WNW 2.3 mph3.7 kmh 29.64 in1003.7 mb - 0.02 in0.5 mm 1.75 in44.5 mm
06:32 PM 54.7°F12.6°C 54.4°F12.4°C 99% 2.3 mph WSW3.7 kmh WSW 2.3 mph3.7 kmh 29.64 in1003.7 mb - 0.03 in0.8 mm 1.77 in45.0 mm
06:33 PM 54.7°F12.6°C 54.4°F12.4°C 99% 2.3 mph SW3.7 kmh SW 2.3 mph3.7 kmh 29.64 in1003.7 mb - 0.04 in1.0 mm 1.79 in45.5 mm
06:34 PM 54.7°F12.6°C 54.4°F12.4°C 99% 1.2 mph SSW1.9 kmh SSW 1.2 mph1.9 kmh 29.64 in1003.7 mb - 0.05 in1.3 mm 1.82 in46.2 mm
06:35 PM 54.7°F12.6°C 54.4°F12.4°C 99% Calm Calm -- 29.64 in1003.7 mb - 0.06 in1.5 mm 1.85 in47.0 mm
06:36 PM 54.7°F12.6°C 54.4°F12.4°C 99% Calm Calm 2.3 mph3.7 kmh 29.64 in1003.7 mb - 0.03 in0.8 mm 1.85 in47.0 mm
06:37 PM 54.7°F12.6°C 54.4°F12.4°C 99% 1.2 mph SE1.9 kmh SE 1.2 mph1.9 kmh 29.64 in1003.7 mb - 0.02 in0.5 mm 1.87 in47.5 mm
06:38 PM 54.7°F12.6°C 54.4°F12.4°C 99% Calm Calm -- 29.65 in1004.1 mb - 0.03 in0.8 mm 1.88 in47.8 mm
06:39 PM 54.7°F12.6°C 54.4°F12.4°C 99% Calm Calm -- 29.65 in1004.1 mb - 0.02 in0.5 mm 1.89 in48.0 mm
06:40 PM 54.7°F12.6°C 54.4°F12.4°C 99% Calm Calm -- 29.65 in1004.1 mb - 0.01 in0.3 mm 1.89 in48.0 mm
06:41 PM 54.7°F12.6°C 54.4°F12.4°C 99% 1.2 mph S1.9 kmh S 2.3 mph3.7 kmh 29.65 in1004.1 mb - 0.01 in0.3 mm 1.90 in48.3 mm
06:42 PM 54.7°F12.6°C 54.4°F12.4°C 99% 1.2 mph SE1.9 kmh SE 1.2 mph1.9 kmh 29.65 in1004.1 mb - 0.02 in0.5 mm 1.91 in48.5 mm
06:43 PM 54.7°F12.6°C 54.4°F12.4°C 99% Calm Calm 1.2 mph1.9 kmh 29.65 in1004.1 mb - 0.03 in0.8 mm 1.93 in49.0 mm
06:44 PM 54.7°F12.6°C 54.4°F12.4°C 99% 1.2 mph SE1.9 kmh SE 2.3 mph3.7 kmh 29.65 in1004.1 mb - 0.02 in0.5 mm 1.93 in49.0 mm
06:45 PM 54.7°F12.6°C 54.4°F12.4°C 99% 2.3 mph SW3.7 kmh SW 2.3 mph3.7 kmh 29.65 in1004.1 mb - 0.03 in0.8 mm 1.96 in49.8 mm
06:46 PM 54.7°F12.6°C 54.4°F12.4°C 99% 2.3 mph SW3.7 kmh SW 2.3 mph3.7 kmh 29.65 in1004.1 mb - 0.04 in1.0 mm 1.97 in50.0 mm
06:47 PM 54.7°F12.6°C 54.4°F12.4°C 99% 1.2 mph S1.9 kmh S 4.6 mph7.4 kmh 29.65 in1004.1 mb - 0.02 in0.5 mm 1.98 in50.3 mm
06:48 PM 54.7°F12.6°C 54.4°F12.4°C 99% 2.3 mph SW3.7 kmh SW 4.6 mph7.4 kmh 29.65 in1004.1 mb - 0.02 in0.5 mm 1.99 in50.5 mm
06:49 PM 54.7°F12.6°C 54.4°F12.4°C 99% 3.5 mph SE5.6 kmh SE 3.5 mph5.6 kmh 29.65 in1004.1 mb - 0.01 in0.3 mm 1.99 in50.5 mm
06:50 PM 54.7°F12.6°C 54.4°F12.4°C 99% 2.3 mph S3.7 kmh S 2.3 mph3.7 kmh 29.66 in1004.4 mb - 0.00 in0.0 mm 1.99 in50.5 mm
06:51 PM 54.7°F12.6°C 54.4°F12.4°C 99% 2.3 mph W3.7 kmh W 3.5 mph5.6 kmh 29.66 in1004.4 mb - 0.01 in0.3 mm 2.00 in50.8 mm
06:52 PM 54.7°F12.6°C 54.4°F12.4°C 99% 2.3 mph S3.7 kmh S 3.5 mph5.6 kmh 29.66 in1004.4 mb - 0.01 in0.3 mm 2.00 in50.8 mm
06:53 PM 54.7°F12.6°C 54.4°F12.4°C 99% 2.3 mph W3.7 kmh W 3.5 mph5.6 kmh 29.66 in1004.4 mb - 0.00 in0.0 mm 2.00 in50.8 mm
06:54 PM 54.7°F12.6°C 54.4°F12.4°C 99% 4.6 mph S7.4 kmh S 6.9 mph11.1 kmh 29.66 in1004.4 mb - 0.01 in0.3 mm 2.01 in51.1 mm
06:55 PM 54.7°F12.6°C 54.4°F12.4°C 99% 6.9 mph S11.1 kmh S 11.5 mph18.5 kmh 29.66 in1004.4 mb - 0.01 in0.3 mm 2.01 in51.1 mm
06:56 PM 54.7°F12.6°C 54.4°F12.4°C 99% 6.9 mph S11.1 kmh S 8.1 mph13.0 kmh 29.66 in1004.4 mb - 0.01 in0.3 mm 2.02 in51.3 mm
06:57 PM 54.7°F12.6°C 54.4°F12.4°C 99% 5.8 mph SE9.3 kmh SE 8.1 mph13.0 kmh 29.66 in1004.4 mb - 0.01 in0.3 mm 2.02 in51.3 mm
06:58 PM 54.7°F12.6°C 54.4°F12.4°C 99% 2.3 mph S3.7 kmh S 2.3 mph3.7 kmh 29.66 in1004.4 mb - 0.01 in0.3 mm 2.03 in51.6 mm
06:59 PM 54.7°F12.6°C 54.4°F12.4°C 99% 2.3 mph S3.7 kmh S 2.3 mph3.7 kmh 29.66 in1004.4 mb - 0.01 in0.3 mm 2.03 in51.6 mm
07:00 PM 54.7°F12.6°C 54.4°F12.4°C 99% 1.2 mph E1.9 kmh E 3.5 mph5.6 kmh 29.66 in1004.4 mb - 0.00 in0.0 mm 2.03 in51.6 mm
07:01 PM 54.7°F12.6°C 54.4°F12.4°C 99% 3.5 mph SSE5.6 kmh SSE 4.6 mph7.4 kmh 29.66 in1004.4 mb - 0.01 in0.3 mm 2.04 in51.8 mm
07:02 PM 54.7°F12.6°C 54.4°F12.4°C 99% 3.5 mph S5.6 kmh S 3.5 mph5.6 kmh 29.65 in1004.1 mb - 0.01 in0.3 mm 2.04 in51.8 mm
07:03 PM 54.7°F12.6°C 54.4°F12.4°C 99% 2.3 mph SSE3.7 kmh SSE 3.5 mph5.6 kmh 29.65 in1004.1 mb - 0.01 in0.3 mm 2.05 in52.1 mm
07:04 PM 54.7°F12.6°C 54.4°F12.4°C 99% 2.3 mph S3.7 kmh S 3.5 mph5.6 kmh 29.65 in1004.1 mb - 0.01 in0.3 mm 2.05 in52.1 mm
07:05 PM 54.7°F12.6°C 54.4°F12.4°C 99% 1.2 mph SE1.9 kmh SE 1.2 mph1.9 kmh 29.65 in1004.1 mb - 0.00 in0.0 mm 2.05 in52.1 mm
07:06 PM 54.7°F12.6°C 54.4°F12.4°C 99% 1.2 mph S1.9 kmh S 2.3 mph3.7 kmh 29.65 in1004.1 mb - 0.00 in0.0 mm 2.05 in52.1 mm
07:07 PM 54.7°F12.6°C 54.4°F12.4°C 99% 2.3 mph S3.7 kmh S 5.8 mph9.3 kmh 29.65 in1004.1 mb - 0.00 in0.0 mm 2.05 in52.1 mm
07:08 PM 54.7°F12.6°C 54.4°F12.4°C 99% 3.5 mph SE5.6 kmh SE 5.8 mph9.3 kmh 29.65 in1004.1 mb - 0.01 in0.3 mm 2.06 in52.3 mm
07:09 PM 54.7°F12.6°C 54.4°F12.4°C 99% 2.3 mph SE3.7 kmh SE 3.5 mph5.6 kmh 29.65 in1004.1 mb - 0.01 in0.3 mm 2.06 in52.3 mm
07:10 PM 54.7°F12.6°C 54.4°F12.4°C 99% 2.3 mph SE3.7 kmh SE 4.6 mph7.4 kmh 29.65 in1004.1 mb - 0.00 in0.0 mm 2.06 in52.3 mm
07:11 PM 54.7°F12.6°C 54.4°F12.4°C 99% 2.3 mph S3.7 kmh S 4.6 mph7.4 kmh 29.65 in1004.1 mb - 0.01 in0.3 mm 2.07 in52.6 mm
07:12 PM 54.7°F12.6°C 54.4°F12.4°C 99% 2.3 mph S3.7 kmh S 1.2 mph1.9 kmh 29.65 in1004.1 mb - 0.01 in0.3 mm 2.07 in52.6 mm
07:13 PM 54.7°F12.6°C 54.4°F12.4°C 99% 2.3 mph SE3.7 kmh SE 2.3 mph3.7 kmh 29.65 in1004.1 mb - 0.00 in0.0 mm 2.07 in52.6 mm
07:14 PM 54.7°F12.6°C 54.4°F12.4°C 99% 2.3 mph SE3.7 kmh SE 2.3 mph3.7 kmh 29.62 in1003.0 mb - 0.00 in0.0 mm 2.07 in52.6 mm
07:15 PM 54.7°F12.6°C 54.4°F12.4°C 99% 2.3 mph S3.7 kmh S 2.3 mph3.7 kmh 29.61 in1002.7 mb - 0.00 in0.0 mm 2.07 in52.6 mm
07:16 PM 54.7°F12.6°C 54.4°F12.4°C 99% 1.2 mph S1.9 kmh S 2.3 mph3.7 kmh 29.61 in1002.7 mb - 0.01 in0.3 mm 2.08 in52.8 mm
07:17 PM 54.7°F12.6°C 54.4°F12.4°C 99% 2.3 mph SE3.7 kmh SE 2.3 mph3.7 kmh 29.61 in1002.7 mb - 0.02 in0.5 mm 2.09 in53.1 mm
07:18 PM 54.7°F12.6°C 54.4°F12.4°C 99% 2.3 mph SSE3.7 kmh SSE 3.5 mph5.6 kmh 29.61 in1002.7 mb - 0.01 in0.3 mm 2.09 in53.1 mm
07:19 PM 54.7°F12.6°C 54.4°F12.4°C 99% 2.3 mph SSE3.7 kmh SSE 4.6 mph7.4 kmh 29.61 in1002.7 mb - 0.00 in0.0 mm 2.09 in53.1 mm
07:20 PM 54.7°F12.6°C 54.4°F12.4°C 99% 3.5 mph S5.6 kmh S 5.8 mph9.3 kmh 29.61 in1002.7 mb - 0.00 in0.0 mm 2.09 in53.1 mm
07:21 PM 54.7°F12.6°C 54.4°F12.4°C 99% 2.3 mph NE3.7 kmh NE 4.6 mph7.4 kmh 29.61 in1002.7 mb - 0.00 in0.0 mm 2.09 in53.1 mm
07:22 PM 54.7°F12.6°C 54.4°F12.4°C 99% 3.5 mph SE5.6 kmh SE 3.5 mph5.6 kmh 29.61 in1002.7 mb - 0.00 in0.0 mm 2.09 in53.1 mm
07:23 PM 54.7°F12.6°C 54.4°F12.4°C 99% 2.3 mph SE3.7 kmh SE 5.8 mph9.3 kmh 29.61 in1002.7 mb - 0.00 in0.0 mm 2.09 in53.1 mm
07:24 PM 54.7°F12.6°C 54.4°F12.4°C 99% 3.5 mph S5.6 kmh S 5.8 mph9.3 kmh 29.61 in1002.7 mb - 0.00 in0.0 mm 2.09 in53.1 mm
07:25 PM 54.7°F12.6°C 54.4°F12.4°C 99% 1.2 mph S1.9 kmh S 3.5 mph5.6 kmh 29.61 in1002.7 mb - 0.00 in0.0 mm 2.09 in53.1 mm
07:26 PM 54.7°F12.6°C 54.4°F12.4°C 99% 2.3 mph S3.7 kmh S 5.8 mph9.3 kmh 29.61 in1002.7 mb - 0.00 in0.0 mm 2.09 in53.1 mm
07:27 PM 54.7°F12.6°C 54.4°F12.4°C 99% 2.3 mph SSE3.7 kmh SSE 4.6 mph7.4 kmh 29.61 in1002.7 mb - 0.00 in0.0 mm 2.09 in53.1 mm
07:28 PM 54.7°F12.6°C 54.4°F12.4°C 99% 3.5 mph SSE5.6 kmh SSE 5.8 mph9.3 kmh 29.61 in1002.7 mb - 0.00 in0.0 mm 2.09 in53.1 mm
07:29 PM 54.7°F12.6°C 54.4°F12.4°C 99% 4.6 mph S7.4 kmh S 5.8 mph9.3 kmh 29.61 in1002.7 mb - 0.00 in0.0 mm 2.09 in53.1 mm
07:30 PM 54.7°F12.6°C 54.4°F12.4°C 99% 2.3 mph SSE3.7 kmh SSE 4.6 mph7.4 kmh 29.61 in1002.7 mb - 0.00 in0.0 mm 2.09 in53.1 mm
07:31 PM 54.7°F12.6°C 54.4°F12.4°C 99% 1.2 mph SSE1.9 kmh SSE 4.6 mph7.4 kmh 29.61 in1002.7 mb - 0.00 in0.0 mm 2.09 in53.1 mm
07:32 PM 54.7°F12.6°C 54.4°F12.4°C 99% 2.3 mph S3.7 kmh S 4.6 mph7.4 kmh 29.61 in1002.7 mb - 0.00 in0.0 mm 2.09 in53.1 mm
07:33 PM 54.7°F12.6°C 54.4°F12.4°C 99% 2.3 mph SSE3.7 kmh SSE 2.3 mph3.7 kmh 29.61 in1002.7 mb - 0.00 in0.0 mm 2.09 in53.1 mm
07:34 PM 54.7°F12.6°C 54.4°F12.4°C 99% 2.3 mph SW3.7 kmh SW 3.5 mph5.6 kmh 29.61 in1002.7 mb - 0.00 in0.0 mm 2.09 in53.1 mm
07:35 PM 54.7°F12.6°C 54.4°F12.4°C 99% 2.3 mph S3.7 kmh S 2.3 mph3.7 kmh 29.61 in1002.7 mb - 0.00 in0.0 mm 2.09 in53.1 mm
07:36 PM 54.7°F12.6°C 54.4°F12.4°C 99% 2.3 mph S3.7 kmh S 3.5 mph5.6 kmh 29.61 in1002.7 mb - 0.00 in0.0 mm 2.09 in53.1 mm
07:37 PM 54.7°F12.6°C 54.4°F12.4°C 99% 2.3 mph SE3.7 kmh SE 4.6 mph7.4 kmh 29.61 in1002.7 mb - 0.00 in0.0 mm 2.09 in53.1 mm
07:38 PM 54.7°F12.6°C 54.4°F12.4°C 99% 2.3 mph SSE3.7 kmh SSE 2.3 mph3.7 kmh 29.62 in1003.0 mb - 0.00 in0.0 mm 2.09 in53.1 mm
07:39 PM 54.7°F12.6°C 54.4°F12.4°C 99% 1.2 mph S1.9 kmh S 2.3 mph3.7 kmh 29.63 in1003.4 mb - 0.00 in0.0 mm 2.09 in53.1 mm
07:40 PM 54.7°F12.6°C 54.4°F12.4°C 99% 1.2 mph S1.9 kmh S 2.3 mph3.7 kmh 29.63 in1003.4 mb - 0.01 in0.3 mm 2.10 in53.3 mm
07:41 PM 54.7°F12.6°C 54.4°F12.4°C 99% 2.3 mph WSW3.7 kmh WSW 2.3 mph3.7 kmh 29.63 in1003.4 mb - 0.01 in0.3 mm 2.10 in53.3 mm
07:42 PM 54.7°F12.6°C 54.4°F12.4°C 99% 1.2 mph WSW1.9 kmh WSW 2.3 mph3.7 kmh 29.63 in1003.4 mb - 0.00 in0.0 mm 2.10 in53.3 mm
07:43 PM 54.7°F12.6°C 54.4°F12.4°C 99% 2.3 mph SW3.7 kmh SW 4.6 mph7.4 kmh 29.63 in1003.4 mb - 0.00 in0.0 mm 2.10 in53.3 mm
07:44 PM 54.5°F12.5°C 54.2°F12.3°C 99% 3.5 mph S5.6 kmh S 3.5 mph5.6 kmh 29.63 in1003.4 mb - 0.00 in0.0 mm 2.10 in53.3 mm
07:45 PM 54.5°F12.5°C 54.2°F12.3°C 99% 3.5 mph SE5.6 kmh SE 5.8 mph9.3 kmh 29.63 in1003.4 mb - 0.00 in0.0 mm 2.10 in53.3 mm
07:46 PM 54.5°F12.5°C 54.2°F12.3°C 99% 3.5 mph SSE5.6 kmh SSE 2.3 mph3.7 kmh 29.63 in1003.4 mb - 0.00 in0.0 mm 2.10 in53.3 mm
07:47 PM 54.5°F12.5°C 54.2°F12.3°C 99% 2.3 mph S3.7 kmh S 3.5 mph5.6 kmh 29.63 in1003.4 mb - 0.00 in0.0 mm 2.10 in53.3 mm
07:48 PM 54.5°F12.5°C 54.2°F12.3°C 99% 1.2 mph SSE1.9 kmh SSE 3.5 mph5.6 kmh 29.63 in1003.4 mb - 0.00 in0.0 mm 2.10 in53.3 mm
07:49 PM 54.5°F12.5°C 54.2°F12.3°C 99% 2.3 mph SE3.7 kmh SE 4.6 mph7.4 kmh 29.63 in1003.4 mb - 0.01 in0.3 mm 2.11 in53.6 mm
07:50 PM 54.5°F12.5°C 54.2°F12.3°C 99% 3.5 mph S5.6 kmh S 4.6 mph7.4 kmh 29.63 in1003.4 mb - 0.01 in0.3 mm 2.11 in53.6 mm
07:51 PM 54.5°F12.5°C 54.2°F12.3°C 99% 2.3 mph SE3.7 kmh SE 3.5 mph5.6 kmh 29.64 in1003.7 mb - 0.00 in0.0 mm 2.11 in53.6 mm
07:52 PM 54.5°F12.5°C 54.2°F12.3°C 99% 2.3 mph W3.7 kmh W 1.2 mph1.9 kmh 29.64 in1003.7 mb - 0.00 in0.0 mm 2.11 in53.6 mm
07:53 PM 54.5°F12.5°C 54.2°F12.3°C 99% 1.2 mph SW1.9 kmh SW 2.3 mph3.7 kmh 29.64 in1003.7 mb -